ftp/pub/palmer/observations_modified/2019/November/AR191127_BASE.txt

Download

Sample DateTime	Unit Id	WS Avg 2min	WD Avg 2min	WGS 10min	WGD 10min	Air Temp	Rel Humidity	Dew Point	Pyranometer	Quantum	Air Pressure	Snow Level	Rainfall	PW Current	Visibility	CBase 1	CBase 2	CBase 3	Vert Vis
2019/11/27 00:00:00	BASE	0.00	154	1.13	141	0.1	100	0.1	16	0	993.9	NA	0.0000		9999	230	0	0	0
2019/11/27 00:01:00	BASE	0.27	160	1.13	160	0.1	100	0.1	15	0	993.7	NA	0.0000		9999	260	0	0	0
2019/11/27 00:02:00	BASE	0.71	163	1.39	166	0.1	100	0.1	14	0	993.9	NA	0.0000		9999	260	0	0	0
2019/11/27 00:03:00	BASE	1.22	162	1.90	160	0.1	100	0.1	13	0	993.9	NA	0.0000		9999	260	0	0	0
2019/11/27 00:04:00	BASE	1.66	159	1.90	160	0.1	100	0.1	12	0	993.9	NA	0.0000		9999	260	0	0	0
2019/11/27 00:05:00	BASE	1.86	160	2.31	159	0.1	100	0.1	12	0	994.0	NA	0.0000		9999	230	0	0	0
2019/11/27 00:06:00	BASE	2.00	157	2.31	159	0.1	100	0.1	12	0	994.0	NA	0.0000		9999	200	0	0	0
2019/11/27 00:07:00	BASE	1.86	154	2.31	159	0.1	100	0.1	11	0	994.0	NA	0.0000		9999	230	0	0	0
2019/11/27 00:08:00	BASE	1.57	150	2.31	159	0.1	100	0.1	11	0	994.0	NA	0.0000		9999	200	0	0	0
2019/11/27 00:09:00	BASE	1.39	146	2.31	159	0.1	100	0.1	11	0	994.0	NA	0.0000		9999	160	0	0	0
2019/11/27 00:10:00	BASE	1.46	144	2.31	159	0.1	100	0.1	10	0	994.0	NA	0.0000		9999	160	0	0	0
2019/11/27 00:11:00	BASE	1.64	146	2.31	159	0.1	100	0.1	10	0	994.0	NA	0.0000		9999	160	0	0	0
2019/11/27 00:12:00	BASE	1.58	147	2.31	159	0.1	100	0.1	11	0	994.0	NA	0.0000		9000	0	0	0	560
2019/11/27 00:13:00	BASE	1.58	150	2.31	159	0.1	100	0.1	11	0	994.0	NA	0.0000		9999	160	0	0	0
2019/11/27 00:14:00	BASE	1.71	151	2.31	159	0.1	100	0.1	11	0	994.0	NA	0.0000		9999	160	0	0	0
2019/11/27 00:15:00	BASE	1.85	150	2.21	160	0.1	100	0.1	11	0	994.0	NA	0.0000		9999	200	0	0	0
2019/11/27 00:16:00	BASE	2.03	147	2.16	146	0.1	100	0.1	11	0	994.0	NA	0.0000		9999	160	0	0	0
2019/11/27 00:17:00	BASE	2.02	144	2.16	146	0.1	100	0.1	11	0	994.0	NA	0.0000		9999	160	0	0	0
2019/11/27 00:18:00	BASE	2.01	143	2.26	143	0.1	100	0.1	12	0	994.0	NA	0.0000		9999	230	0	0	0
2019/11/27 00:19:00	BASE	2.09	144	2.47	144	0.0	100	0.0	12	0	994.0	NA	0.0000		9999	200	0	0	0
2019/11/27 00:20:00	BASE	2.08	143	2.47	144	0.0	100	0.0	12	0	994.0	NA	0.0000		9999	160	0	0	0
2019/11/27 00:21:00	BASE	2.06	139	2.47	144	0.0	100	0.0	12	0	994.0	NA	0.0000		9999	200	0	0	0
2019/11/27 00:22:00	BASE	1.96	136	2.47	144	-0.0	100	-0.0	12	0	994.0	NA	0.0000		9999	200	0	0	0
2019/11/27 00:23:00	BASE	1.73	140	2.47	144	-0.0	100	-0.0	12	0	994.0	NA	0.0000		9999	200	0	0	0
2019/11/27 00:24:00	BASE	1.59	143	2.47	144	-0.0	100	-0.0	12	0	994.0	NA	0.0000		9999	390	0	0	0
2019/11/27 00:25:00	BASE	1.71	145	2.47	144	-0.0	100	-0.0	12	0	994.0	NA	0.0000		9999	390	0	0	0
2019/11/27 00:26:00	BASE	2.12	150	2.68	158	-0.0	100	-0.0	11	0	994.0	NA	0.0000		9999	230	0	0	0
2019/11/27 00:27:00	BASE	2.56	155	2.83	162	-0.0	100	-0.0	11	0	993.9	NA	0.0000		9999	230	0	0	0
2019/11/27 00:28:00	BASE	2.77	161	2.98	162	-0.0	100	-0.0	9	0	993.9	NA	0.0000		9999	200	0	0	0
2019/11/27 00:29:00	BASE	2.66	163	2.98	162	-0.1	100	-0.1	10	0	993.9	NA	0.0000		9999	0	0	0	620
2019/11/27 00:30:00	BASE	2.22	163	2.98	162	-0.1	100	-0.1	11	0	993.9	NA	0.0000		9999	160	0	0	0
2019/11/27 00:31:00	BASE	1.93	161	2.98	162	-0.1	100	-0.1	11	0	993.8	NA	0.0000		9000	160	0	0	0
2019/11/27 00:32:00	BASE	2.00	161	2.98	162	-0.1	100	-0.1	10	0	993.7	NA	0.0000		9999	160	0	0	0
2019/11/27 00:33:00	BASE	2.22	164	2.98	162	-0.2	100	-0.2	10	0	993.7	NA	0.0000		9999	160	0	0	0
2019/11/27 00:34:00	BASE	2.54	162	2.98	162	-0.2	100	-0.2	9	0	993.7	NA	0.0000		9999	160	0	0	0
2019/11/27 00:35:00	BASE	2.82	160	3.34	162	-0.2	100	-0.2	9	0	993.7	NA	0.0000		9999	160	0	0	0
2019/11/27 00:36:00	BASE	2.77	161	3.34	162	-0.2	100	-0.2	10	0	993.6	NA	0.0000		9999	160	0	0	0
2019/11/27 00:37:00	BASE	2.49	160	3.34	162	-0.2	100	-0.2	10	0	993.6	NA	0.0000		9999	160	0	0	0
2019/11/27 00:38:00	BASE	2.63	157	3.34	162	-0.2	100	-0.2	10	0	993.6	NA	0.0000		9999	200	0	0	0
2019/11/27 00:39:00	BASE	2.86	157	3.34	162	-0.2	100	-0.2	10	0	993.6	NA	0.0000		9999	200	0	0	0
2019/11/27 00:40:00	BASE	2.72	156	3.34	162	-0.2	100	-0.2	10	0	993.6	NA	0.0000		9999	200	0	0	0
2019/11/27 00:41:00	BASE	2.20	156	3.34	162	-0.2	100	-0.2	11	0	993.5	NA	0.0000		9999	200	0	0	0
2019/11/27 00:42:00	BASE	1.73	149	3.34	162	-0.2	100	-0.2	11	0	993.5	NA	0.0000		9000	200	0	0	0
2019/11/27 00:43:00	BASE	1.69	133	3.34	162	-0.3	100	-0.3	11	0	993.5	NA	0.0000		9999	200	0	0	0
2019/11/27 00:44:00	BASE	1.65	125	3.34	162	-0.3	100	-0.3	11	0	993.5	NA	0.0000		9999	200	0	0	0
2019/11/27 00:45:00	BASE	1.39	116	3.24	152	-0.3	100	-0.3	11	0	993.5	NA	0.0000		9999	200	0	0	0
2019/11/27 00:46:00	BASE	1.30	101	3.24	152	-0.3	100	-0.3	10	0	993.4	NA	0.0000		9999	200	0	0	0
2019/11/27 00:47:00	BASE	1.35	92	3.24	152	-0.3	100	-0.3	10	0	993.4	NA	0.0000		9000	160	0	0	0
2019/11/27 00:48:00	BASE	0.91	84	3.24	152	-0.3	100	-0.3	10	0	993.3	NA	0.0000		9000	160	0	0	0
2019/11/27 00:49:00	BASE	0.73	82	2.88	163	-0.3	100	-0.3	9	0	993.3	NA	0.0000		9000	0	0	0	460
2019/11/27 00:50:00	BASE	1.35	93	2.31	151	-0.3	100	-0.3	9	0	993.4	NA	0.0000		9000	160	0	0	0
2019/11/27 00:51:00	BASE	1.72	107	1.95	113	-0.3	100	-0.3	9	0	993.4	NA	0.0000		9999	160	0	0	0
2019/11/27 00:52:00	BASE	1.82	117	2.16	124	-0.3	100	-0.3	9	0	993.5	NA	0.0000		9999	200	0	0	0
2019/11/27 00:53:00	BASE	2.06	124	2.42	127	-0.3	100	-0.3	8	0	993.5	NA	0.0000		9999	160	0	0	0
2019/11/27 00:54:00	BASE	2.19	127	2.42	127	-0.3	100	-0.3	8	0	993.5	NA	0.0000	BR	9999	200	0	0	0
2019/11/27 00:55:00	BASE	2.50	133	3.29	143	-0.3	100	-0.3	8	0	993.5	NA	0.0000	BR	9999	200	0	0	0
2019/11/27 00:56:00	BASE	2.96	141	3.29	143	-0.3	100	-0.3	8	0	993.5	NA	0.0000	BR	9999	160	0	0	0
2019/11/27 00:57:00	BASE	2.85	143	3.29	143	-0.3	100	-0.3	8	0	993.5	NA	0.0000	BR	9000	200	0	0	0
2019/11/27 00:58:00	BASE	2.60	144	3.29	143	-0.3	100	-0.3	8	0	993.5	NA	0.0000	BR	9000	230	0	0	0
2019/11/27 00:59:00	BASE	2.70	143	3.29	143	-0.2	100	-0.2	8	0	993.5	NA	0.0000	BR	9999	230	0	0	0
2019/11/27 01:00:00	BASE	2.72	142	3.29	143	-0.2	100	-0.2	8	0	993.5	NA	0.0000	BR	9000	230	0	0	0
2019/11/27 01:01:00	BASE	2.35	141	3.29	143	-0.2	100	-0.2	8	0	993.5	NA	0.0000	BR	9000	260	0	0	0
2019/11/27 01:02:00	BASE	2.11	143	3.29	143	-0.2	100	-0.2	7	0	993.5	NA	0.0000	BR	9000	260	0	0	0
2019/11/27 01:03:00	BASE	2.36	152	3.29	143	-0.2	100	-0.2	7	0	993.5	NA	0.0000	BR	9999	0	0	0	130
2019/11/27 01:04:00	BASE	2.65	156	3.29	143	-0.3	100	-0.3	7	0	993.5	NA	0.0000	BR	9999	0	0	0	160
2019/11/27 01:05:00	BASE	2.61	156	3.24	140	-0.3	100	-0.3	6	0	993.5	NA	0.0000	BR	9999	200	4760	0	0
2019/11/27 01:06:00	BASE	2.38	154	3.19	138	-0.3	100	-0.3	6	0	993.5	NA	0.0000	BR	9999	0	0	0	160
2019/11/27 01:07:00	BASE	2.24	153	3.19	138	-0.3	100	-0.3	5	0	993.5	NA	0.0000	BR	9999	6200	0	0	0
2019/11/27 01:08:00	BASE	2.29	155	3.19	138	-0.3	100	-0.3	5	0	993.5	NA	0.0000	BR	9999	6590	0	0	0
2019/11/27 01:09:00	BASE	2.48	154	2.98	141	-0.3	100	-0.3	5	0	993.5	NA	0.0000	BR	9999	0	0	0	160
2019/11/27 01:10:00	BASE	2.66	152	3.04	152	-0.3	100	-0.3	4	0	993.5	NA	0.0000	BR	9999	0	0	0	0
2019/11/27 01:11:00	BASE	2.50	151	3.04	152	-0.2	100	-0.2	4	0	993.5	NA	0.0000		9999	6200	0	0	0
2019/11/27 01:12:00	BASE	2.47	150	3.04	152	-0.2	100	-0.2	4	0	993.4	NA	0.0000		9999	4360	0	0	0
2019/11/27 01:13:00	BASE	2.78	153	3.14	158	-0.2	100	-0.2	4	0	993.4	NA	0.0000		9999	5220	0	0	0
2019/11/27 01:14:00	BASE	3.05	157	3.34	162	-0.2	100	-0.2	4	0	993.4	NA	0.0000		9999	5350	0	0	0
2019/11/27 01:15:00	BASE	3.05	159	3.34	162	-0.2	100	-0.2	4	0	993.4	NA	0.0000		9999	4430	0	0	0
2019/11/27 01:16:00	BASE	2.70	155	3.34	162	-0.2	100	-0.2	4	0	993.4	NA	0.0000		9999	7940	0	0	0
2019/11/27 01:17:00	BASE	2.32	150	3.34	162	-0.1	100	-0.1	3	0	993.4	NA	0.0000		9999	7610	0	0	0
2019/11/27 01:18:00	BASE	1.91	141	3.34	162	-0.1	100	-0.1	3	0	993.4	NA	0.0000		9999	7380	0	0	0
2019/11/27 01:19:00	BASE	1.63	130	3.34	162	-0.1	100	-0.1	3	0	993.4	NA	0.0000		9999	7550	0	0	0
2019/11/27 01:20:00	BASE	1.57	120	3.34	162	-0.1	100	-0.1	3	0	993.4	NA	0.0000		9999	0	0	0	330
2019/11/27 01:21:00	BASE	1.40	113	3.34	162	-0.1	100	-0.1	3	0	993.4	NA	0.0000		9999	230	0	0	0
2019/11/27 01:22:00	BASE	0.61	103	3.34	162	-0.1	100	-0.1	3	0	993.4	NA	0.0000		9999	230	0	0	0
2019/11/27 01:23:00	BASE	0.00	99	3.34	162	-0.1	100	-0.1	3	0	993.4	NA	0.0000		9999	230	0	0	0
2019/11/27 01:24:00	BASE	0.00	84	3.29	163	-0.1	100	-0.1	3	0	993.4	NA	0.0000		9999	260	0	0	0
2019/11/27 01:25:00	BASE	0.00	24	2.88	156	-0.0	100	-0.0	3	0	993.4	NA	0.0000		9999	300	0	0	0
2019/11/27 01:26:00	BASE	0.00	325	2.26	145	-0.0	100	-0.0	3	0	993.4	NA	0.0000		9999	260	0	0	0
2019/11/27 01:27:00	BASE	0.00	286	2.06	144	0.0	100	0.0	3	0	993.5	NA	0.0000		9999	300	0	0	0
2019/11/27 01:28:00	BASE	0.00	229	1.90	116	0.0	100	0.0	2	0	993.4	NA	0.0000		9999	300	0	0	0
2019/11/27 01:29:00	BASE	0.00	170	1.90	116	0.0	100	0.0	2	0	993.4	NA	0.0000		9999	330	8100	0	0
2019/11/27 01:30:00	BASE	0.00	150	1.44	123	0.0	100	0.0	2	0	993.3	NA	0.0000		9999	300	8140	0	0
2019/11/27 01:31:00	BASE	0.00	148	M	M	0.0	100	0.0	2	0	993.3	NA	0.0000		9999	330	8530	0	0
2019/11/27 01:32:00	BASE	0.00	167	M	M	0.0	100	0.0	2	0	993.3	NA	0.0000		9999	8100	0	0	0
2019/11/27 01:33:00	BASE	0.09	191	1.13	191	0.0	100	0.0	2	0	993.3	NA	0.0000		9999	6790	0	0	0
2019/11/27 01:34:00	BASE	0.49	192	1.34	179	0.0	100	0.0	2	0	993.2	NA	0.0000		9999	6590	0	0	0
2019/11/27 01:35:00	BASE	1.10	185	1.65	176	0.0	100	0.0	2	0	993.2	NA	0.0000		9999	8860	0	0	0
2019/11/27 01:36:00	BASE	1.50	174	1.75	157	0.0	100	0.0	2	0	993.3	NA	0.0000		9999	6630	0	0	0
2019/11/27 01:37:00	BASE	1.57	162	1.75	157	0.0	100	0.0	2	0	993.3	NA	0.0000		9999	10600	0	0	0
2019/11/27 01:38:00	BASE	1.43	155	1.75	157	0.0	100	0.0	2	0	993.2	NA	0.0000		9999	10530	0	0	0
2019/11/27 01:39:00	BASE	0.92	159	1.75	157	0.1	100	0.1	2	0	993.2	NA	0.0000		9999	10470	0	0	0
2019/11/27 01:40:00	BASE	0.73	172	1.75	157	0.1	100	0.1	2	0	993.2	NA	0.0000		9999	8600	0	0	0
2019/11/27 01:41:00	BASE	0.81	178	1.75	157	0.1	100	0.1	2	0	993.3	NA	0.0000		9999	5580	0	0	0
2019/11/27 01:42:00	BASE	0.44	174	1.75	157	0.1	100	0.1	2	0	993.3	NA	0.0000		9999	10500	0	0	0
2019/11/27 01:43:00	BASE	0.09	165	1.75	157	0.1	100	0.1	2	0	993.3	NA	0.0000		9999	560	0	0	0
2019/11/27 01:44:00	BASE	0.00	159	1.75	157	0.1	100	0.1	2	0	993.3	NA	0.0000		9999	460	0	0	0
2019/11/27 01:45:00	BASE	0.00	154	1.75	157	0.0	100	0.0	2	0	993.3	NA	0.0000		9999	460	0	0	0
2019/11/27 01:46:00	BASE	0.00	156	1.70	155	0.0	100	0.0	2	0	993.3	NA	0.0000		9999	390	0	0	0
2019/11/27 01:47:00	BASE	0.00	145	1.70	155	0.0	100	0.0	2	0	993.3	NA	0.0000		9999	460	0	0	0
2019/11/27 01:48:00	BASE	0.00	123	1.23	178	0.1	100	0.1	2	0	993.2	NA	0.0000		9999	430	0	0	0
2019/11/27 01:49:00	BASE	0.00	130	1.23	178	0.1	100	0.1	2	0	993.2	NA	0.0000		9999	390	0	0	0
2019/11/27 01:50:00	BASE	0.10	156	1.18	188	0.1	100	0.1	3	0	993.2	NA	0.0000		9999	390	10340	0	0
2019/11/27 01:51:00	BASE	0.85	179	2.21	208	0.1	100	0.1	3	0	993.2	NA	0.0000		9999	390	0	0	0
2019/11/27 01:52:00	BASE	2.07	197	2.88	213	0.0	100	0.0	3	0	993.2	NA	0.0000		9999	260	0	0	0
2019/11/27 01:53:00	BASE	2.53	200	2.88	213	-0.1	100	-0.1	3	0	993.3	NA	0.0000		9999	260	0	0	0
2019/11/27 01:54:00	BASE	2.46	184	2.88	213	-0.1	100	-0.1	3	0	993.3	NA	0.0000		9999	390	10140	0	0
2019/11/27 01:55:00	BASE	2.47	179	2.88	213	-0.2	100	-0.2	3	0	993.3	NA	0.0000		9999	10070	0	0	0
2019/11/27 01:56:00	BASE	2.30	186	2.88	213	-0.3	100	-0.3	3	0	993.3	NA	0.0000		9999	10110	0	0	0
2019/11/27 01:57:00	BASE	1.97	194	2.88	213	-0.3	100	-0.3	3	0	993.3	NA	0.0000		9999	10070	0	0	0
2019/11/27 01:58:00	BASE	1.70	189	2.88	213	-0.4	100	-0.4	3	0	993.3	NA	0.0000		9999	260	10110	0	0
2019/11/27 01:59:00	BASE	1.73	185	2.88	213	-0.4	100	-0.4	3	0	993.2	NA	0.0000		9999	7280	0	0	0
2019/11/27 02:00:00	BASE	1.82	188	2.88	213	-0.5	100	-0.5	2	0	993.2	NA	0.0000		9999	7150	0	0	0
2019/11/27 02:01:00	BASE	1.56	184	2.88	213	-0.6	100	-0.6	2	0	993.3	NA	0.0000		9999	7280	0	0	0
2019/11/27 02:02:00	BASE	0.89	188	2.62	175	-0.6	100	-0.6	2	0	993.3	NA	0.0000		9999	430	7020	0	0
2019/11/27 02:03:00	BASE	0.23	193	2.62	175	-0.6	100	-0.6	2	0	993.4	NA	0.0000		9999	260	0	0	0
2019/11/27 02:04:00	BASE	0.00	204	2.52	191	-0.6	100	-0.6	2	0	993.3	NA	0.0000		9999	330	6920	0	0
2019/11/27 02:05:00	BASE	0.00	235	2.52	191	-0.6	100	-0.6	2	0	993.2	NA	0.0000		9999	6820	0	0	0
2019/11/27 02:06:00	BASE	0.00	257	2.01	199	-0.6	100	-0.6	2	0	993.2	NA	0.0000		9999	6560	0	0	0
2019/11/27 02:07:00	BASE	0.00	252	1.95	189	-0.6	100	-0.6	2	0	993.2	NA	0.0000		9999	6430	0	0	0
2019/11/27 02:08:00	BASE	0.00	232	1.95	189	-0.6	100	-0.6	1	0	993.2	NA	0.0000		9999	6460	0	0	0
2019/11/27 02:09:00	BASE	0.00	217	1.95	189	-0.6	100	-0.6	1	0	993.3	NA	0.0000		9999	6270	0	0	0
2019/11/27 02:10:00	BASE	0.00	222	1.49	182	-0.6	100	-0.6	1	0	993.3	NA	0.0000		9999	6230	0	0	0
2019/11/27 02:11:00	BASE	0.04	227	1.08	197	-0.6	100	-0.6	1	0	993.3	NA	0.0000		9999	6200	0	0	0
2019/11/27 02:12:00	BASE	0.50	217	1.44	211	-0.6	100	-0.6	1	0	993.2	NA	0.0000		9999	6140	0	0	0
2019/11/27 02:13:00	BASE	1.13	211	1.49	211	-0.7	100	-0.7	1	0	993.2	NA	0.0000		9999	6140	0	0	0
2019/11/27 02:14:00	BASE	1.04	211	1.49	211	-0.7	100	-0.7	1	0	993.3	NA	0.0000		9999	6100	0	0	0
2019/11/27 02:15:00	BASE	0.37	212	1.49	211	-0.7	100	-0.7	1	0	993.3	NA	0.0000		9999	6140	0	0	0
2019/11/27 02:16:00	BASE	0.00	231	1.49	211	-0.7	100	-0.7	0	0	993.3	NA	0.0000		9999	6170	0	0	0
2019/11/27 02:17:00	BASE	0.00	261	1.49	211	-0.7	100	-0.7	0	0	993.3	NA	0.0000		9999	5970	0	0	0
2019/11/27 02:18:00	BASE	0.00	282	1.49	211	-0.6	100	-0.6	0	0	993.4	NA	0.0000		9999	520	6100	0	0
2019/11/27 02:19:00	BASE	0.05	289	1.49	211	-0.6	100	-0.6	0	0	993.5	NA	0.0000		9999	430	0	0	0
2019/11/27 02:20:00	BASE	0.35	282	1.49	211	-0.6	100	-0.6	0	0	993.5	NA	0.0000		9999	390	0	0	0
2019/11/27 02:21:00	BASE	1.05	281	1.75	281	-0.6	100	-0.6	0	0	993.5	NA	0.0000		9999	200	0	0	0
2019/11/27 02:22:00	BASE	1.45	290	1.75	281	-0.6	100	-0.6	0	0	993.4	NA	0.0000		9999	460	0	0	0
2019/11/27 02:23:00	BASE	1.15	304	1.75	281	-0.6	100	-0.6	0	0	993.3	NA	0.0000		9999	590	0	0	0
2019/11/27 02:24:00	BASE	0.45	303	1.75	281	-0.6	100	-0.6	0	0	993.3	NA	0.0000		9999	590	6040	0	0
2019/11/27 02:25:00	BASE	0.10	258	1.75	281	-0.6	100	-0.6	0	0	993.4	NA	0.0000		9999	6330	0	0	0
2019/11/27 02:26:00	BASE	0.94	213	1.95	206	-0.7	100	-0.7	0	0	993.4	NA	0.0000		9999	6460	0	0	0
2019/11/27 02:27:00	BASE	1.73	210	2.11	207	-0.7	100	-0.7	0	0	993.4	NA	0.0000		9999	790	6370	0	0
2019/11/27 02:28:00	BASE	1.50	223	2.11	207	-0.7	100	-0.7	0	0	993.4	NA	0.0000		9999	6070	0	0	0
2019/11/27 02:29:00	BASE	0.65	242	2.11	207	-0.7	100	-0.7	0	0	993.4	NA	0.0000		9999	6070	0	0	0
2019/11/27 02:30:00	BASE	0.04	260	2.11	207	-0.7	100	-0.7	0	0	993.4	NA	0.0000		9999	5770	0	0	0
2019/11/27 02:31:00	BASE	0.00	255	2.11	207	-0.6	100	-0.6	0	0	993.4	NA	0.0000		9999	5940	6760	0	0
2019/11/27 02:32:00	BASE	0.55	238	2.11	207	-0.6	100	-0.6	0	0	993.4	NA	0.0000		9999	230	5910	0	0
2019/11/27 02:33:00	BASE	0.55	238	2.11	207	-0.6	100	-0.6	0	0	993.4	NA	0.0000		9999	230	790	0	0
2019/11/27 02:34:00	BASE	0.53	234	2.11	207	-0.6	100	-0.6	0	0	993.4	NA	0.0000		9999	6040	0	0	0
2019/11/27 02:35:00	BASE	1.47	226	2.21	227	-0.6	100	-0.6	0	0	993.4	NA	0.0000		9999	5840	0	0	0
2019/11/27 02:36:00	BASE	1.91	225	2.26	229	-0.6	100	-0.6	0	0	993.4	NA	0.0000		9999	5940	0	0	0
2019/11/27 02:37:00	BASE	1.86	226	2.26	229	-0.7	100	-0.7	0	0	993.4	NA	0.0000		9999	750	0	0	0
2019/11/27 02:38:00	BASE	1.61	229	2.26	229	-0.7	100	-0.7	0	0	993.4	NA	0.0000		9999	330	820	0	0
2019/11/27 02:39:00	BASE	0.81	230	2.26	229	-0.7	100	-0.7	0	0	993.4	NA	0.0000		9999	5910	0	0	0
2019/11/27 02:40:00	BASE	0.38	221	2.26	229	-0.7	100	-0.7	0	0	993.4	NA	0.0000		9999	390	6040	0	0
2019/11/27 02:41:00	BASE	0.74	212	2.26	229	-0.7	100	-0.7	0	0	993.4	NA	0.0000		9999	6040	0	0	0
2019/11/27 02:42:00	BASE	0.86	203	2.26	229	-0.7	100	-0.7	0	0	993.5	NA	0.0000		9999	0	0	0	490
2019/11/27 02:43:00	BASE	0.56	190	2.26	229	-0.6	100	-0.6	0	0	993.5	NA	0.0000		9999	0	0	0	520
2019/11/27 02:44:00	BASE	0.14	180	2.26	229	-0.6	100	-0.6	0	0	993.5	NA	0.0000		9999	6140	0	0	0
2019/11/27 02:45:00	BASE	0.00	174	2.26	229	-0.6	100	-0.6	0	0	993.5	NA	0.0000		9999	300	6140	0	0
2019/11/27 02:46:00	BASE	0.00	173	1.95	225	-0.6	100	-0.6	0	0	993.5	NA	0.0000		9999	6200	0	0	0
2019/11/27 02:47:00	BASE	0.39	175	1.85	233	-0.6	100	-0.6	0	0	993.5	NA	0.0000		9999	7480	0	0	0
2019/11/27 02:48:00	BASE	0.64	165	1.39	171	-0.6	100	-0.6	0	0	993.5	NA	0.0000		9999	7450	0	0	0
2019/11/27 02:49:00	BASE	0.25	142	1.39	171	-0.6	100	-0.6	0	0	993.5	NA	0.0000		9999	7320	0	0	0
2019/11/27 02:50:00	BASE	0.00	125	1.39	171	-0.6	100	-0.6	0	0	993.4	NA	0.0000		9999	6860	7350	0	0
2019/11/27 02:51:00	BASE	0.00	158	1.39	171	-0.6	100	-0.6	0	0	993.4	NA	0.0000		9999	6690	0	0	0
2019/11/27 02:52:00	BASE	0.00	193	1.39	171	-0.6	100	-0.6	0	0	993.4	NA	0.0000		9999	230	6730	0	0
2019/11/27 02:53:00	BASE	0.00	186	1.39	171	-0.5	100	-0.5	0	0	993.4	NA	0.0000		9999	160	6790	0	0
2019/11/27 02:54:00	BASE	0.00	161	1.39	171	-0.5	100	-0.5	0	0	993.4	NA	0.0000		9999	160	0	0	0
2019/11/27 02:55:00	BASE	0.00	128	1.39	171	-0.5	100	-0.5	0	0	993.4	NA	0.0000		9999	160	6760	0	0
2019/11/27 02:56:00	BASE	0.00	117	1.39	171	-0.5	100	-0.5	0	0	993.4	NA	0.0000		9999	160	6690	0	0
2019/11/27 02:57:00	BASE	0.00	117	1.39	171	-0.5	100	-0.5	0	0	993.4	NA	0.0000		9999	260	6690	0	0
2019/11/27 02:58:00	BASE	0.00	110	M	M	-0.5	100	-0.5	0	0	993.4	NA	0.0000		9999	6590	0	0	0
2019/11/27 02:59:00	BASE	0.00	99	M	M	-0.5	100	-0.5	0	0	993.4	NA	0.0000		9999	360	6530	0	0
2019/11/27 03:00:00	BASE	0.00	94	M	M	-0.5	100	-0.5	0	0	993.4	NA	0.0000		9999	360	6460	0	0
2019/11/27 03:01:00	BASE	0.00	102	M	M	-0.5	100	-0.5	0	0	993.4	NA	0.0000		9999	6460	0	0	0
2019/11/27 03:02:00	BASE	0.00	120	M	M	-0.5	100	-0.5	0	0	993.4	NA	0.0000		9999	6460	0	0	0
2019/11/27 03:03:00	BASE	0.00	134	M	M	-0.5	100	-0.5	0	0	993.4	NA	0.0000		9999	6530	0	0	0
2019/11/27 03:04:00	BASE	0.00	135	M	M	-0.5	100	-0.5	0	0	993.4	NA	0.0000		9999	6530	0	0	0
2019/11/27 03:05:00	BASE	0.00	119	M	M	-0.5	100	-0.5	0	0	993.4	NA	0.0000		9999	360	6530	0	0
2019/11/27 03:06:00	BASE	0.00	90	M	M	-0.5	100	-0.5	0	0	993.4	NA	0.0000		9999	360	6560	0	0
2019/11/27 03:07:00	BASE	0.00	50	M	M	-0.5	100	-0.5	0	0	993.4	NA	0.0000		9999	360	0	0	0
2019/11/27 03:08:00	BASE	0.00	22	M	M	-0.5	100	-0.5	0	0	993.4	NA	0.0000		9999	390	6860	0	0
2019/11/27 03:09:00	BASE	0.00	20	M	M	-0.5	100	-0.5	0	0	993.5	NA	0.0000		9999	390	6920	0	0
2019/11/27 03:10:00	BASE	0.00	15	M	M	-0.5	100	-0.5	0	0	993.5	NA	0.0000		9999	360	0	0	0
2019/11/27 03:11:00	BASE	0.00	4	M	M	-0.5	100	-0.5	0	0	993.5	NA	0.0000		9999	360	0	0	0
2019/11/27 03:12:00	BASE	0.00	16	M	M	-0.5	100	-0.5	0	0	993.5	NA	0.0000		9999	390	0	0	0
2019/11/27 03:13:00	BASE	0.00	46	M	M	-0.5	100	-0.5	0	0	993.5	NA	0.0000		9999	390	980	0	0
2019/11/27 03:14:00	BASE	0.00	46	M	M	-0.4	100	-0.4	0	0	993.5	NA	0.0000	UP	9999	7350	0	0	0
2019/11/27 03:15:00	BASE	0.28	17	1.18	8	-0.4	100	-0.4	0	0	993.5	NA	0.0000	UP	9999	460	0	0	0
2019/11/27 03:16:00	BASE	0.90	3	1.39	5	-0.4	100	-0.4	0	0	993.4	NA	0.0000	UP	9999	790	0	0	0
2019/11/27 03:17:00	BASE	0.91	357	1.39	5	-0.4	100	-0.4	0	0	993.4	NA	0.0000	UP	9999	790	0	0	0
2019/11/27 03:18:00	BASE	0.28	354	1.39	5	-0.5	100	-0.5	0	0	993.5	NA	0.0000	UP	9999	790	0	0	0
2019/11/27 03:19:00	BASE	0.00	359	1.39	5	-0.5	100	-0.5	0	0	993.4	NA	0.0000	UP	9999	850	7480	0	0
2019/11/27 03:20:00	BASE	0.17	357	1.39	5	-0.5	100	-0.5	0	0	993.4	NA	0.0000	UP	9999	6140	0	0	0
2019/11/27 03:21:00	BASE	0.26	358	1.39	5	-0.6	100	-0.6	0	0	993.4	NA	0.0000	UP	9999	6170	7420	0	0
2019/11/27 03:22:00	BASE	0.17	4	1.39	5	-0.6	100	-0.6	0	0	993.4	NA	0.0000	UP	9999	790	6300	0	0
2019/11/27 03:23:00	BASE	0.09	4	1.39	5	-0.6	100	-0.6	0	0	993.4	NA	0.0000	UP	9999	790	6590	0	0
2019/11/27 03:24:00	BASE	0.00	3	1.39	5	-0.6	100	-0.6	0	0	993.4	NA	0.0000	UP	9999	820	6530	0	0
2019/11/27 03:25:00	BASE	0.13	2	1.39	5	-0.6	100	-0.6	0	0	993.3	NA	0.0000	UP	9999	750	6460	0	0
2019/11/27 03:26:00	BASE	0.82	3	1.65	5	-0.6	100	-0.6	0	0	993.3	NA	0.0000	UP	9999	690	6430	0	0
2019/11/27 03:27:00	BASE	1.58	4	1.90	5	-0.6	100	-0.6	0	0	993.4	NA	0.0000		9999	660	6730	0	0
2019/11/27 03:28:00	BASE	1.87	5	2.06	5	-0.6	100	-0.6	0	0	993.4	NA	0.0000		9999	620	0	0	0
2019/11/27 03:29:00	BASE	1.93	6	2.06	8	-0.6	100	-0.6	0	0	993.4	NA	0.0000		9999	660	0	0	0
2019/11/27 03:30:00	BASE	1.83	7	2.06	8	-0.5	100	-0.5	0	0	993.4	NA	0.0000		9999	560	0	0	0
2019/11/27 03:31:00	BASE	1.69	12	2.06	8	-0.5	100	-0.5	0	0	993.5	NA	0.0000		9999	460	0	0	0
2019/11/27 03:32:00	BASE	1.59	24	2.06	8	-0.5	100	-0.5	0	0	993.5	NA	0.0000		9999	490	0	0	0
2019/11/27 03:33:00	BASE	1.65	37	2.06	8	-0.5	100	-0.5	0	0	993.5	NA	0.0000		9999	490	0	0	0
2019/11/27 03:34:00	BASE	1.87	47	2.16	53	-0.5	100	-0.5	0	0	993.5	NA	0.0000		9999	460	0	0	0
2019/11/27 03:35:00	BASE	2.10	52	2.26	51	-0.5	100	-0.5	0	0	993.4	NA	0.0000		9999	460	0	0	0
2019/11/27 03:36:00	BASE	2.07	57	2.26	51	-0.4	100	-0.4	0	0	993.4	NA	0.0000		9999	460	0	0	0
2019/11/27 03:37:00	BASE	1.77	65	2.26	51	-0.4	100	-0.4	0	0	993.4	NA	0.0000		9999	430	0	0	0
2019/11/27 03:38:00	BASE	1.45	68	2.26	51	-0.4	100	-0.4	0	0	993.3	NA	0.0000		9999	390	0	0	0
2019/11/27 03:39:00	BASE	1.41	64	2.26	51	-0.4	100	-0.4	0	0	993.3	NA	0.0000		9999	390	0	0	0
2019/11/27 03:40:00	BASE	1.67	58	2.26	51	-0.4	100	-0.4	0	0	993.3	NA	0.0000		9999	390	0	0	0
2019/11/27 03:41:00	BASE	1.89	53	2.26	51	-0.4	100	-0.4	0	0	993.3	NA	0.0000		9999	390	0	0	0
2019/11/27 03:42:00	BASE	1.96	53	2.26	51	-0.4	100	-0.4	0	0	993.4	NA	0.0000		9999	390	0	0	0
2019/11/27 03:43:00	BASE	1.91	53	2.26	51	-0.4	100	-0.4	0	0	993.4	NA	0.0000		9999	430	0	0	0
2019/11/27 03:44:00	BASE	1.75	50	2.26	51	-0.3	100	-0.3	0	0	993.3	NA	0.0000		9999	390	0	0	0
2019/11/27 03:45:00	BASE	1.64	44	2.16	58	-0.3	100	-0.3	0	0	993.3	NA	0.0000		9999	360	0	0	0
2019/11/27 03:46:00	BASE	1.69	39	2.11	51	-0.3	100	-0.3	0	0	993.3	NA	0.0000		9999	300	0	0	0
2019/11/27 03:47:00	BASE	1.90	43	2.11	51	-0.3	100	-0.3	0	0	993.3	NA	0.0000		9999	260	0	0	0
2019/11/27 03:48:00	BASE	2.05	52	2.11	55	-0.2	100	-0.2	0	0	993.4	NA	0.0000		9999	230	0	0	0
2019/11/27 03:49:00	BASE	2.09	55	2.21	56	-0.2	100	-0.2	0	0	993.4	NA	0.0000		9999	300	0	0	0
2019/11/27 03:50:00	BASE	1.97	50	2.21	56	-0.2	100	-0.2	0	0	993.3	NA	0.0000		9999	330	0	0	0
2019/11/27 03:51:00	BASE	1.58	42	2.21	56	-0.2	100	-0.2	0	0	993.3	NA	0.0000		9999	330	0	0	0
2019/11/27 03:52:00	BASE	0.77	37	2.21	56	-0.2	100	-0.2	0	0	993.3	NA	0.0000		9999	330	0	0	0
2019/11/27 03:53:00	BASE	0.09	42	2.21	56	-0.2	100	-0.2	0	0	993.3	NA	0.0000		9999	330	0	0	0
2019/11/27 03:54:00	BASE	0.04	54	2.21	56	-0.2	100	-0.2	0	0	993.4	NA	0.0000		9999	330	0	0	0
2019/11/27 03:55:00	BASE	0.62	59	2.21	56	-0.2	100	-0.2	0	0	993.5	NA	0.0000		9999	360	0	0	0
2019/11/27 03:56:00	BASE	1.31	54	2.21	56	-0.2	100	-0.2	0	0	993.5	NA	0.0000		9999	390	0	0	0
2019/11/27 03:57:00	BASE	1.39	45	2.21	56	-0.1	100	-0.1	0	0	993.5	NA	0.0000		9999	390	0	0	0
2019/11/27 03:58:00	BASE	0.75	36	2.21	56	-0.1	100	-0.1	0	0	993.5	NA	0.0000		9999	360	0	0	0
2019/11/27 03:59:00	BASE	0.09	22	1.95	49	-0.1	100	-0.1	0	0	993.5	NA	0.0000		9999	360	0	0	0
2019/11/27 04:00:00	BASE	0.00	9	1.65	49	-0.1	100	-0.1	0	0	993.5	NA	0.0000		9999	360	0	0	0
2019/11/27 04:02:00	BASE	0.00	4	1.65	49	-0.1	100	-0.1	0	0	993.5	NA	0.0000		9999	360	0	0	0
2019/11/27 04:03:00	BASE	0.00	7	1.65	49	-0.1	100	-0.1	0	0	993.5	NA	0.0000		9999	360	0	0	0
2019/11/27 04:04:00	BASE	0.00	16	1.65	49	-0.1	100	-0.1	0	0	993.5	NA	0.0000		9999	360	0	0	0
2019/11/27 04:05:00	BASE	0.00	18	1.65	49	-0.1	100	-0.1	0	0	993.4	NA	0.0000		9999	360	0	0	0
2019/11/27 04:06:00	BASE	0.00	13	1.65	49	-0.1	100	-0.1	0	0	993.4	NA	0.0000		9999	360	0	0	0
2019/11/27 04:07:00	BASE	0.00	12	1.49	42	-0.1	100	-0.1	0	0	993.4	NA	0.0000		9999	360	0	0	0
2019/11/27 04:08:00	BASE	0.00	11	1.08	26	-0.1	100	-0.1	0	0	993.4	NA	0.0000		9999	360	0	0	0
2019/11/27 04:09:00	BASE	0.00	11	M	M	-0.1	100	-0.1	0	0	993.3	NA	0.0000		9999	390	0	0	0
2019/11/27 04:10:00	BASE	0.00	19	M	M	-0.1	100	-0.1	0	0	993.4	NA	0.0000		9999	360	0	0	0
2019/11/27 04:11:00	BASE	0.00	26	M	M	-0.1	100	-0.1	0	0	993.4	NA	0.0000		9999	330	0	0	0
2019/11/27 04:12:00	BASE	0.00	20	M	M	-0.0	100	-0.0	0	0	993.3	NA	0.0000		9999	300	0	0	0
2019/11/27 04:13:00	BASE	0.00	359	M	M	-0.0	100	-0.0	0	0	993.3	NA	0.0000		9999	260	0	0	0
2019/11/27 04:14:00	BASE	0.00	341	M	M	0.0	100	0.0	0	0	993.3	NA	0.0000		9999	260	0	0	0
2019/11/27 04:15:00	BASE	0.00	339	M	M	0.0	100	0.0	0	0	993.3	NA	0.0000		9999	300	0	0	0
2019/11/27 04:16:00	BASE	0.09	342	1.03	342	0.0	100	0.0	0	0	993.3	NA	0.0000		9999	300	0	0	0
2019/11/27 04:17:00	BASE	0.35	345	1.18	347	0.0	100	0.0	0	0	993.3	NA	0.0000		9999	300	6500	0	0
2019/11/27 04:18:00	BASE	0.86	349	1.34	349	0.0	100	0.0	0	0	993.3	NA	0.0000		9999	300	6500	0	0
2019/11/27 04:19:00	BASE	1.22	351	1.39	350	-0.0	100	-0.0	0	0	993.3	NA	0.0000		9999	260	6530	0	0
2019/11/27 04:20:00	BASE	1.25	350	1.39	350	-0.0	100	-0.0	0	0	993.3	NA	0.0000		9999	260	6530	0	0
2019/11/27 04:21:00	BASE	1.24	348	1.39	350	-0.1	100	-0.1	0	0	993.2	NA	0.0000		9999	300	6500	0	0
2019/11/27 04:22:00	BASE	0.94	349	1.39	350	-0.1	100	-0.1	0	0	993.2	NA	0.0000		9999	6460	0	0	0
2019/11/27 04:23:00	BASE	0.32	5	1.39	350	-0.1	100	-0.1	0	0	993.2	NA	0.0000		9999	6460	0	0	0
2019/11/27 04:24:00	BASE	0.00	20	1.39	350	-0.1	100	-0.1	0	0	993.2	NA	0.0000		9999	6400	0	0	0
2019/11/27 04:25:00	BASE	0.00	19	1.39	350	-0.1	100	-0.1	0	0	993.2	NA	0.0000		9999	660	6370	0	0
2019/11/27 04:26:00	BASE	0.00	30	1.39	350	-0.1	100	-0.1	0	0	993.3	NA	0.0000		9999	660	6370	0	0
2019/11/27 04:27:00	BASE	0.00	49	1.39	350	-0.1	100	-0.1	0	0	993.3	NA	0.0000		9999	660	6370	0	0
2019/11/27 04:28:00	BASE	0.00	55	1.39	350	-0.1	100	-0.1	0	0	993.3	NA	0.0000		9999	620	6370	0	0
2019/11/27 04:29:00	BASE	0.00	51	1.34	348	-0.1	100	-0.1	0	0	993.3	NA	0.0000		9999	620	6330	0	0
2019/11/27 04:30:00	BASE	0.00	39	1.29	347	-0.0	100	-0.0	0	0	993.3	NA	0.0000		9999	620	6230	0	0
2019/11/27 04:31:00	BASE	0.00	342	1.18	349	-0.0	100	-0.0	0	0	993.2	NA	0.0000		9999	6230	0	0	0
2019/11/27 04:32:00	BASE	0.00	286	M	M	-0.0	100	-0.0	0	0	993.2	NA	0.0000		9999	6230	0	0	0
2019/11/27 04:33:00	BASE	0.00	266	M	M	-0.0	100	-0.0	0	0	993.2	NA	0.0000		9999	6200	0	0	0
2019/11/27 04:34:00	BASE	0.00	264	M	M	-0.1	100	-0.1	0	0	993.3	NA	0.0000		9999	6200	0	0	0
2019/11/27 04:35:00	BASE	0.00	272	M	M	-0.1	100	-0.1	0	0	993.3	NA	0.0000		9999	6270	0	0	0
2019/11/27 04:36:00	BASE	0.00	278	M	M	-0.2	100	-0.2	0	0	993.3	NA	0.0000		9999	6270	0	0	0
2019/11/27 04:37:00	BASE	0.00	285	M	M	-0.2	100	-0.2	0	0	993.3	NA	0.0000		9999	6230	0	0	0
2019/11/27 04:38:00	BASE	0.00	291	M	M	-0.2	100	-0.2	0	0	993.3	NA	0.0000		9999	6170	0	0	0
2019/11/27 04:39:00	BASE	0.00	284	M	M	-0.2	100	-0.2	0	0	993.3	NA	0.0000		9999	6230	0	0	0
2019/11/27 04:40:00	BASE	0.00	271	M	M	-0.2	100	-0.2	0	0	993.3	NA	0.0000		9999	6200	0	0	0
2019/11/27 04:41:00	BASE	0.00	267	M	M	-0.2	100	-0.2	0	0	993.2	NA	0.0000		9999	6200	0	0	0
2019/11/27 04:42:00	BASE	0.00	264	M	M	-0.2	100	-0.2	0	0	993.2	NA	0.0000		9999	6200	0	0	0
2019/11/27 04:43:00	BASE	0.00	269	M	M	-0.2	100	-0.2	0	0	993.2	NA	0.0000		9999	6170	0	0	0
2019/11/27 04:44:00	BASE	0.00	279	M	M	-0.2	100	-0.2	0	0	993.2	NA	0.0000		9999	6170	0	0	0
2019/11/27 04:45:00	BASE	0.00	282	M	M	-0.2	100	-0.2	0	0	993.2	NA	0.0000		9999	6200	0	0	0
2019/11/27 04:46:01	BASE	0.00	286	M	M	-0.2	100	-0.2	0	0	993.2	NA	0.0000		9999	6200	0	0	0
2019/11/27 04:47:00	BASE	0.00	288	M	M	-0.2	100	-0.2	0	0	993.2	NA	0.0000		9999	6200	0	0	0
2019/11/27 04:48:00	BASE	0.04	278	1.03	269	-0.2	100	-0.2	0	0	993.2	NA	0.0000		9999	6170	0	0	0
2019/11/27 04:49:00	BASE	0.13	269	1.08	272	-0.2	100	-0.2	0	0	993.2	NA	0.0000		9999	6170	0	0	0
2019/11/27 04:50:00	BASE	0.09	273	1.08	272	-0.2	100	-0.2	0	0	993.2	NA	0.0000		9999	6230	0	0	0
2019/11/27 04:51:00	BASE	0.00	275	1.08	272	-0.2	100	-0.2	0	0	993.2	NA	0.0000		9999	6200	0	0	0
2019/11/27 04:52:00	BASE	0.00	275	1.08	272	-0.2	100	-0.2	0	0	993.3	NA	0.0000		9999	360	6200	0	0
2019/11/27 04:53:00	BASE	0.00	278	1.08	272	-0.2	100	-0.2	0	0	993.2	NA	0.0000		9999	330	6200	0	0
2019/11/27 04:54:00	BASE	0.04	285	1.08	272	-0.2	100	-0.2	0	0	993.2	NA	0.0000		9999	300	6200	0	0
2019/11/27 04:55:00	BASE	0.09	293	1.08	272	-0.2	100	-0.2	0	0	993.2	NA	0.0000		9999	300	6200	0	0
2019/11/27 04:56:00	BASE	0.04	299	1.08	272	-0.2	100	-0.2	0	0	993.2	NA	0.0000		9999	330	6140	0	0
2019/11/27 04:57:00	BASE	0.00	306	1.08	272	-0.2	100	-0.2	0	0	993.2	NA	0.0000		9999	300	6200	0	0
2019/11/27 04:58:00	BASE	0.27	314	1.13	323	-0.2	100	-0.2	0	0	993.2	NA	0.0000		9999	330	6270	0	0
2019/11/27 04:59:00	BASE	0.59	322	1.18	323	-0.3	100	-0.3	0	0	993.2	NA	0.0000		9999	6370	0	0	0
2019/11/27 05:00:00	BASE	0.84	320	1.29	310	-0.3	100	-0.3	0	0	993.2	NA	0.0000		9999	6370	0	0	0
2019/11/27 05:01:00	BASE	1.09	316	1.29	310	-0.3	100	-0.3	0	0	993.2	NA	0.0000		9999	6330	0	0	0
2019/11/27 05:02:00	BASE	0.99	319	1.29	310	-0.3	100	-0.3	0	0	993.2	NA	0.0000		9999	6330	7420	0	0
2019/11/27 05:03:00	BASE	0.84	321	1.29	310	-0.4	100	-0.4	0	0	993.2	NA	0.0000		9999	6300	0	0	0
2019/11/27 05:04:00	BASE	0.83	323	1.29	310	-0.3	100	-0.3	0	0	993.2	NA	0.0000		9999	6330	0	0	0
2019/11/27 05:05:00	BASE	0.45	335	1.29	310	-0.3	100	-0.3	0	0	993.1	NA	0.0000		9999	6270	0	0	0
2019/11/27 05:06:00	BASE	0.04	357	1.29	310	-0.3	100	-0.3	0	0	993.2	NA	0.0000		9999	330	6230	0	0
2019/11/27 05:07:00	BASE	0.00	358	1.29	310	-0.3	100	-0.3	0	0	993.3	NA	0.0000		9999	300	6270	0	0
2019/11/27 05:08:00	BASE	0.00	344	1.29	310	-0.4	100	-0.4	0	0	993.3	NA	0.0000		9999	300	6230	0	0
2019/11/27 05:09:00	BASE	0.00	340	1.29	310	-0.4	100	-0.4	0	0	993.3	NA	0.0000		9999	6200	0	0	0
2019/11/27 05:10:00	BASE	0.00	337	1.23	337	-0.4	100	-0.4	0	0	993.3	NA	0.0000		9999	330	6170	0	0
2019/11/27 05:11:00	BASE	0.00	332	1.23	337	-0.4	100	-0.4	0	0	993.3	NA	0.0000		9999	300	6230	0	0
2019/11/27 05:12:00	BASE	0.17	325	1.23	337	-0.4	100	-0.4	0	0	993.3	NA	0.0000		9999	300	6300	0	0
2019/11/27 05:13:00	BASE	0.35	323	1.23	337	-0.4	100	-0.4	0	0	993.3	NA	0.0000		9999	260	6230	0	0
2019/11/27 05:14:00	BASE	0.26	327	1.08	326	-0.4	100	-0.4	0	0	993.3	NA	0.0000		9999	230	6270	0	0
2019/11/27 05:15:00	BASE	0.09	320	1.08	326	-0.3	100	-0.3	0	0	993.3	NA	0.0000		9999	260	6200	0	0
2019/11/27 05:16:00	BASE	0.00	304	1.08	326	-0.3	100	-0.3	0	0	993.3	NA	0.0000		9999	230	6230	0	0
2019/11/27 05:17:00	BASE	0.00	288	1.08	326	-0.3	100	-0.3	0	0	993.2	NA	0.0000		9999	200	6170	0	0
2019/11/27 05:18:00	BASE	0.00	278	1.08	326	-0.3	100	-0.3	0	0	993.2	NA	0.0000		9999	200	6230	0	0
2019/11/27 05:19:00	BASE	0.00	288	1.08	326	-0.3	100	-0.3	0	0	993.2	NA	0.0000		9999	230	7220	0	0
2019/11/27 05:20:00	BASE	0.00	284	1.08	326	-0.3	100	-0.3	0	0	993.2	NA	0.0000		9999	230	6230	0	0
2019/11/27 05:21:00	BASE	0.00	260	1.08	326	-0.3	100	-0.3	0	0	993.2	NA	0.0000		9999	230	6200	0	0
2019/11/27 05:22:00	BASE	0.00	250	1.08	326	-0.3	100	-0.3	0	0	993.2	NA	0.0000		9999	200	0	0	0
2019/11/27 05:23:00	BASE	0.00	291	1.03	329	-0.2	100	-0.2	0	0	993.2	NA	0.0000		9999	230	6230	0	0
2019/11/27 05:24:00	BASE	0.00	331	M	M	-0.2	100	-0.2	0	0	993.2	NA	0.0000		9999	230	7280	0	0
2019/11/27 05:25:00	BASE	0.00	316	M	M	-0.2	100	-0.2	0	0	993.2	NA	0.0000		9999	230	6200	0	0
2019/11/27 05:26:00	BASE	0.00	302	M	M	-0.1	100	-0.1	0	0	993.2	NA	0.0000		9999	230	6170	0	0
2019/11/27 05:27:00	BASE	0.00	307	M	M	-0.1	100	-0.1	0	0	993.2	NA	0.0000		9999	230	0	0	0
2019/11/27 05:28:00	BASE	0.00	313	M	M	-0.1	100	-0.1	0	0	993.1	NA	0.0000		9999	300	0	0	0
2019/11/27 05:29:00	BASE	0.00	331	M	M	-0.1	100	-0.1	0	0	993.1	NA	0.0000		9999	330	0	0	0
2019/11/27 05:30:00	BASE	0.00	343	M	M	-0.1	100	-0.1	0	0	993.2	NA	0.0000		9999	230	7090	0	0
2019/11/27 05:31:00	BASE	0.00	20	M	M	-0.1	100	-0.1	0	0	993.2	NA	0.0000		9999	200	0	0	0
2019/11/27 05:32:01	BASE	0.00	69	M	M	-0.1	100	-0.1	0	0	993.2	NA	0.0000		9999	200	0	0	0
2019/11/27 05:33:01	BASE	0.00	78	M	M	-0.1	100	-0.1	0	0	993.2	NA	0.0000		9999	200	0	0	0
2019/11/27 05:34:01	BASE	0.00	74	M	M	-0.1	100	-0.1	1	0	993.2	NA	0.0000		9999	200	6140	0	0
2019/11/27 05:35:01	BASE	0.00	62	M	M	-0.2	100	-0.2	1	0	993.2	NA	0.0000		9999	230	6100	0	0
2019/11/27 05:36:01	BASE	0.00	54	M	M	-0.2	100	-0.2	1	0	993.2	NA	0.0000		9999	230	7780	0	0
2019/11/27 05:37:01	BASE	0.00	56	M	M	-0.2	100	-0.2	1	0	993.2	NA	0.0000		9999	230	6100	0	0
2019/11/27 05:38:01	BASE	0.00	56	M	M	-0.2	100	-0.2	1	0	993.2	NA	0.0000		9999	230	6140	0	0
2019/11/27 05:39:01	BASE	0.00	51	M	M	-0.1	100	-0.1	1	0	993.2	NA	0.0000		9999	230	6890	0	0
2019/11/27 05:40:01	BASE	0.00	49	M	M	-0.1	100	-0.1	1	0	993.1	NA	0.0000		9999	230	7510	0	0
2019/11/27 05:41:01	BASE	0.00	44	M	M	-0.1	100	-0.1	1	0	993.0	NA	0.0000		9999	230	7640	0	0
2019/11/27 05:42:01	BASE	0.00	35	M	M	-0.1	100	-0.1	1	0	993.0	NA	0.0000		9999	230	6170	0	0
2019/11/27 05:43:01	BASE	0.00	41	M	M	-0.1	100	-0.1	1	0	993.1	NA	0.0000		9999	230	6170	0	0
2019/11/27 05:44:01	BASE	0.00	49	M	M	-0.0	100	-0.0	1	0	993.2	NA	0.0000		9999	200	7280	0	0
2019/11/27 05:45:01	BASE	0.00	43	M	M	-0.0	100	-0.0	1	0	993.1	NA	0.0000		9999	230	6100	0	0
2019/11/27 05:46:01	BASE	0.00	26	M	M	-0.0	100	-0.0	1	0	993.0	NA	0.0000		9999	6960	0	0	0
2019/11/27 05:47:01	BASE	0.00	14	M	M	-0.0	100	-0.0	1	0	993.0	NA	0.0000		9999	260	7280	0	0
2019/11/27 05:48:01	BASE	0.00	18	M	M	-0.1	100	-0.1	1	0	993.0	NA	0.0000		9999	230	7150	0	0
2019/11/27 05:49:01	BASE	0.00	29	M	M	-0.1	100	-0.1	1	0	993.0	NA	0.0000		9999	230	7480	0	0
2019/11/27 05:50:01	BASE	0.00	37	M	M	-0.1	100	-0.1	1	0	993.0	NA	0.0000		9999	230	7510	0	0
2019/11/27 05:51:01	BASE	0.00	43	M	M	-0.1	100	-0.1	1	0	993.0	NA	0.0000		9999	230	7280	0	0
2019/11/27 05:52:01	BASE	0.00	48	M	M	-0.1	100	-0.1	1	0	993.1	NA	0.0000		9999	230	7320	0	0
2019/11/27 05:53:01	BASE	0.00	49	M	M	-0.1	100	-0.1	1	0	993.1	NA	0.0000		9999	260	7510	0	0
2019/11/27 05:54:01	BASE	0.00	41	M	M	-0.1	100	-0.1	1	0	993.0	NA	0.0000		9999	7380	0	0	0
2019/11/27 05:55:01	BASE	0.00	34	M	M	-0.1	100	-0.1	1	0	993.0	NA	0.0000		9999	300	7610	0	0
2019/11/27 05:56:01	BASE	0.00	39	M	M	-0.1	100	-0.1	1	0	993.2	NA	0.0000		9999	260	7480	0	0
2019/11/27 05:57:01	BASE	0.00	53	M	M	-0.0	100	-0.0	1	0	993.2	NA	0.0000		9999	260	7380	0	0
2019/11/27 05:58:01	BASE	0.00	54	M	M	-0.0	100	-0.0	1	0	993.0	NA	0.0000		9999	260	7350	0	0
2019/11/27 05:59:01	BASE	0.00	30	M	M	0.0	100	-0.0	2	0	993.0	NA	0.0000		9999	260	7250	0	0
2019/11/27 06:00:01	BASE	0.05	8	1.08	3	0.0	100	0.0	2	0	992.9	NA	0.0000		9999	7250	0	0	0
2019/11/27 06:01:01	BASE	0.05	358	1.08	3	0.0	100	0.0	2	0	992.9	NA	0.0000		9999	7420	0	0	0
2019/11/27 06:02:01	BASE	0.00	348	1.08	3	-0.0	100	-0.0	2	0	992.9	NA	0.0000		9999	7510	0	0	0
2019/11/27 06:03:01	BASE	0.00	337	1.08	3	-0.0	100	-0.0	2	0	993.0	NA	0.0000		9999	7510	0	0	0
2019/11/27 06:04:01	BASE	0.00	323	1.08	3	-0.0	100	-0.0	2	0	993.0	NA	0.0000		9999	7610	0	0	0
2019/11/27 06:05:01	BASE	0.00	318	1.08	3	-0.0	100	-0.0	2	0	993.0	NA	0.0000		9999	7220	0	0	0
2019/11/27 06:06:01	BASE	0.00	310	1.08	3	-0.0	100	-0.0	2	0	993.0	NA	0.0000		9999	7150	0	0	0
2019/11/27 06:07:01	BASE	0.00	302	1.08	3	-0.1	100	-0.1	2	0	993.0	NA	0.0000		9999	7220	0	0	0
2019/11/27 06:08:00	BASE	0.00	308	1.08	3	-0.1	100	-0.1	2	0	993.0	NA	0.0000		9999	7250	0	0	0
2019/11/27 06:09:00	BASE	0.00	315	1.08	3	-0.1	100	-0.1	2	0	993.0	NA	0.0000		9999	7350	0	0	0
2019/11/27 06:10:00	BASE	0.00	314	M	M	-0.0	100	-0.0	2	0	992.9	NA	0.0000		9999	7380	0	0	0
2019/11/27 06:11:00	BASE	0.00	283	M	M	-0.0	100	-0.0	3	0	992.9	NA	0.0000		9999	7280	0	0	0
2019/11/27 06:12:00	BASE	0.00	248	M	M	-0.0	100	-0.0	3	0	992.9	NA	0.0000		9999	7190	0	0	0
2019/11/27 06:13:00	BASE	0.00	244	M	M	-0.0	100	-0.0	3	0	993.0	NA	0.0000		9999	7350	0	0	0
2019/11/27 06:14:00	BASE	0.00	244	M	M	0.0	100	0.0	3	0	993.0	NA	0.0000		9999	7710	0	0	0
2019/11/27 06:15:00	BASE	0.00	244	M	M	0.0	100	0.0	3	0	993.0	NA	0.0000		9999	7420	0	0	0
2019/11/27 06:16:01	BASE	0.00	218	M	M	0.0	100	0.0	3	0	993.0	NA	0.0000		9999	7640	0	0	0
2019/11/27 06:17:00	BASE	0.00	179	M	M	0.0	100	0.0	3	0	993.0	NA	0.0000		9999	7610	0	0	0
2019/11/27 06:18:00	BASE	0.00	173	M	M	0.0	100	0.0	3	0	992.9	NA	0.0000		9999	7510	0	0	0
2019/11/27 06:19:00	BASE	0.00	200	M	M	-0.0	100	-0.0	4	0	992.9	NA	0.0000		9999	7680	0	0	0
2019/11/27 06:20:00	BASE	0.00	248	M	M	-0.0	100	-0.0	4	0	992.9	NA	0.0000		9999	7580	0	0	0
2019/11/27 06:21:00	BASE	0.00	283	M	M	-0.0	100	-0.0	4	0	992.9	NA	0.0000		9999	7380	0	0	0
2019/11/27 06:22:00	BASE	0.00	295	M	M	-0.0	100	-0.0	4	0	993.0	NA	0.0000		9999	7350	0	0	0
2019/11/27 06:23:01	BASE	0.00	306	M	M	-0.0	100	-0.0	4	0	993.0	NA	0.0000		9999	7380	0	0	0
2019/11/27 06:24:00	BASE	0.00	324	M	M	0.0	100	0.0	3	0	993.0	NA	0.0000		9999	7450	0	0	0
2019/11/27 06:25:00	BASE	0.00	330	M	M	0.0	100	0.0	3	0	993.0	NA	0.0000		9999	7450	0	0	0
2019/11/27 06:26:00	BASE	0.00	316	M	M	-0.0	100	-0.0	3	0	993.0	NA	0.0000		9999	7480	0	0	0
2019/11/27 06:27:00	BASE	0.00	307	M	M	-0.0	100	-0.0	3	0	993.0	NA	0.0000		9999	7420	0	0	0
2019/11/27 06:28:00	BASE	0.00	311	M	M	-0.1	100	-0.1	3	0	993.0	NA	0.0000		9999	7320	0	0	0
2019/11/27 06:29:00	BASE	0.00	310	M	M	-0.1	100	-0.1	3	0	993.0	NA	0.0000		9999	7120	0	0	0
2019/11/27 06:30:00	BASE	0.00	313	M	M	-0.1	100	-0.1	3	0	993.0	NA	0.0000		9999	7120	0	0	0
2019/11/27 06:31:00	BASE	0.09	328	1.03	341	-0.1	100	-0.1	3	0	992.9	NA	0.0000		9999	7120	0	0	0
2019/11/27 06:32:01	BASE	0.13	340	1.03	344	-0.1	100	-0.1	3	0	992.9	NA	0.0000		9999	7120	0	0	0
2019/11/27 06:33:01	BASE	0.09	347	1.08	348	-0.1	100	-0.1	4	0	992.9	NA	0.0000		9999	7120	0	0	0
2019/11/27 06:34:01	BASE	0.05	359	1.08	348	-0.1	100	-0.1	4	0	992.9	NA	0.0000		9999	7150	0	0	0
2019/11/27 06:35:00	BASE	0.00	4	1.08	348	-0.1	100	-0.1	4	0	992.9	NA	0.0000		9999	7250	0	0	0
2019/11/27 06:36:00	BASE	0.00	342	1.08	348	-0.2	100	-0.2	4	0	992.9	NA	0.0000		9999	7220	0	0	0
2019/11/27 06:37:00	BASE	0.00	314	1.08	348	-0.2	100	-0.2	4	0	992.9	NA	0.0000		9999	7190	0	0	0
2019/11/27 06:38:00	BASE	0.00	306	1.08	348	-0.2	100	-0.2	4	0	992.9	NA	0.0000		9999	7150	0	0	0
2019/11/27 06:39:00	BASE	0.00	311	1.08	348	-0.2	100	-0.2	5	0	992.9	NA	0.0000		9999	7090	0	0	0
2019/11/27 06:40:00	BASE	0.00	319	1.08	348	-0.2	100	-0.2	5	0	992.9	NA	0.0000		9999	7090	0	0	0
2019/11/27 06:41:00	BASE	0.00	320	1.08	348	-0.2	100	-0.2	5	0	992.9	NA	0.0000		9999	7090	0	0	0
2019/11/27 06:42:00	BASE	0.00	318	1.08	348	-0.1	100	-0.1	6	0	992.9	NA	0.0000		9999	7090	0	0	0
2019/11/27 06:43:00	BASE	0.00	309	M	M	-0.1	100	-0.1	6	0	992.9	NA	0.0000		9999	7090	0	0	0
2019/11/27 06:44:00	BASE	0.00	238	M	M	-0.1	100	-0.1	6	0	992.9	NA	0.0000		9999	7090	0	0	0
2019/11/27 06:45:00	BASE	0.00	207	M	M	-0.1	100	-0.1	7	0	992.9	NA	0.0000		9999	7120	0	0	0
2019/11/27 06:46:00	BASE	0.00	219	M	M	-0.1	100	-0.1	7	0	992.9	NA	0.0000		9999	7090	0	0	0
2019/11/27 06:47:00	BASE	0.00	232	M	M	-0.1	100	-0.1	8	0	992.9	NA	0.0000		9999	7090	0	0	0
2019/11/27 06:48:00	BASE	0.00	260	M	M	-0.1	100	-0.1	8	0	992.9	NA	0.0000		9999	7050	0	0	0
2019/11/27 06:49:00	BASE	0.00	298	M	M	-0.1	100	-0.1	8	0	992.9	NA	0.0000		9999	7050	0	0	0
2019/11/27 06:50:00	BASE	0.09	312	1.03	310	-0.1	100	-0.1	8	0	992.9	NA	0.0000		9999	7050	0	0	0
2019/11/27 06:51:00	BASE	0.35	313	1.13	323	-0.1	100	-0.1	8	0	992.9	NA	0.0000		9999	7050	0	0	0
2019/11/27 06:52:00	BASE	0.49	310	1.13	311	-0.1	100	-0.1	8	0	992.9	NA	0.0000		9999	7090	0	0	0
2019/11/27 06:53:00	BASE	0.27	306	1.13	311	-0.1	100	-0.1	9	0	992.9	NA	0.0000		9999	7120	0	0	0
2019/11/27 06:54:00	BASE	0.55	311	1.18	319	-0.1	100	-0.1	9	0	992.9	NA	0.0000		9999	7120	0	0	0
2019/11/27 06:55:00	BASE	0.91	318	1.18	323	-0.2	100	-0.2	10	0	992.9	NA	0.0000		9999	7120	0	0	0
2019/11/27 06:56:00	BASE	0.41	324	1.18	323	-0.2	100	-0.2	11	0	992.9	NA	0.0000		9999	7090	0	0	0
2019/11/27 06:57:00	BASE	0.00	327	1.18	323	-0.2	100	-0.2	11	0	992.9	NA	0.0000		9999	7050	0	0	0
2019/11/27 06:58:00	BASE	0.00	322	1.18	323	-0.2	100	-0.2	12	0	992.9	NA	0.0000		9999	7020	0	0	0
2019/11/27 06:59:00	BASE	0.00	307	1.18	323	-0.2	100	-0.2	13	0	992.9	NA	0.0000		9999	7050	0	0	0
2019/11/27 07:00:00	BASE	0.00	267	1.18	323	-0.2	100	-0.2	13	0	992.9	NA	0.0000		9999	7020	0	0	0
2019/11/27 07:01:00	BASE	0.00	234	1.18	323	-0.2	100	-0.2	14	0	992.9	NA	0.0000		9999	6960	0	0	0
2019/11/27 07:02:00	BASE	0.00	260	1.18	323	-0.2	100	-0.2	15	0	992.9	NA	0.0000		9999	6920	0	0	0
2019/11/27 07:03:00	BASE	0.50	324	1.49	353	-0.2	100	-0.2	15	0	992.9	NA	0.0000		9999	6920	0	0	0
2019/11/27 07:04:00	BASE	1.27	3	1.65	19	-0.3	100	-0.3	16	0	992.9	NA	0.0000		9999	6860	0	0	0
2019/11/27 07:05:00	BASE	1.05	18	1.65	19	-0.3	100	-0.3	17	0	992.9	NA	0.0000		9999	160	6790	0	0
2019/11/27 07:06:00	BASE	0.29	20	1.65	19	-0.3	100	-0.3	18	0	992.9	NA	0.0000		9999	200	6760	0	0
2019/11/27 07:07:00	BASE	0.00	34	1.65	19	-0.3	100	-0.3	19	0	992.9	NA	0.0000		9999	6730	0	0	0
2019/11/27 07:08:00	BASE	0.00	193	1.65	19	-0.2	100	-0.2	19	0	992.9	NA	0.0000		9999	200	6590	0	0
2019/11/27 07:09:00	BASE	0.00	218	1.65	19	-0.2	100	-0.2	19	0	992.9	NA	0.0000		9999	230	6560	0	0
2019/11/27 07:10:00	BASE	0.00	273	1.65	19	-0.2	100	-0.2	18	0	992.9	NA	0.0000		9999	6230	0	0	0
2019/11/27 07:11:00	BASE	0.00	332	1.65	19	-0.2	100	-0.2	17	0	992.9	NA	0.0000		9999	6530	0	0	0
2019/11/27 07:12:00	BASE	0.00	335	1.65	19	-0.2	100	-0.2	16	0	992.9	NA	0.0000		9999	6430	0	0	0
2019/11/27 07:13:00	BASE	0.00	329	1.65	19	-0.2	100	-0.2	15	0	992.9	NA	0.0000		9999	6370	0	0	0
2019/11/27 07:14:00	BASE	0.00	327	1.39	20	-0.2	100	-0.2	15	0	992.9	NA	0.0000		9999	6270	0	0	0
2019/11/27 07:15:00	BASE	0.00	327	M	M	-0.1	100	-0.1	14	0	992.9	NA	0.0000		9999	6170	0	0	0
2019/11/27 07:16:00	BASE	0.00	298	M	M	-0.1	100	-0.1	14	0	992.9	NA	0.0000		9999	6170	0	0	0
2019/11/27 07:17:00	BASE	0.21	237	1.39	209	-0.1	100	-0.1	12	0	992.9	NA	0.0000		9999	6170	0	0	0
2019/11/27 07:18:00	BASE	1.10	212	1.95	205	-0.1	100	-0.1	12	0	992.9	NA	0.0000		9999	6140	0	0	0
2019/11/27 07:19:00	BASE	1.75	203	1.95	205	-0.2	100	-0.2	11	0	993.0	NA	0.0000		9999	6140	6730	0	0
2019/11/27 07:20:00	BASE	1.58	196	1.95	205	-0.2	100	-0.2	11	0	993.0	NA	0.0000		9999	230	6730	0	0
2019/11/27 07:21:00	BASE	1.00	188	1.95	205	-0.2	100	-0.2	12	0	992.9	NA	0.0000		9999	6760	0	0	0
2019/11/27 07:22:00	BASE	0.28	175	1.95	205	-0.2	100	-0.2	12	0	992.9	NA	0.0000		9999	6790	7280	0	0
2019/11/27 07:23:00	BASE	0.00	163	1.95	205	-0.2	100	-0.2	13	0	992.9	NA	0.0000		9999	6760	0	0	0
2019/11/27 07:24:00	BASE	0.00	161	1.95	205	-0.2	100	-0.2	13	0	992.8	NA	0.0000		9999	7120	0	0	0
2019/11/27 07:25:00	BASE	0.00	187	1.95	205	-0.2	100	-0.2	14	0	992.8	NA	0.0000		9999	7050	7510	0	0
2019/11/27 07:26:00	BASE	0.00	210	1.95	205	-0.2	100	-0.2	15	0	992.9	NA	0.0000		9999	7380	0	0	0
2019/11/27 07:27:00	BASE	0.33	202	1.95	205	-0.2	100	-0.2	15	0	992.9	NA	0.0000		9999	6140	7090	0	0
2019/11/27 07:28:00	BASE	1.05	191	1.80	197	-0.2	100	-0.2	16	0	992.9	NA	0.0000		9999	6140	0	0	0
2019/11/27 07:29:00	BASE	1.56	181	1.85	168	-0.2	100	-0.2	16	0	992.9	NA	0.0000		9999	6230	6960	0	0
2019/11/27 07:30:00	BASE	1.33	165	1.85	168	-0.2	100	-0.2	15	0	992.9	NA	0.0000		9999	6330	6960	0	0
2019/11/27 07:31:00	BASE	0.48	147	1.85	168	-0.2	100	-0.2	15	0	992.9	NA	0.0000		9999	6330	0	0	0
2019/11/27 07:32:00	BASE	0.00	132	1.85	168	-0.2	100	-0.2	15	0	992.9	NA	0.0000		9999	6230	0	0	0
2019/11/27 07:33:00	BASE	0.00	134	1.85	168	-0.2	100	-0.2	16	0	992.9	NA	0.0000		9999	6170	0	0	0
2019/11/27 07:34:00	BASE	0.00	153	1.85	168	-0.2	100	-0.2	18	0	992.9	NA	0.0000		9000	6140	0	0	0
2019/11/27 07:35:00	BASE	0.00	158	1.85	168	-0.2	100	-0.2	19	0	992.9	NA	0.0000		9000	5940	0	0	0
2019/11/27 07:36:00	BASE	0.00	155	1.85	168	-0.2	100	-0.2	20	0	992.8	NA	0.0000		8000	5810	0	0	0
2019/11/27 07:37:00	BASE	0.10	161	1.85	168	-0.2	100	-0.2	21	0	992.8	NA	0.0000		9999	5910	0	0	0
2019/11/27 07:38:00	BASE	0.96	162	2.06	159	-0.2	100	-0.2	22	0	992.8	NA	0.0000		9999	5910	0	0	0
2019/11/27 07:39:00	BASE	1.85	159	2.06	158	-0.2	100	-0.2	22	0	992.9	NA	0.0000		8000	5940	0	0	0
2019/11/27 07:40:00	BASE	1.76	159	2.06	158	-0.2	100	-0.2	23	0	992.8	NA	0.0000		9999	5910	0	0	0
2019/11/27 07:41:00	BASE	1.12	162	2.06	158	-0.2	100	-0.2	24	0	992.8	NA	0.0000		9999	5940	0	0	0
2019/11/27 07:42:00	BASE	0.67	153	2.06	158	-0.2	100	-0.2	25	0	992.8	NA	0.0000		9999	5810	0	0	0
2019/11/27 07:43:00	BASE	0.60	143	2.06	158	-0.2	100	-0.2	26	0	992.9	NA	0.0000		9999	5840	0	0	0
2019/11/27 07:44:00	BASE	0.28	150	2.06	158	-0.2	100	-0.2	25	0	992.9	NA	0.0000		9999	5840	0	0	0
2019/11/27 07:45:00	BASE	0.00	154	2.06	158	-0.1	100	-0.1	25	0	992.9	NA	0.0000		9999	5840	0	0	0
2019/11/27 07:46:00	BASE	0.00	155	2.06	158	-0.1	100	-0.1	26	0	992.9	NA	0.0000		9999	5910	0	0	0
2019/11/27 07:47:00	BASE	0.00	169	2.06	158	-0.1	100	-0.1	25	0	992.9	NA	0.0000		9999	5910	0	0	0
2019/11/27 07:48:00	BASE	0.00	182	2.06	158	-0.1	100	-0.1	25	0	992.9	NA	0.0000		9999	5840	0	0	0
2019/11/27 07:49:00	BASE	0.00	182	1.85	156	-0.1	100	-0.1	27	0	992.9	NA	0.0000		9999	5870	0	0	0
2019/11/27 07:50:00	BASE	0.00	163	1.34	167	-0.0	100	-0.0	28	0	992.9	NA	0.0000		9999	5870	0	0	0
2019/11/27 07:51:00	BASE	0.00	152	1.23	136	-0.0	100	-0.0	29	0	992.9	NA	0.0000		9999	5840	0	0	0
2019/11/27 07:52:00	BASE	0.00	178	1.23	136	-0.0	100	-0.0	29	0	992.9	NA	0.0000		9999	5840	0	0	0
2019/11/27 07:53:00	BASE	0.04	220	1.03	237	-0.0	100	-0.0	29	0	992.9	NA	0.0000		9999	5840	0	0	0
2019/11/27 07:54:00	BASE	0.04	252	1.03	237	-0.0	100	-0.0	32	0	992.9	NA	0.0000		9999	5740	0	0	0
2019/11/27 07:55:00	BASE	0.00	273	1.03	237	-0.0	100	-0.0	34	0	992.9	NA	0.0000		9999	5680	0	0	0
2019/11/27 07:56:00	BASE	0.00	274	1.03	237	-0.0	100	-0.0	38	0	992.9	NA	0.0000		9999	5810	0	0	0
2019/11/27 07:57:00	BASE	0.00	263	1.03	237	-0.1	100	-0.1	42	0	992.9	NA	0.0000		9999	5840	0	0	0
2019/11/27 07:58:00	BASE	0.00	253	1.03	237	-0.1	100	-0.1	45	0	992.9	NA	0.0000		9999	6100	0	0	0
2019/11/27 07:59:00	BASE	0.00	245	1.03	237	-0.1	100	-0.1	46	0	992.9	NA	0.0000		9999	6070	0	0	0
2019/11/27 08:00:00	BASE	0.00	255	1.03	237	-0.1	100	-0.1	46	0	992.9	NA	0.0000		9999	6140	0	0	0
2019/11/27 08:01:00	BASE	0.00	275	1.03	237	-0.1	100	-0.1	48	0	992.9	NA	0.0000		9999	6230	0	0	0
2019/11/27 08:02:00	BASE	0.00	288	1.03	237	-0.1	100	-0.1	50	0	992.9	NA	0.0000		9999	6270	0	0	0
2019/11/27 08:03:00	BASE	0.00	289	M	M	-0.1	100	-0.1	52	0	992.9	NA	0.0000		9999	6270	0	0	0
2019/11/27 08:04:00	BASE	0.00	276	M	M	-0.0	100	-0.0	52	0	992.9	NA	0.0000		9999	6140	0	0	0
2019/11/27 08:05:00	BASE	0.00	258	M	M	-0.0	100	-0.0	52	0	992.9	NA	0.0000		9999	6300	0	0	0
2019/11/27 08:06:00	BASE	0.00	265	M	M	-0.0	100	-0.0	52	0	992.8	NA	0.0000		9999	6330	0	0	0
2019/11/27 08:07:00	BASE	0.00	286	M	M	-0.1	100	-0.1	52	0	992.8	NA	0.0000		9999	6330	0	0	0
2019/11/27 08:08:00	BASE	0.00	328	M	M	-0.1	100	-0.1	53	0	992.9	NA	0.0000		9999	6270	0	0	0
2019/11/27 08:09:00	BASE	0.48	6	1.23	3	-0.1	100	-0.1	54	0	992.9	NA	0.0000		9999	6400	0	0	0
2019/11/27 08:10:00	BASE	0.72	7	1.23	3	-0.1	100	-0.1	54	0	992.9	NA	0.0000		9999	6460	0	0	0
2019/11/27 08:11:00	BASE	0.24	6	1.23	3	-0.1	100	-0.1	52	0	992.9	NA	0.0000		9999	6500	0	0	0
2019/11/27 08:12:00	BASE	0.00	15	1.23	3	-0.2	100	-0.2	49	0	993.0	NA	0.0000		9999	6460	0	0	0
2019/11/27 08:13:00	BASE	0.00	27	1.23	3	-0.2	100	-0.2	47	0	993.0	NA	0.0000		9999	6500	0	0	0
2019/11/27 08:14:00	BASE	0.00	30	1.23	3	-0.2	100	-0.2	46	0	993.0	NA	0.0000		9999	6500	0	0	0
2019/11/27 08:15:00	BASE	0.00	26	1.23	3	-0.2	100	-0.2	45	0	992.9	NA	0.0000		9999	6530	0	0	0
2019/11/27 08:16:00	BASE	0.00	15	1.23	3	-0.2	100	-0.2	45	0	992.9	NA	0.0000		9999	6200	0	0	0
2019/11/27 08:17:00	BASE	0.00	359	1.23	3	-0.2	100	-0.2	45	0	992.9	NA	0.0000		9999	6140	0	0	0
2019/11/27 08:18:00	BASE	0.00	359	1.23	3	-0.2	100	-0.2	44	0	992.9	NA	0.0000		9999	6140	6630	0	0
2019/11/27 08:19:00	BASE	0.00	8	1.23	3	-0.2	100	-0.2	44	0	992.9	NA	0.0000		9999	6100	6590	0	0
2019/11/27 08:20:00	BASE	0.00	8	M	M	-0.2	100	-0.2	45	0	992.9	NA	0.0000		9999	5840	0	0	0
2019/11/27 08:21:00	BASE	0.00	360	M	M	-0.2	100	-0.2	44	0	992.9	NA	0.0000		9999	6040	0	0	0
2019/11/27 08:22:00	BASE	0.00	0	M	M	-0.1	100	-0.1	43	0	992.9	NA	0.0000		9999	5840	0	0	0
2019/11/27 08:23:00	BASE	0.00	5	M	M	-0.1	100	-0.1	43	0	992.9	NA	0.0000		9999	5870	0	0	0
2019/11/27 08:24:00	BASE	0.00	4	M	M	-0.1	100	-0.1	42	0	992.9	NA	0.0000		9999	6000	6560	0	0
2019/11/27 08:25:00	BASE	0.00	4	M	M	-0.0	100	-0.0	41	0	992.9	NA	0.0000		9999	6040	0	0	0
2019/11/27 08:26:00	BASE	0.00	4	M	M	-0.0	100	-0.0	39	0	992.9	NA	0.0000		9999	6000	0	0	0
2019/11/27 08:27:00	BASE	0.00	3	M	M	-0.0	100	-0.0	36	0	992.9	NA	0.0000		9999	5870	0	0	0
2019/11/27 08:28:00	BASE	0.00	336	M	M	-0.0	100	-0.0	33	0	992.9	NA	0.0000		9999	5870	0	0	0
2019/11/27 08:29:00	BASE	0.00	253	M	M	-0.0	100	-0.0	32	0	992.9	NA	0.0000		9999	5840	0	0	0
2019/11/27 08:30:00	BASE	0.00	228	M	M	-0.1	100	-0.1	33	0	992.9	NA	0.0000		9999	5970	0	0	0
2019/11/27 08:31:00	BASE	0.00	225	M	M	-0.0	100	-0.0	38	0	992.9	NA	0.0000		9999	5970	0	0	0
2019/11/27 08:32:00	BASE	0.00	218	M	M	-0.0	100	-0.0	44	0	992.9	NA	0.0000		9999	6100	0	0	0
2019/11/27 08:33:00	BASE	0.04	195	1.03	177	-0.0	100	-0.0	47	0	993.0	NA	0.0000		9999	6040	0	0	0
2019/11/27 08:34:00	BASE	0.04	174	1.03	177	-0.0	100	-0.0	49	0	992.9	NA	0.0000		9999	6040	0	0	0
2019/11/27 08:35:00	BASE	0.00	175	1.03	177	-0.0	100	-0.0	50	0	993.0	NA	0.0000		9999	6100	0	0	0
2019/11/27 08:36:00	BASE	0.00	168	1.03	177	-0.0	100	-0.0	51	0	993.0	NA	0.0000		9999	6070	0	0	0
2019/11/27 08:37:00	BASE	0.00	146	1.03	177	-0.1	100	-0.1	51	0	993.0	NA	0.0000		9999	6070	0	0	0
2019/11/27 08:38:00	BASE	0.00	132	1.03	177	-0.0	100	-0.0	51	0	992.9	NA	0.0000		9999	6000	0	0	0
2019/11/27 08:39:00	BASE	0.00	333	1.03	177	-0.0	100	-0.0	51	0	992.9	NA	0.0000		9999	6100	0	0	0
2019/11/27 08:40:00	BASE	0.00	326	1.03	177	0.0	100	0.0	52	0	993.0	NA	0.0000		9999	5810	0	0	0
2019/11/27 08:41:00	BASE	0.00	349	1.03	177	0.0	100	0.0	53	0	993.0	NA	0.0000		9999	5840	0	0	0
2019/11/27 08:42:00	BASE	0.00	349	1.03	177	0.0	100	0.0	55	0	993.0	NA	0.0000		9999	5910	0	0	0
2019/11/27 08:43:00	BASE	0.00	344	M	M	-0.0	100	-0.0	55	0	993.0	NA	0.0000		9999	5840	0	0	0
2019/11/27 08:44:00	BASE	0.00	360	M	M	-0.0	100	-0.0	56	0	993.0	NA	0.0000		9999	5940	0	0	0
2019/11/27 08:45:00	BASE	0.00	5	M	M	-0.1	100	-0.1	56	0	993.1	NA	0.0000		9999	6140	0	0	0
2019/11/27 08:46:00	BASE	0.00	9	M	M	-0.1	100	-0.1	57	0	993.2	NA	0.0000		9999	5970	0	0	0
2019/11/27 08:47:00	BASE	0.00	25	M	M	-0.1	100	-0.1	58	0	993.2	NA	0.0000		9999	5910	0	0	0
2019/11/27 08:48:00	BASE	0.00	33	M	M	-0.1	100	-0.1	59	0	993.2	NA	0.0000		9999	6140	0	0	0
2019/11/27 08:49:00	BASE	0.00	29	M	M	-0.1	100	-0.1	59	0	993.1	NA	0.0000		9999	6040	0	0	0
2019/11/27 08:50:00	BASE	0.22	14	1.13	6	-0.1	100	-0.1	60	0	993.0	NA	0.0000		9999	6040	0	0	0
2019/11/27 08:51:00	BASE	0.27	2	1.13	6	-0.1	100	-0.1	60	0	993.0	NA	0.0000		9999	6070	0	0	0
2019/11/27 08:52:00	BASE	0.05	353	1.13	6	-0.1	100	-0.1	61	0	993.0	NA	0.0000		9999	6230	0	0	0
2019/11/27 08:53:00	BASE	0.00	343	1.13	6	-0.0	100	-0.0	62	0	993.1	NA	0.0000		9999	6400	0	0	0
2019/11/27 08:54:00	BASE	0.00	345	1.13	6	-0.1	100	-0.1	63	0	993.1	NA	0.0000		9999	6330	0	0	0
2019/11/27 08:55:00	BASE	0.00	349	1.13	6	-0.1	100	-0.1	63	0	993.2	NA	0.0000		9999	6370	0	0	0
2019/11/27 08:56:00	BASE	0.00	0	1.13	6	-0.1	100	-0.1	63	0	993.2	NA	0.0000		9999	6430	0	0	0
2019/11/27 08:57:00	BASE	0.00	18	1.13	6	-0.1	100	-0.1	62	0	993.2	NA	0.0000		9999	6400	0	0	0
2019/11/27 08:58:00	BASE	0.00	26	1.13	6	-0.1	100	-0.1	61	0	993.2	NA	0.0000		9999	6370	0	0	0
2019/11/27 08:59:00	BASE	0.00	10	1.13	6	-0.1	100	-0.1	60	0	993.2	NA	0.0000		9999	6790	0	0	0
2019/11/27 09:00:00	BASE	0.00	323	1.08	3	-0.0	100	-0.0	59	0	993.2	NA	0.0000		9999	5280	0	0	0
2019/11/27 09:01:00	BASE	0.00	314	M	M	0.0	100	0.0	59	0	993.3	NA	0.0000		9999	5910	0	0	0
2019/11/27 09:02:00	BASE	0.20	354	1.23	5	0.0	100	0.0	58	0	993.2	NA	0.0000		9999	6000	0	0	0
2019/11/27 09:03:00	BASE	1.00	5	1.90	1	0.1	100	0.1	59	0	993.2	NA	0.0000		9999	7190	0	0	0
2019/11/27 09:04:00	BASE	1.56	356	1.90	1	0.1	100	0.1	60	0	993.2	NA	0.0000		9999	4920	6590	0	0
2019/11/27 09:05:00	BASE	0.99	357	1.90	1	0.0	100	0.0	61	0	993.2	NA	0.0000		9999	5970	0	0	0
2019/11/27 09:06:00	BASE	0.23	358	1.90	1	0.0	100	0.0	62	0	993.2	NA	0.0000		9999	5870	0	0	0
2019/11/27 09:07:00	BASE	0.00	343	1.90	1	0.0	100	0.0	62	0	993.2	NA	0.0000		9999	5740	0	0	0
2019/11/27 09:08:00	BASE	0.00	310	1.90	1	0.0	100	0.0	62	0	993.2	NA	0.0000		9999	5910	0	0	0
2019/11/27 09:09:00	BASE	0.00	286	1.90	1	0.0	100	0.0	62	0	993.2	NA	0.0000		9999	5710	0	0	0
2019/11/27 09:10:00	BASE	0.00	296	1.90	1	0.1	100	0.1	62	0	993.2	NA	0.0000		9999	5770	0	0	0
2019/11/27 09:11:00	BASE	0.00	311	1.90	1	0.1	100	0.1	63	0	993.2	NA	0.0000		9999	6560	0	0	0
2019/11/27 09:12:00	BASE	0.65	325	1.90	1	0.1	100	0.1	64	0	993.2	NA	0.0000		9999	6560	0	0	0
2019/11/27 09:13:00	BASE	1.08	340	1.70	354	0.1	100	0.1	64	0	993.3	NA	0.0000		9999	6000	6560	0	0
2019/11/27 09:14:00	BASE	0.43	354	1.54	339	0.1	100	0.1	64	0	993.4	NA	0.0000		9999	6070	0	0	0
2019/11/27 09:15:00	BASE	0.27	348	1.54	339	0.1	100	0.1	64	0	993.4	NA	0.0000		9999	6040	0	0	0
2019/11/27 09:16:00	BASE	0.91	329	1.54	339	0.1	100	0.1	63	0	993.4	NA	0.0000		9999	6100	0	0	0
2019/11/27 09:17:00	BASE	1.39	324	1.65	320	0.1	100	0.1	62	0	993.4	NA	0.0000		9999	5970	0	0	0
2019/11/27 09:18:00	BASE	1.60	320	1.75	317	0.1	100	0.1	62	0	993.4	NA	0.0000		9999	6040	0	0	0
2019/11/27 09:19:00	BASE	1.62	324	1.75	317	0.1	100	0.1	62	0	993.4	NA	0.0000		9999	5970	0	0	0
2019/11/27 09:20:00	BASE	1.47	333	1.75	317	-0.0	100	-0.0	62	0	993.5	NA	0.0000		9999	6040	7280	0	0
2019/11/27 09:21:00	BASE	1.52	337	1.95	335	-0.1	100	-0.1	62	0	993.4	NA	0.0000		9999	5970	0	0	0
2019/11/27 09:22:00	BASE	1.85	336	2.21	334	-0.1	100	-0.1	62	0	993.4	NA	0.0000		9999	6000	0	0	0
2019/11/27 09:23:00	BASE	2.21	336	2.52	338	-0.1	100	-0.1	62	0	993.5	NA	0.0000		9999	6000	0	0	0
2019/11/27 09:24:00	BASE	2.53	337	2.83	337	-0.1	100	-0.1	62	0	993.5	NA	0.0000		9999	5910	0	0	0
2019/11/27 09:25:00	BASE	2.75	337	2.98	337	-0.1	100	-0.1	64	0	993.5	NA	0.0000		9999	5940	0	0	0
2019/11/27 09:26:00	BASE	2.78	336	2.98	337	-0.1	100	-0.1	67	0	993.5	NA	0.0000		9999	5910	0	0	0
2019/11/27 09:27:00	BASE	2.64	333	2.98	337	-0.2	100	-0.2	70	0	993.5	NA	0.0000		9999	5910	0	0	0
2019/11/27 09:28:00	BASE	2.49	339	2.98	337	-0.2	100	-0.2	74	0	993.5	NA	0.0000		9999	6000	0	0	0
2019/11/27 09:29:00	BASE	2.56	349	2.98	337	-0.2	100	-0.2	78	0	993.5	NA	0.0000		9999	6040	0	0	0
2019/11/27 09:30:00	BASE	2.73	344	3.09	330	-0.2	100	-0.2	81	0	993.5	NA	0.0000		9999	6070	0	0	0
2019/11/27 09:31:00	BASE	3.01	335	3.34	332	-0.2	100	-0.2	82	0	993.5	NA	0.0000		9999	6000	0	0	0
2019/11/27 09:32:00	BASE	3.12	332	3.34	332	-0.2	100	-0.2	82	0	993.5	NA	0.0000		9999	6040	0	0	0
2019/11/27 09:33:00	BASE	3.01	333	3.34	332	-0.2	100	-0.2	81	0	993.5	NA	0.0000		9999	6100	0	0	0
2019/11/27 09:34:00	BASE	3.04	329	3.34	332	-0.1	100	-0.1	80	0	993.5	NA	0.0000		9999	6100	0	0	0
2019/11/27 09:35:00	BASE	3.07	326	3.34	332	-0.1	100	-0.1	80	0	993.5	NA	0.0000		9999	6040	0	0	0
2019/11/27 09:36:00	BASE	2.70	325	3.34	332	-0.0	100	-0.0	81	0	993.6	NA	0.0000		9999	6140	0	0	0
2019/11/27 09:37:00	BASE	2.12	318	3.34	332	0.0	100	0.0	82	0	993.6	NA	0.0000		9999	6070	0	0	0
2019/11/27 09:38:00	BASE	1.89	310	3.34	332	0.0	100	0.0	84	0	993.6	NA	0.0000		9999	6040	0	0	0
2019/11/27 09:39:00	BASE	1.73	298	3.34	332	0.0	100	0.0	86	0	993.6	NA	0.0000		9999	6100	0	0	0
2019/11/27 09:40:00	BASE	1.64	296	3.34	332	0.0	100	0.0	87	0	993.6	NA	0.0000		9999	6140	0	0	0
2019/11/27 09:41:00	BASE	1.96	302	3.24	323	0.0	100	0.0	88	0	993.6	NA	0.0000		9999	6170	0	0	0
2019/11/27 09:42:00	BASE	2.40	303	3.24	323	0.0	100	0.0	90	0	993.6	NA	0.0000		9999	6140	0	0	0
2019/11/27 09:43:00	BASE	2.70	310	3.24	323	0.0	100	0.0	92	0	993.5	NA	0.0000		9999	6100	0	0	0
2019/11/27 09:44:00	BASE	2.68	317	3.14	331	0.0	100	0.0	96	0	993.5	NA	0.0000		9999	6170	0	0	0
2019/11/27 09:45:00	BASE	2.52	316	2.93	315	-0.0	100	-0.0	100	0	993.5	NA	0.0000		9999	6140	0	0	0
2019/11/27 09:46:00	BASE	2.53	313	2.93	315	-0.1	100	-0.1	101	0	993.5	NA	0.0000		9999	6170	7580	0	0
2019/11/27 09:47:00	BASE	2.47	308	2.93	315	-0.1	100	-0.1	100	0	993.5	NA	0.0000		9999	7640	0	0	0
2019/11/27 09:48:00	BASE	2.09	304	2.93	315	-0.2	100	-0.2	97	0	993.5	NA	0.0000		9999	6170	7840	0	0
2019/11/27 09:49:00	BASE	1.35	306	2.93	315	-0.1	100	-0.1	94	0	993.5	NA	0.0000		9999	6170	7840	0	0
2019/11/27 09:50:00	BASE	0.43	306	2.93	315	-0.1	100	-0.1	92	0	993.6	NA	0.0000		9999	6100	0	0	0
2019/11/27 09:51:00	BASE	0.66	309	2.93	315	-0.1	100	-0.1	90	0	993.6	NA	0.0000		9999	6040	0	0	0
2019/11/27 09:52:00	BASE	1.56	317	2.93	315	-0.1	100	-0.1	88	0	993.6	NA	0.0000		9999	6000	0	0	0
2019/11/27 09:53:00	BASE	1.95	319	2.68	312	-0.1	100	-0.1	88	0	993.6	NA	0.0000		9999	7120	0	0	0
2019/11/27 09:54:00	BASE	1.84	317	2.68	312	-0.1	100	-0.1	88	0	993.6	NA	0.0000		9999	6040	7020	0	0
2019/11/27 09:55:00	BASE	1.12	317	2.68	312	-0.1	100	-0.1	87	0	993.6	NA	0.0000		9999	5970	0	0	0
2019/11/27 09:56:00	BASE	0.33	316	2.62	307	-0.1	100	-0.1	86	0	993.6	NA	0.0000		9999	6000	0	0	0
2019/11/27 09:57:00	BASE	0.10	315	2.21	319	-0.1	100	-0.1	83	0	993.6	NA	0.0000		9999	6560	0	0	0
2019/11/27 09:58:00	BASE	0.90	320	2.21	319	-0.1	100	-0.1	79	0	993.6	NA	0.0000		9999	6270	0	0	0
2019/11/27 09:59:00	BASE	1.87	326	2.57	326	-0.1	100	-0.1	75	0	993.6	NA	0.0000		9999	6300	0	0	0
2019/11/27 10:00:00	BASE	2.24	328	2.57	326	-0.0	100	-0.0	70	0	993.6	NA	0.0000		9999	6230	0	0	0
2019/11/27 10:01:00	BASE	2.34	331	2.57	326	0.0	100	0.0	67	0	993.6	NA	0.0000		9999	6200	0	0	0
2019/11/27 10:02:00	BASE	2.30	334	2.57	326	0.0	100	0.0	64	0	993.7	NA	0.0000		9999	6140	0	0	0
2019/11/27 10:03:00	BASE	2.02	335	2.57	326	0.1	100	0.0	63	0	993.7	NA	0.0000		9999	5610	0	0	0
2019/11/27 10:04:00	BASE	1.59	331	2.57	326	0.1	100	0.1	62	0	993.7	NA	0.0000		9999	5380	0	0	0
2019/11/27 10:05:00	BASE	1.51	327	2.57	326	0.0	100	0.0	61	0	993.7	NA	0.0000		9999	5380	0	0	0
2019/11/27 10:06:00	BASE	1.71	326	2.57	326	0.0	100	0.0	61	0	993.7	NA	0.0000		9999	5250	0	0	0
2019/11/27 10:07:00	BASE	1.69	329	2.57	326	0.0	100	0.0	61	0	993.7	NA	0.0000		9999	4820	0	0	0
2019/11/27 10:08:00	BASE	1.62	335	2.57	326	0.1	100	0.1	62	0	993.7	NA	0.0000		9999	4460	0	0	0
2019/11/27 10:09:00	BASE	1.65	342	2.52	331	0.1	100	0.1	64	0	993.8	NA	0.0000		9999	4590	0	0	0
2019/11/27 10:10:00	BASE	1.68	348	2.52	331	0.1	100	0.1	65	0	993.9	NA	0.0000		9999	2530	0	0	0
2019/11/27 10:11:00	BASE	1.65	349	2.42	339	0.1	100	0.1	67	0	993.9	NA	0.0000		9999	23820	0	0	0
2019/11/27 10:12:00	BASE	0.89	342	1.95	342	0.1	100	0.1	69	0	993.9	NA	0.0000		9999	4270	0	0	0
2019/11/27 10:13:00	BASE	0.09	317	1.90	324	0.1	100	0.1	70	0	993.9	NA	0.0000		9999	4130	0	0	0
2019/11/27 10:14:00	BASE	0.13	299	1.90	324	0.1	100	0.1	70	0	993.9	NA	0.0000		9999	4270	0	0	0
2019/11/27 10:15:00	BASE	0.26	304	1.90	324	0.1	100	0.1	68	0	993.9	NA	0.0000		9999	4690	0	0	0
2019/11/27 10:16:00	BASE	0.36	299	1.85	348	0.1	100	0.1	66	0	993.9	NA	0.0000		9999	4890	0	0	0
2019/11/27 10:17:00	BASE	0.68	285	1.85	348	0.1	100	0.1	63	0	993.9	NA	0.0000		9999	4950	0	0	0
2019/11/27 10:18:00	BASE	0.50	274	1.85	348	0.1	100	0.1	60	0	994.0	NA	0.0000		9999	23000	0	0	0
2019/11/27 10:19:00	BASE	0.17	268	1.85	348	0.1	100	0.1	57	0	994.0	NA	0.0000		9999	5320	0	0	0
2019/11/27 10:20:00	BASE	0.13	279	1.75	345	0.2	100	0.2	55	0	994.0	NA	0.0000		9999	5250	0	0	0
2019/11/27 10:21:00	BASE	0.00	306	1.18	282	0.2	100	0.2	52	0	994.0	NA	0.0000		9999	5410	0	0	0
2019/11/27 10:22:00	BASE	0.65	326	1.90	328	0.2	100	0.2	49	0	994.0	NA	0.0000		9999	5220	0	0	0
2019/11/27 10:23:00	BASE	1.63	330	2.06	329	0.2	100	0.2	47	0	994.0	NA	0.0000		9999	4760	0	0	0
2019/11/27 10:24:00	BASE	1.95	326	2.06	318	0.2	100	0.2	44	0	994.0	NA	0.0000		9999	4820	0	0	0
2019/11/27 10:25:00	BASE	1.90	315	2.06	316	0.2	100	0.2	42	0	994.0	NA	0.0000		9999	4630	0	0	0
2019/11/27 10:26:00	BASE	1.64	306	2.06	316	0.2	100	0.2	40	0	994.1	NA	0.0000		9999	4690	0	0	0
2019/11/27 10:27:00	BASE	1.29	307	2.06	316	0.1	100	0.1	39	0	994.1	NA	0.0000		9999	4300	0	0	0
2019/11/27 10:28:00	BASE	1.29	314	2.06	316	0.1	100	0.1	38	0	994.1	NA	0.0000		9999	4530	0	0	0
2019/11/27 10:29:00	BASE	1.50	317	2.06	316	0.1	100	0.1	38	0	994.1	NA	0.0000		9999	4560	0	0	0
2019/11/27 10:30:00	BASE	1.58	326	2.06	316	0.1	100	0.1	38	0	994.1	NA	0.0000		9999	4530	0	0	0
2019/11/27 10:31:00	BASE	1.58	337	2.06	316	0.1	100	0.1	39	0	994.1	NA	0.0000		9999	4400	0	0	0
2019/11/27 10:32:00	BASE	1.47	323	2.06	316	0.1	100	0.1	39	0	994.1	NA	0.0000		9999	4490	0	0	0
2019/11/27 10:33:00	BASE	1.08	302	2.06	316	0.2	100	0.2	40	0	994.1	NA	0.0000		9999	3350	0	0	0
2019/11/27 10:34:00	BASE	0.40	298	2.06	316	0.2	100	0.2	40	0	994.1	NA	0.0000		9999	2360	0	0	0
2019/11/27 10:35:00	BASE	0.00	296	1.75	345	0.2	100	0.2	42	0	994.2	NA	0.0000		9999	3840	0	0	0
2019/11/27 10:36:00	BASE	0.00	304	1.75	345	0.2	100	0.2	44	0	994.2	NA	0.0000		9999	4400	0	0	0
2019/11/27 10:37:00	BASE	0.40	317	1.75	345	0.2	100	0.2	46	0	994.2	NA	0.0000		9999	3480	0	0	0
2019/11/27 10:38:00	BASE	1.18	315	1.75	345	0.2	100	0.2	49	0	994.2	NA	0.0000		9999	4430	0	0	0
2019/11/27 10:39:00	BASE	1.55	315	1.75	345	0.2	100	0.2	52	0	994.2	NA	0.0000		9999	3970	0	0	0
2019/11/27 10:40:00	BASE	1.57	329	1.80	341	0.2	100	0.2	56	0	994.2	NA	0.0000		9999	4460	0	0	0
2019/11/27 10:41:00	BASE	1.84	343	2.21	347	0.2	100	0.2	59	0	994.2	NA	0.0000		9999	4130	0	0	0
2019/11/27 10:42:00	BASE	2.30	347	2.88	345	0.2	100	0.2	62	0	994.2	NA	0.0000		9999	3150	0	0	0
2019/11/27 10:43:00	BASE	2.87	344	3.50	344	0.2	100	0.2	65	0	994.1	NA	0.0000		9999	3250	0	0	0
2019/11/27 10:44:00	BASE	3.40	341	3.76	337	0.2	100	0.2	69	0	994.1	NA	0.0000		9999	3540	0	0	0
2019/11/27 10:45:00	BASE	3.61	335	3.76	337	0.2	100	0.2	72	0	994.1	NA	0.0000		9999	3640	0	0	0
2019/11/27 10:46:00	BASE	3.52	324	3.76	337	0.2	100	0.2	76	0	994.1	NA	0.0000		9999	3450	0	0	0
2019/11/27 10:47:00	BASE	3.30	321	3.76	337	0.2	100	0.2	80	0	994.2	NA	0.0000		9999	3250	0	0	0
2019/11/27 10:48:00	BASE	3.38	325	3.81	323	0.2	100	0.2	83	0	994.2	NA	0.0000		9999	0	0	0	3350
2019/11/27 10:49:00	BASE	3.40	324	3.81	323	0.2	100	0.2	85	0	994.3	NA	0.0000	UP	9999	0	0	0	3350
2019/11/27 10:50:00	BASE	1.97	334	3.81	323	0.2	100	0.2	85	0	994.4	NA	0.0000	UP	9999	0	0	0	3220
2019/11/27 10:51:00	BASE	1.30	99	3.81	323	0.2	100	0.2	88	0	994.5	NA	0.0000	UP	9999	0	0	0	3220
2019/11/27 10:52:00	BASE	1.21	87	3.81	323	0.2	100	0.2	93	0	994.4	NA	0.0000	UP	9000	0	0	0	3280
2019/11/27 10:53:00	BASE	1.67	329	3.81	323	0.2	100	0.2	99	0	994.3	NA	0.0000	UP	7000	0	0	0	790
2019/11/27 10:54:00	BASE	2.88	315	3.81	323	0.3	100	0.3	107	0	994.2	NA	0.0000	UP	9000	0	0	0	3670
2019/11/27 10:55:00	BASE	2.62	345	3.81	323	0.3	100	0.3	114	0	994.3	NA	0.0000	UP BR	9000	0	0	0	5150
2019/11/27 10:56:00	BASE	2.17	24	3.81	323	0.4	100	0.4	120	0	994.4	NA	0.0000	UP BR	9000	0	0	0	5220
2019/11/27 10:57:00	BASE	1.72	29	3.81	323	0.4	100	0.4	127	0	994.4	NA	0.0000	UP BR	9999	0	0	0	520
2019/11/27 10:58:00	BASE	1.06	16	3.65	323	0.5	100	0.5	134	0	994.3	NA	0.0000	UP BR	9999	0	0	0	5280
2019/11/27 10:59:00	BASE	0.46	0	3.09	311	0.5	100	0.5	142	0	994.3	NA	0.0000	UP BR	9000	0	0	0	5150
2019/11/27 11:00:00	BASE	0.09	344	3.09	311	0.5	100	0.5	150	0	994.3	NA	0.0000	UP BR	7000	0	0	0	750
2019/11/27 11:01:00	BASE	0.00	337	3.09	311	0.5	100	0.5	158	0	994.4	NA	0.0000	UP BR	9000	3810	0	0	0
2019/11/27 11:02:00	BASE	0.00	357	3.09	311	0.6	100	0.6	166	0	994.4	NA	0.0000	UP BR	9000	3840	0	0	0
2019/11/27 11:03:00	BASE	0.22	40	3.09	311	0.6	100	0.6	173	0	994.4	NA	0.0000	UP BR	9999	3640	0	0	0
2019/11/27 11:04:00	BASE	0.44	51	2.62	360	0.6	100	0.6	179	0	994.4	NA	0.0000	UP BR	9999	3640	0	0	0
2019/11/27 11:05:00	BASE	0.62	14	2.47	41	0.6	100	0.6	181	0	994.4	NA	0.0000	UP BR	9999	3640	0	0	0
2019/11/27 11:06:01	BASE	1.34	353	2.31	6	0.6	100	0.6	181	0	994.4	NA	0.0000	UP	9999	3540	0	0	0
2019/11/27 11:07:00	BASE	2.16	8	2.62	26	0.6	100	0.6	187	0	994.4	NA	0.0000	UP	9999	3510	0	0	0
2019/11/27 11:08:00	BASE	2.28	21	2.62	26	0.7	100	0.7	199	0	994.4	NA	0.0000	UP	9999	2170	0	0	0
2019/11/27 11:09:00	BASE	1.85	20	2.62	26	0.7	100	0.7	203	0	994.4	NA	0.0000	UP	9999	3450	0	0	0
2019/11/27 11:10:00	BASE	1.68	31	2.62	26	0.8	100	0.8	191	0	994.4	NA	0.0000		9999	3450	0	0	0
2019/11/27 11:11:00	BASE	1.90	45	2.62	26	0.8	100	0.8	178	0	994.4	NA	0.0000		9999	6630	0	0	0
2019/11/27 11:12:00	BASE	2.03	45	2.62	26	0.8	100	0.8	171	0	994.4	NA	0.0000		9999	3670	0	0	0
2019/11/27 11:13:00	BASE	1.87	32	2.62	26	0.8	100	0.8	165	0	994.5	NA	0.0000		9999	3510	0	0	0
2019/11/27 11:14:00	BASE	1.66	20	2.62	26	0.9	100	0.9	161	0	994.5	NA	0.0000		9999	3970	5280	0	0
2019/11/27 11:15:00	BASE	1.64	16	2.62	26	0.9	100	0.9	157	0	994.5	NA	0.0000		9999	5280	6690	0	0
2019/11/27 11:16:00	BASE	1.57	0	2.62	26	0.9	100	0.9	157	0	994.5	NA	0.0000		9999	6500	0	0	0
2019/11/27 11:17:00	BASE	1.04	343	2.37	26	0.9	100	0.9	161	0	994.5	NA	0.0000		9999	6590	0	0	0
2019/11/27 11:18:00	BASE	0.30	332	2.21	48	1.0	100	1.0	164	0	994.5	NA	0.0000		9999	4300	5280	0	0
2019/11/27 11:19:00	BASE	0.14	282	2.21	48	1.1	100	1.1	167	0	994.5	NA	0.0000		9999	4230	5840	0	0
2019/11/27 11:20:00	BASE	0.14	173	2.21	48	1.2	100	1.2	171	0	994.5	NA	0.0000		9999	5480	7970	0	0
2019/11/27 11:21:00	BASE	0.09	153	2.21	48	1.2	100	1.2	175	0	994.5	NA	0.0000		9999	7810	0	0	0
2019/11/27 11:22:00	BASE	0.50	145	1.85	18	1.2	100	1.2	181	0	994.5	NA	0.0000		9999	5380	7840	0	0
2019/11/27 11:23:00	BASE	1.11	143	1.85	18	1.2	100	1.2	189	0	994.6	NA	0.0000		9999	5250	24350	0	0
2019/11/27 11:24:00	BASE	1.04	152	1.80	9	1.2	100	1.2	198	0	994.6	NA	0.0000		9999	5350	0	0	0
2019/11/27 11:25:00	BASE	0.35	180	1.75	335	1.3	100	1.3	205	0	994.6	NA	0.0000		9999	5350	0	0	0
2019/11/27 11:26:00	BASE	0.00	232	1.54	150	1.4	100	1.4	213	0	994.6	NA	0.0000		9999	5380	17450	0	0
2019/11/27 11:27:00	BASE	0.18	269	1.54	150	1.5	100	1.5	219	0	994.6	NA	0.0000		9999	5380	0	0	0
2019/11/27 11:28:00	BASE	0.40	286	1.54	150	1.6	100	1.6	217	0	994.6	NA	0.0000		9999	5320	0	0	0
2019/11/27 11:29:00	BASE	0.22	305	1.54	150	1.7	100	1.7	215	0	994.6	NA	0.0000		9999	5280	0	0	0
2019/11/27 11:30:00	BASE	0.00	332	1.54	150	1.8	100	1.8	216	0	994.7	NA	0.0000		9999	5350	0	0	0
2019/11/27 11:31:00	BASE	0.55	267	2.21	198	1.8	100	1.8	220	0	994.7	NA	0.0000		9999	5350	0	0	0
2019/11/27 11:32:00	BASE	1.27	199	2.52	200	1.7	100	1.7	230	0	994.7	NA	0.0000		9999	5380	7580	0	0
2019/11/27 11:33:00	BASE	0.72	210	2.52	200	1.4	100	1.4	240	0	994.7	NA	0.0000		9999	5410	7680	0	0
2019/11/27 11:34:00	BASE	0.00	17	2.52	200	1.3	100	1.3	256	0	994.7	NA	0.0000		9999	5410	7190	7550	0
2019/11/27 11:35:00	BASE	0.18	142	2.52	200	1.2	100	1.2	267	0	994.7	NA	0.0000		9999	5350	0	0	0
2019/11/27 11:36:00	BASE	0.28	181	2.52	200	1.1	100	1.1	277	0	994.7	NA	0.0000		9999	5410	7480	0	0
2019/11/27 11:37:00	BASE	0.09	100	2.52	200	1.0	100	1.0	293	0	994.7	NA	0.0000		9999	8100	8560	0	0
2019/11/27 11:38:00	BASE	0.05	16	2.52	200	1.1	100	1.1	410	0	994.7	NA	0.0000		9999	8530	0	0	0
2019/11/27 11:39:00	BASE	0.27	335	2.52	200	1.1	100	1.1	312	0	994.7	NA	0.0000		9999	9220	0	0	0
2019/11/27 11:40:00	BASE	0.56	353	2.52	200	1.0	100	1.0	302	0	994.7	NA	0.0000		9999	9650	0	0	0
2019/11/27 11:41:00	BASE	1.01	28	2.52	200	1.1	100	1.1	307	0	994.7	NA	0.0000		9999	8830	0	0	0
2019/11/27 11:42:00	BASE	1.56	35	2.06	39	1.1	100	1.1	308	0	994.7	NA	0.0000		9999	9320	0	0	0
2019/11/27 11:43:00	BASE	1.90	38	2.26	39	1.2	100	1.2	302	0	994.7	NA	0.0000		9999	9840	0	0	0
2019/11/27 11:44:00	BASE	1.94	38	2.26	39	1.3	100	1.3	285	0	994.7	NA	0.0000		9999	9880	0	0	0
2019/11/27 11:45:00	BASE	1.69	40	2.26	39	1.4	100	1.4	265	0	994.7	NA	0.0000		9999	9810	0	0	0
2019/11/27 11:46:00	BASE	1.47	43	2.26	39	1.5	100	1.5	248	0	994.7	NA	0.0000		9999	9090	0	0	0
2019/11/27 11:47:00	BASE	0.99	34	2.26	39	1.6	100	1.6	234	0	994.7	NA	0.0000		9999	0	0	0	0
2019/11/27 11:48:00	BASE	0.28	11	2.26	39	1.8	100	1.8	222	0	994.6	NA	0.0000		9999	0	0	0	0
2019/11/27 11:49:00	BASE	0.00	334	2.26	39	1.9	100	1.9	209	0	994.7	NA	0.0000		9999	9510	0	0	0
2019/11/27 11:50:00	BASE	0.00	317	2.26	39	1.9	100	1.9	197	0	994.7	NA	0.0000		9999	9580	0	0	0
2019/11/27 11:51:00	BASE	0.00	329	2.26	39	1.8	100	1.8	185	0	994.7	NA	0.0000		9999	6370	9380	0	0
2019/11/27 11:52:00	BASE	0.00	5	2.26	39	1.7	100	1.7	173	0	994.7	NA	0.0000		9999	6630	8890	0	0
2019/11/27 11:53:00	BASE	0.00	38	1.95	35	1.6	100	1.6	163	0	994.7	NA	0.0000		9999	6460	0	0	0
2019/11/27 11:54:00	BASE	0.30	40	1.70	40	1.6	100	1.6	154	0	994.7	NA	0.0000		9999	6500	8830	0	0
2019/11/27 11:55:00	BASE	1.08	243	1.75	244	1.5	100	1.5	145	0	994.6	NA	0.0000		9999	6500	8760	0	0
2019/11/27 11:56:00	BASE	1.52	241	1.75	234	1.4	100	1.4	137	0	994.6	NA	0.0000		9999	6460	0	0	0
2019/11/27 11:57:00	BASE	1.57	233	1.90	225	1.3	100	1.3	128	0	994.5	NA	0.0000		9999	7480	8730	0	0
2019/11/27 11:58:00	BASE	1.47	231	1.90	225	1.2	100	1.2	120	0	994.5	NA	0.0000		9999	6860	0	0	0
2019/11/27 11:59:00	BASE	1.45	251	2.01	269	1.1	100	1.1	114	0	994.4	NA	0.0000		9999	6690	0	0	0
2019/11/27 12:00:00	BASE	1.87	269	2.37	276	1.1	100	1.1	108	0	994.4	NA	0.0000		9999	6560	0	0	0
2019/11/27 12:01:00	BASE	2.31	280	2.73	287	1.3	100	1.3	103	0	994.3	NA	0.0000		9999	7020	0	0	0
2019/11/27 12:02:00	BASE	2.15	301	2.73	287	1.4	100	1.4	99	0	994.4	NA	0.0000		9999	6200	0	0	0
2019/11/27 12:03:00	BASE	1.21	347	2.73	287	1.7	100	1.7	96	0	994.5	NA	0.0000		9999	6890	0	0	0
2019/11/27 12:04:00	BASE	0.33	354	2.73	287	1.9	100	1.9	94	0	994.5	NA	0.0000		9999	7090	0	0	0
2019/11/27 12:05:00	BASE	0.46	305	2.73	287	2.0	100	2.0	92	0	994.5	NA	0.0000		9999	7120	0	0	0
2019/11/27 12:06:00	BASE	0.98	271	2.73	287	2.0	100	2.0	89	0	994.5	NA	0.0000		9999	6040	0	0	0
2019/11/27 12:07:00	BASE	0.63	269	2.73	287	2.0	100	2.0	87	0	994.5	NA	0.0000		9999	6730	0	0	0
2019/11/27 12:08:00	BASE	0.86	355	2.73	287	1.9	100	1.9	85	0	994.5	NA	0.0000		9999	6560	0	0	0
2019/11/27 12:09:00	BASE	0.88	355	2.73	287	1.8	100	1.8	82	0	994.6	NA	0.0000		9999	4860	0	0	0
2019/11/27 12:10:00	BASE	0.59	258	2.73	287	1.7	100	1.7	80	0	994.6	NA	0.0000		9999	6430	0	0	0
2019/11/27 12:11:00	BASE	1.14	224	2.42	287	1.7	100	1.7	79	0	994.6	NA	0.0000		9999	6170	0	0	0
2019/11/27 12:12:00	BASE	1.41	194	1.85	30	1.7	100	1.7	80	0	994.5	NA	0.0000		9999	5740	0	0	0
2019/11/27 12:13:00	BASE	1.48	164	1.85	30	1.8	100	1.8	84	0	994.5	NA	0.0000		9999	5220	0	0	0
2019/11/27 12:14:00	BASE	1.61	151	1.85	149	1.9	100	1.9	93	0	994.5	NA	0.0000		9999	3940	0	0	0
2019/11/27 12:15:00	BASE	1.89	149	2.26	148	1.9	100	1.9	104	0	994.5	NA	0.0000		9999	3870	0	0	0
2019/11/27 12:16:00	BASE	2.03	146	2.26	148	1.9	100	1.9	116	0	994.5	NA	0.0000		9999	3640	0	0	0
2019/11/27 12:17:00	BASE	1.68	143	2.26	148	1.9	100	1.9	126	0	994.5	NA	0.0000		9999	3120	0	0	0
2019/11/27 12:18:00	BASE	1.30	134	2.26	148	1.9	100	1.9	133	0	994.4	NA	0.0000		9999	2300	0	0	0
2019/11/27 12:19:00	BASE	0.78	116	2.26	148	1.9	100	1.9	138	0	994.4	NA	0.0000		9999	2100	22770	0	0
2019/11/27 12:20:00	BASE	0.18	93	2.26	148	2.0	100	2.0	139	0	994.4	NA	0.0000		9999	1150	0	0	0
2019/11/27 12:21:00	BASE	0.38	70	2.26	148	2.0	100	2.0	140	0	994.4	NA	0.0000		9999	2200	0	0	0
2019/11/27 12:22:00	BASE	0.42	70	2.26	148	2.2	100	2.2	141	0	994.3	NA	0.0000	UP	9999	2560	0	0	0
2019/11/27 12:23:00	BASE	0.05	100	2.26	148	2.3	100	2.3	144	0	994.2	NA	0.0000	UP	9999	2430	0	0	0
2019/11/27 12:24:00	BASE	0.00	129	2.26	148	2.4	100	2.4	146	0	994.1	NA	0.0000	UP	9999	2490	0	0	0
2019/11/27 12:25:00	BASE	0.00	136	2.16	153	2.5	100	2.5	151	0	994.2	NA	0.0000	UP	9999	0	0	0	3610
2019/11/27 12:26:00	BASE	0.53	109	2.42	41	2.5	100	2.5	160	0	994.1	NA	0.0000	UP	9000	0	0	0	3540
2019/11/27 12:27:00	BASE	1.46	53	2.78	35	2.5	100	2.5	168	0	994.1	NA	0.0000	UP	9000	0	0	0	3540
2019/11/27 12:28:00	BASE	1.64	22	2.78	35	2.5	100	2.5	173	0	994.1	NA	0.0000	UP	9999	0	0	0	3840
2019/11/27 12:29:00	BASE	1.21	22	2.78	35	2.5	100	2.5	176	0	994.1	NA	0.0000	UP	9000	2660	0	0	0
2019/11/27 12:30:00	BASE	1.03	24	2.78	35	2.5	100	2.5	178	0	994.1	NA	0.0000	UP	9999	2820	0	0	0
2019/11/27 12:31:00	BASE	1.22	21	2.78	35	2.5	100	2.5	184	0	994.1	NA	0.0000	UP	9999	3020	21230	0	0
2019/11/27 12:32:00	BASE	1.63	23	2.78	35	2.5	100	2.5	195	0	994.2	NA	0.0000	UP	9999	2720	0	0	0
2019/11/27 12:33:00	BASE	1.94	21	2.78	35	2.5	100	2.5	207	0	994.2	NA	0.0000	UP	9999	4130	0	0	0
2019/11/27 12:34:00	BASE	2.11	13	2.78	35	2.5	100	2.5	225	0	994.2	NA	0.0000	UP	9999	4000	0	0	0
2019/11/27 12:35:00	BASE	2.11	4	2.78	35	2.4	100	2.4	233	0	994.2	NA	0.0000	UP	9999	8100	0	0	0
2019/11/27 12:36:00	BASE	1.90	351	2.78	35	2.3	100	2.3	238	0	994.2	NA	0.0000	UP	9999	8070	0	0	0
2019/11/27 12:37:00	BASE	2.10	337	3.09	340	2.3	100	2.3	240	0	994.2	NA	0.0000	UP	9999	9480	0	0	0
2019/11/27 12:38:00	BASE	2.94	336	4.01	339	2.2	100	2.2	239	0	994.2	NA	0.0000	UP	9999	8460	0	0	0
2019/11/27 12:39:00	BASE	3.83	338	4.37	339	2.1	100	2.1	236	0	994.3	NA	0.0000		9999	8600	0	0	0
2019/11/27 12:40:00	BASE	4.02	339	4.37	339	2.1	100	2.1	232	0	994.4	NA	0.0000		9999	11020	0	0	0
2019/11/27 12:41:00	BASE	3.85	337	4.37	339	2.0	100	2.0	229	0	994.4	NA	0.0000		9999	12430	0	0	0
2019/11/27 12:42:00	BASE	4.15	332	4.58	337	2.0	100	2.0	228	0	994.4	NA	0.0000		9999	11250	0	0	0
2019/11/27 12:43:00	BASE	4.89	332	5.81	332	1.9	100	1.9	229	0	994.4	NA	0.0000		9999	10240	0	0	0
2019/11/27 12:44:00	BASE	5.39	335	5.81	332	1.9	100	1.9	234	0	994.4	NA	0.0000		9999	6560	0	0	0
2019/11/27 12:45:00	BASE	5.54	336	5.97	337	1.8	100	1.8	240	0	994.4	NA	0.0000		9999	5940	0	0	0
2019/11/27 12:46:00	BASE	5.54	331	6.28	335	1.7	100	1.7	248	0	994.4	NA	0.0000		9999	6270	0	0	0
2019/11/27 12:47:00	BASE	5.33	329	6.28	335	1.7	100	1.7	256	0	994.4	NA	0.0000		9999	5840	0	0	0
2019/11/27 12:48:00	BASE	4.85	324	6.28	335	1.7	100	1.7	264	0	994.4	NA	0.0000		9999	12570	0	0	0
2019/11/27 12:49:00	BASE	3.02	333	6.28	335	1.8	100	1.8	273	0	994.5	NA	0.0000		9999	8460	0	0	0
2019/11/27 12:50:00	BASE	1.62	77	6.28	335	2.0	100	2.0	280	0	994.5	NA	0.0000		9999	6000	0	0	0
2019/11/27 12:51:00	BASE	2.54	97	6.28	335	2.4	100	2.4	285	0	994.5	NA	0.0000		9999	6000	8500	0	0
2019/11/27 12:52:00	BASE	4.16	114	6.38	126	2.9	100	2.9	284	0	994.5	NA	0.0000		9999	8500	0	0	0
2019/11/27 12:53:00	BASE	3.99	105	6.38	126	3.4	100	3.4	281	0	994.5	NA	0.0000		9999	5940	6660	0	0
2019/11/27 12:54:00	BASE	2.70	84	6.38	126	3.8	99	3.7	279	0	994.5	NA	0.0000		9999	5710	6730	0	0
2019/11/27 12:55:00	BASE	2.52	83	6.38	126	4.1	97	3.7	278	0	994.5	NA	0.0000		9999	5680	0	0	0
2019/11/27 12:56:00	BASE	2.72	99	6.38	126	4.4	95	3.6	277	0	994.5	NA	0.0000		9999	6530	0	0	0
2019/11/27 12:57:00	BASE	4.21	108	8.85	121	4.5	92	3.2	280	0	994.5	NA	0.0000		9999	8630	0	0	0
2019/11/27 12:58:00	BASE	6.46	109	9.11	115	4.6	88	2.8	287	0	994.5	NA	0.0000		9999	8560	0	0	0
2019/11/27 12:59:00	BASE	6.60	109	9.11	115	4.7	85	2.5	297	0	994.5	NA	0.0000		9999	8070	8370	0	0
2019/11/27 13:00:00	BASE	4.81	125	9.11	115	4.9	83	2.3	312	0	994.5	NA	0.0000		9999	8240	0	0	0
2019/11/27 13:01:00	BASE	3.48	140	9.11	115	4.9	81	2.0	333	0	994.4	NA	0.0000		9999	8270	0	0	0
2019/11/27 13:02:00	BASE	3.49	133	9.11	115	4.9	80	1.8	362	0	994.4	NA	0.0000		9999	8140	0	0	0
2019/11/27 13:03:00	BASE	3.81	128	9.11	115	4.9	79	1.6	759	0	994.4	NA	0.0000		9999	8070	8430	0	0
2019/11/27 13:04:00	BASE	4.24	125	9.11	115	4.9	79	1.5	896	0	994.4	NA	0.0000		9999	7870	0	0	0
2019/11/27 13:05:00	BASE	4.18	126	9.11	115	4.9	78	1.4	669	0	994.4	NA	0.0000		9999	7910	0	0	0
2019/11/27 13:06:00	BASE	4.75	129	9.11	115	5.0	78	1.4	915	0	994.4	NA	0.0000		9999	7910	8330	0	0
2019/11/27 13:07:00	BASE	6.95	124	9.26	119	5.0	78	1.5	779	0	994.3	NA	0.0000		9999	8500	21290	0	0
2019/11/27 13:08:00	BASE	8.20	122	9.26	124	5.2	77	1.6	810	0	994.3	NA	0.0000		9999	8990	14600	0	0
2019/11/27 13:09:00	BASE	7.59	122	9.26	124	5.3	77	1.6	835	0	994.4	NA	0.0000		9999	14900	20740	0	0
2019/11/27 13:10:00	BASE	6.83	124	9.26	124	5.4	76	1.6	824	0	994.4	NA	0.0000		9999	0	0	0	0
2019/11/27 13:11:00	BASE	6.21	127	9.26	124	5.5	76	1.6	807	0	994.4	NA	0.0000		9999	0	0	0	0
2019/11/27 13:12:00	BASE	6.03	133	9.26	124	5.6	76	1.6	782	0	994.4	NA	0.0000		9999	0	0	0	0
2019/11/27 13:13:00	BASE	5.61	135	9.26	124	5.6	75	1.5	760	0	994.4	NA	0.0000		9999	0	0	0	0
2019/11/27 13:14:00	BASE	4.90	134	9.26	124	5.5	75	1.5	756	0	994.4	NA	0.0000		9999	0	0	0	0
2019/11/27 13:15:00	BASE	4.70	138	9.26	124	5.4	76	1.5	719	0	994.4	NA	0.0000		9999	0	0	0	0
2019/11/27 13:16:00	BASE	4.07	149	9.26	124	5.4	76	1.5	746	0	994.5	NA	0.0000		9999	0	0	0	0
2019/11/27 13:17:00	BASE	2.77	198	9.26	124	5.2	76	1.4	663	0	994.5	NA	0.0000		9999	0	0	0	0
2019/11/27 13:18:00	BASE	1.80	289	7.51	123	4.9	77	1.1	533	0	994.5	NA	0.0000		9999	0	0	0	0
2019/11/27 13:19:00	BASE	1.81	316	7.41	133	4.4	78	0.8	648	0	994.6	NA	0.0000		9999	0	0	0	0
2019/11/27 13:20:00	BASE	2.11	332	7.41	133	3.9	79	0.6	783	0	994.5	NA	0.0000		9999	0	0	0	0
2019/11/27 13:21:00	BASE	2.55	336	7.41	133	3.3	81	0.4	760	0	994.6	NA	0.0000		9999	0	0	0	0
2019/11/27 13:22:00	BASE	3.49	323	5.71	137	2.7	84	0.3	713	0	994.6	NA	0.0000		9999	0	0	0	0
2019/11/27 13:23:00	BASE	4.26	315	5.25	134	2.4	87	0.4	620	0	994.6	NA	0.0000		9999	0	0	0	0
2019/11/27 13:24:00	BASE	3.88	315	4.84	141	2.1	90	0.5	333	0	994.6	NA	0.0000		9999	0	0	0	0
2019/11/27 13:25:00	BASE	3.60	311	4.53	316	1.9	92	0.7	355	0	994.5	NA	0.0000		9999	13710	0	0	0
2019/11/27 13:26:00	BASE	3.50	308	4.68	308	1.7	94	0.8	718	0	994.5	NA	0.0000		9999	13710	21160	0	0
2019/11/27 13:27:00	BASE	3.27	306	4.68	308	1.5	96	1.0	553	0	994.4	NA	0.0000		9999	14110	0	0	0
2019/11/27 13:28:00	BASE	3.64	295	4.68	308	1.6	98	1.3	813	0	994.5	NA	0.0000		9999	16270	0	0	0
2019/11/27 13:29:00	BASE	3.61	283	4.68	308	1.5	99	1.4	845	0	994.6	NA	0.0000		9999	16270	0	0	0
2019/11/27 13:30:00	BASE	2.81	276	4.68	308	1.5	100	1.4	892	0	994.6	NA	0.0000		9999	17230	0	0	0
2019/11/27 13:31:00	BASE	2.24	287	4.68	308	1.5	100	1.5	754	0	994.6	NA	0.0000		9999	17000	0	0	0
2019/11/27 13:32:00	BASE	2.06	314	4.68	308	1.5	100	1.5	408	0	994.6	NA	0.0000		9999	19030	0	0	0
2019/11/27 13:33:00	BASE	1.98	326	4.68	308	1.4	100	1.4	395	0	994.6	NA	0.0000		9999	0	0	0	0
2019/11/27 13:34:00	BASE	1.87	308	4.68	308	1.3	100	1.3	851	0	994.6	NA	0.0000		9999	18930	0	0	0
2019/11/27 13:35:00	BASE	1.83	308	4.68	308	1.3	100	1.3	518	0	994.6	NA	0.0000		9999	0	0	0	0
2019/11/27 13:36:00	BASE	2.21	331	4.48	297	1.3	100	1.3	660	0	994.7	NA	0.0000		9999	16700	0	0	0
2019/11/27 13:37:00	BASE	3.17	336	4.68	336	1.2	100	1.2	832	0	994.7	NA	0.0000		9999	18730	0	0	0
2019/11/27 13:38:00	BASE	4.50	332	5.56	330	1.2	100	1.2	905	0	994.6	NA	0.0000		9999	18670	0	0	0
2019/11/27 13:39:00	BASE	5.55	335	6.38	342	1.2	100	1.2	592	0	994.6	NA	0.0000		9999	0	0	0	0
2019/11/27 13:40:00	BASE	6.09	341	6.38	341	1.3	100	1.3	458	0	994.6	NA	0.0000		9999	18470	0	0	0
2019/11/27 13:41:00	BASE	6.36	346	6.69	348	1.3	100	1.3	495	0	994.7	NA	0.0000		9999	7320	18540	0	0
2019/11/27 13:42:00	BASE	6.47	346	6.74	350	1.3	100	1.3	768	0	994.7	NA	0.0000		9999	7250	0	0	0
2019/11/27 13:43:00	BASE	6.12	345	6.74	350	1.3	100	1.3	839	0	994.7	NA	0.0000		9999	7250	0	0	0
2019/11/27 13:44:00	BASE	5.56	343	6.74	350	1.3	100	1.3	833	0	994.7	NA	0.0000		9999	7220	0	0	0
2019/11/27 13:45:00	BASE	5.05	346	6.74	350	1.2	100	1.2	758	0	994.7	NA	0.0000		9999	7220	0	0	0
2019/11/27 13:46:01	BASE	4.86	349	6.74	350	1.2	100	1.2	555	0	994.3	NA	0.0000		9999	8530	0	0	0
2019/11/27 13:47:00	BASE	4.59	350	6.74	350	1.1	100	1.1	578	0	994.7	NA	0.0000		9999	8530	0	0	0
2019/11/27 13:48:00	BASE	4.15	348	6.74	350	1.1	100	1.1	517	0	994.7	NA	0.0000		9999	8500	14530	0	0
2019/11/27 13:49:00	BASE	4.00	344	6.74	350	1.1	100	1.1	617	0	994.6	NA	0.0000		9999	9610	0	0	0
2019/11/27 13:50:00	BASE	3.88	345	6.74	350	1.1	100	1.1	511	0	994.4	NA	0.0000		9999	8370	22870	0	0
2019/11/27 13:51:00	BASE	3.90	349	6.74	350	1.1	100	1.1	554	0	994.7	NA	0.0000		9999	8400	8990	0	0
2019/11/27 13:52:00	BASE	4.03	347	6.28	345	1.2	100	1.2	560	0	994.7	NA	0.0000		9999	8270	17850	21360	0
2019/11/27 13:53:00	BASE	3.89	342	5.56	344	1.2	100	1.2	551	0	994.7	NA	0.0000		9999	8240	0	0	0
2019/11/27 13:54:00	BASE	4.02	341	6.02	337	1.3	100	1.3	704	0	994.7	NA	0.0000		9999	8170	22440	0	0
2019/11/27 13:55:00	BASE	5.15	338	6.28	339	1.4	100	1.4	913	0	994.7	NA	0.0000		9999	8200	0	0	0
2019/11/27 13:56:00	BASE	5.83	338	6.28	339	1.4	100	1.4	954	0	994.7	NA	0.0000		9999	8200	0	0	0
2019/11/27 13:57:00	BASE	5.89	339	6.43	340	1.5	100	1.5	996	0	994.3	NA	0.0000		9999	8040	0	0	0
2019/11/27 13:58:00	BASE	6.13	339	6.53	337	1.5	100	1.5	910	0	994.7	NA	0.0000		9999	8040	0	0	0
2019/11/27 13:59:00	BASE	6.15	340	6.53	337	1.5	100	1.5	616	0	994.8	NA	0.0000		9999	8010	0	0	0
2019/11/27 14:00:00	BASE	5.90	343	6.53	337	1.5	100	1.5	864	0	994.7	NA	0.0000		9999	7940	0	0	0
2019/11/27 14:01:00	BASE	5.48	342	6.53	337	1.5	100	1.5	854	0	994.4	NA	0.0000		9999	7910	0	0	0
2019/11/27 14:02:00	BASE	5.08	341	6.53	337	1.5	100	1.5	906	0	994.9	NA	0.0000		9999	7870	0	0	0
2019/11/27 14:03:00	BASE	5.22	340	6.53	337	1.5	100	1.5	997	0	994.9	NA	0.0000		9999	7840	0	0	0
2019/11/27 14:04:00	BASE	5.80	339	6.69	340	1.6	100	1.6	967	0	994.8	NA	0.0000		9999	7710	0	0	0
2019/11/27 14:05:00	BASE	5.92	339	6.74	343	1.6	100	1.6	814	0	994.8	NA	0.0000		9999	7810	0	0	0
2019/11/27 14:06:00	BASE	5.56	341	6.74	343	1.6	100	1.6	889	0	994.9	NA	0.0000		9999	7740	0	0	0
2019/11/27 14:07:00	BASE	5.73	342	6.74	338	1.7	100	1.7	493	0	995.0	NA	0.0000		9999	7710	0	0	0
2019/11/27 14:08:00	BASE	5.87	343	6.74	338	1.7	100	1.7	382	0	995.0	NA	0.0000		9999	7680	0	0	0
2019/11/27 14:09:00	BASE	5.38	345	6.74	338	1.8	100	1.8	286	0	995.1	NA	0.0000		9999	7610	0	0	0
2019/11/27 14:10:00	BASE	5.32	348	6.74	338	1.8	100	1.8	229	0	995.1	NA	0.0000		9999	4860	7640	0	0
2019/11/27 14:11:00	BASE	5.31	349	6.74	338	1.8	100	1.8	192	0	995.2	NA	0.0000		9999	4820	22640	0	0
2019/11/27 14:12:00	BASE	4.63	347	6.74	338	1.8	100	1.8	165	0	995.2	NA	0.0000		9999	4860	0	0	0
2019/11/27 14:13:00	BASE	4.06	347	6.74	338	1.8	100	1.8	149	0	995.3	NA	0.0000		9999	4820	0	0	0
2019/11/27 14:14:00	BASE	4.16	344	6.74	338	1.8	100	1.8	139	0	995.3	NA	0.0000		9999	4790	0	0	0
2019/11/27 14:15:00	BASE	4.12	337	6.74	338	1.7	100	1.7	133	0	995.3	NA	0.0000		9999	4820	0	0	0
2019/11/27 14:16:00	BASE	3.96	329	6.74	338	1.7	100	1.7	130	0	995.3	NA	0.0000		9999	4790	0	0	0
2019/11/27 14:17:00	BASE	4.34	323	6.38	341	1.6	100	1.6	129	0	995.3	NA	0.0000		9999	4720	0	0	0
2019/11/27 14:18:00	BASE	4.13	323	6.38	341	1.6	100	1.6	130	0	995.3	NA	0.0000		9999	4720	0	0	0
2019/11/27 14:19:00	BASE	3.26	325	5.81	347	1.5	100	1.5	129	0	995.3	NA	0.0000		9999	4790	0	0	0
2019/11/27 14:20:00	BASE	2.89	325	5.50	346	1.5	100	1.5	127	0	995.3	NA	0.0000		9999	4720	0	0	0
2019/11/27 14:21:00	BASE	2.32	319	5.30	343	1.4	100	1.4	125	0	995.3	NA	0.0000		9999	4790	0	0	0
2019/11/27 14:22:00	BASE	1.18	330	4.89	326	1.5	100	1.5	124	0	995.4	NA	0.0000		9999	4760	0	0	0
2019/11/27 14:23:00	BASE	0.75	340	4.89	326	1.5	100	1.5	125	0	995.4	NA	0.0000		9999	4690	0	0	0
2019/11/27 14:24:00	BASE	1.64	334	4.89	326	1.6	100	1.6	128	0	995.3	NA	0.0000		9999	4760	0	0	0
2019/11/27 14:25:00	BASE	2.53	337	4.89	326	1.7	100	1.7	133	0	995.4	NA	0.0000		9999	4790	0	0	0
2019/11/27 14:26:00	BASE	2.44	347	4.89	326	1.8	100	1.8	138	0	995.4	NA	0.0000		9999	4790	0	0	0
2019/11/27 14:27:00	BASE	1.47	345	4.37	325	1.9	100	1.9	144	0	995.4	NA	0.0000		9999	4760	0	0	0
2019/11/27 14:28:00	BASE	1.05	332	3.29	332	2.0	100	2.0	147	0	995.4	NA	0.0000		9999	4760	0	0	0
2019/11/27 14:29:00	BASE	1.03	340	3.29	332	2.1	100	2.1	149	0	995.4	NA	0.0000		9999	4760	0	0	0
2019/11/27 14:30:00	BASE	0.92	4	2.93	341	2.3	100	2.3	151	0	995.4	NA	0.0000		9999	4760	0	0	0
2019/11/27 14:31:00	BASE	0.81	356	2.93	341	2.5	100	2.5	154	0	995.4	NA	0.0000		9999	4760	0	0	0
2019/11/27 14:32:00	BASE	0.89	10	2.93	341	2.8	100	2.8	156	0	995.4	NA	0.0000		9999	4760	0	0	0
2019/11/27 14:33:00	BASE	2.08	37	3.70	31	3.3	100	3.3	156	0	995.4	NA	0.0000		9999	4790	0	0	0
2019/11/27 14:34:00	BASE	2.86	17	3.70	31	3.8	99	3.6	157	0	995.3	NA	0.0000		9999	4760	0	0	0
2019/11/27 14:35:00	BASE	2.78	356	3.70	31	4.0	97	3.6	157	0	995.4	NA	0.0000		9999	4760	0	0	0
2019/11/27 14:36:00	BASE	2.61	1	3.70	31	4.3	96	3.7	157	0	995.4	NA	0.0000		9999	4790	0	0	0
2019/11/27 14:37:00	BASE	2.87	355	4.01	326	4.4	93	3.4	156	0	995.5	NA	0.0000		9999	4790	0	0	0
2019/11/27 14:38:00	BASE	2.91	351	4.01	360	4.2	91	2.8	153	0	995.5	NA	0.0000		9999	4720	21520	0	0
2019/11/27 14:39:00	BASE	2.92	345	4.01	360	4.1	90	2.5	151	0	995.5	NA	0.0000		9999	4720	0	0	0
2019/11/27 14:40:00	BASE	3.14	348	4.01	360	3.9	89	2.2	148	0	995.5	NA	0.0000		9999	4720	0	0	0
2019/11/27 14:41:00	BASE	2.98	345	4.01	360	3.6	89	1.9	144	0	995.5	NA	0.0000		9999	4720	0	0	0
2019/11/27 14:42:00	BASE	2.92	335	4.01	360	3.3	89	1.6	141	0	995.6	NA	0.0000		9999	4630	23300	0	0
2019/11/27 14:43:00	BASE	2.98	339	4.01	360	3.1	90	1.6	141	0	995.7	NA	0.0000		9999	4660	0	0	0
2019/11/27 14:44:00	BASE	3.02	348	4.01	360	2.8	91	1.5	145	0	995.7	NA	0.0000		9999	4690	0	0	0
2019/11/27 14:45:00	BASE	2.92	350	4.01	360	2.7	92	1.6	150	0	995.7	NA	0.0000		9999	4690	0	0	0
2019/11/27 14:46:00	BASE	2.95	338	4.01	360	2.6	93	1.5	153	0	995.7	NA	0.0000		9999	4820	0	0	0
2019/11/27 14:47:00	BASE	2.92	329	4.01	360	2.5	94	1.6	151	0	995.7	NA	0.0000		9999	4790	0	0	0
2019/11/27 14:48:00	BASE	2.65	329	3.55	340	2.4	95	1.7	146	0	995.6	NA	0.0000		9999	4790	0	0	0
2019/11/27 14:49:00	BASE	2.68	321	3.45	326	2.2	96	1.6	140	0	995.8	NA	0.0000		9999	4860	0	0	0
2019/11/27 14:50:00	BASE	2.90	313	3.45	326	2.1	97	1.7	136	0	995.8	NA	0.0000		9999	4860	0	0	0
2019/11/27 14:51:00	BASE	2.92	316	3.45	326	2.1	97	1.7	132	0	995.8	NA	0.0000		9999	4890	0	0	0
2019/11/27 14:52:00	BASE	2.84	318	3.45	326	2.0	98	1.8	128	0	995.9	NA	0.0000		9999	4820	0	0	0
2019/11/27 14:53:00	BASE	3.04	312	3.65	304	2.0	99	1.9	125	0	995.9	NA	0.0000		9999	4820	0	0	0
2019/11/27 14:54:00	BASE	3.26	309	3.65	304	2.0	100	2.0	122	0	995.9	NA	0.0000		9999	4820	0	0	0
2019/11/27 14:55:00	BASE	3.25	309	3.65	304	2.0	100	2.0	121	0	995.9	NA	0.0000		9999	4790	0	0	0
2019/11/27 14:56:00	BASE	3.24	307	3.65	304	2.1	100	2.1	121	0	995.9	NA	0.0000		9999	4820	0	0	0
2019/11/27 14:57:00	BASE	3.26	305	3.65	304	2.1	100	2.1	122	0	995.9	NA	0.0000		9999	4790	0	0	0
2019/11/27 14:58:00	BASE	3.30	303	3.65	304	2.2	100	2.2	123	0	995.9	NA	0.0000		9999	4820	0	0	0
2019/11/27 14:59:00	BASE	3.48	304	3.86	307	2.2	100	2.2	123	0	995.9	NA	0.0000		9999	4860	0	0	0
2019/11/27 15:00:00	BASE	3.80	307	4.17	311	2.3	100	2.3	122	0	995.9	NA	0.0000		9999	4920	0	0	0
2019/11/27 15:01:00	BASE	3.97	311	4.17	311	2.3	100	2.3	123	0	996.0	NA	0.0000		9999	4920	0	0	0
2019/11/27 15:02:00	BASE	3.80	317	4.17	311	2.3	100	2.3	126	0	996.0	NA	0.0000		9999	4950	0	0	0
2019/11/27 15:03:00	BASE	3.76	317	4.17	311	2.2	100	2.2	132	0	996.0	NA	0.0000		9999	4950	0	0	0
2019/11/27 15:04:00	BASE	3.71	314	4.17	311	2.1	100	2.1	139	0	996.0	NA	0.0000		9999	4890	0	0	0
2019/11/27 15:05:00	BASE	3.32	319	4.17	311	2.1	100	2.1	147	0	996.0	NA	0.0000		9999	4920	0	0	0
2019/11/27 15:06:00	BASE	2.91	331	4.17	311	2.0	100	2.0	154	0	996.1	NA	0.0000		9999	4950	0	0	0
2019/11/27 15:07:00	BASE	2.68	338	4.17	311	2.0	100	2.0	156	0	996.1	NA	0.0000		9999	4950	0	0	0
2019/11/27 15:08:00	BASE	2.73	331	4.17	311	2.0	100	2.0	154	0	995.9	NA	0.0000		9999	4890	0	0	0
2019/11/27 15:09:00	BASE	3.02	321	4.48	321	2.0	100	2.0	147	0	996.3	NA	0.0000		9999	4950	0	0	0
2019/11/27 15:10:00	BASE	3.78	318	4.58	319	1.9	100	1.9	136	0	996.3	NA	0.0000		9999	4990	0	0	0
2019/11/27 15:11:00	BASE	4.39	323	4.78	330	1.8	100	1.8	125	0	996.3	NA	0.0000		9999	4990	0	0	0
2019/11/27 15:12:00	BASE	4.17	328	4.78	330	1.8	100	1.8	116	0	996.4	NA	0.0000		9999	4820	0	0	0
2019/11/27 15:13:00	BASE	3.57	338	4.78	330	1.8	100	1.8	113	0	996.5	NA	0.0000		9999	4820	0	0	0
2019/11/27 15:14:00	BASE	3.47	343	4.78	330	1.7	100	1.7	115	0	996.5	NA	0.0000		9999	4820	0	0	0
2019/11/27 15:15:00	BASE	4.12	338	4.78	335	1.8	100	1.8	118	0	996.5	NA	0.0000		9999	4860	0	0	0
2019/11/27 15:16:00	BASE	4.72	335	5.14	335	1.9	100	1.9	119	0	996.5	NA	0.0000		9999	4760	0	0	0
2019/11/27 15:17:00	BASE	4.97	337	5.14	336	1.9	100	1.9	118	0	996.3	NA	0.0000		9999	4860	0	0	0
2019/11/27 15:18:00	BASE	5.01	338	5.14	336	2.0	100	2.0	115	0	996.5	NA	0.0000		9999	4860	0	0	0
2019/11/27 15:19:00	BASE	5.01	339	5.25	340	2.0	100	2.0	110	0	996.5	NA	0.0000		9999	4950	0	0	0
2019/11/27 15:20:00	BASE	5.09	339	5.25	339	2.1	100	2.1	104	0	996.5	NA	0.0000		9999	4920	0	0	0
2019/11/27 15:21:00	BASE	5.08	339	5.25	339	2.1	100	2.1	100	0	996.6	NA	0.0000		9999	4660	0	0	0
2019/11/27 15:22:00	BASE	4.97	339	5.25	339	2.2	100	2.2	98	0	996.6	NA	0.0000		9999	4720	0	0	0
2019/11/27 15:23:00	BASE	5.07	341	5.56	342	2.2	100	2.2	99	0	996.6	NA	0.0000		9999	4660	0	0	0
2019/11/27 15:24:00	BASE	5.36	340	6.07	340	2.4	100	2.4	102	0	996.6	NA	0.0000		9999	4170	4690	0	0
2019/11/27 15:25:00	BASE	5.22	339	6.07	340	2.6	100	2.6	106	0	996.6	NA	0.0000		9999	4040	4660	21490	0
2019/11/27 15:26:00	BASE	4.60	338	6.07	340	2.8	100	2.8	111	0	996.6	NA	0.0000		9999	4890	0	0	0
2019/11/27 15:27:00	BASE	4.37	339	6.07	340	2.9	100	2.9	116	0	996.6	NA	0.0000		9999	5770	0	0	0
2019/11/27 15:28:00	BASE	4.58	341	6.07	340	3.1	100	3.1	119	0	996.6	NA	0.0000		9999	22870	0	0	0
2019/11/27 15:29:00	BASE	4.76	340	6.07	340	3.3	99	3.2	123	0	996.6	NA	0.0000		9999	19920	20900	0	0
2019/11/27 15:30:00	BASE	4.93	338	6.07	340	3.3	99	3.2	127	0	996.6	NA	0.0000		9999	5280	0	0	0
2019/11/27 15:31:00	BASE	5.08	337	6.07	340	3.4	98	3.2	133	0	996.7	NA	0.0000		9999	5120	0	0	0
2019/11/27 15:32:00	BASE	4.91	338	6.07	340	3.5	98	3.2	140	0	996.7	NA	0.0000		9999	0	0	0	1410
2019/11/27 15:33:00	BASE	4.68	338	6.07	340	3.6	97	3.2	149	0	996.7	NA	0.0000		9999	0	0	0	1350
2019/11/27 15:34:00	BASE	4.91	339	5.61	338	3.7	96	3.1	160	0	996.8	NA	0.0000		9999	0	0	0	1180
2019/11/27 15:35:00	BASE	5.12	343	5.61	341	3.7	95	3.0	173	0	996.8	NA	0.0000		9999	0	0	0	1020
2019/11/27 15:36:00	BASE	4.78	344	5.61	341	3.7	94	2.9	186	0	996.8	NA	0.0000		9999	0	0	0	720
2019/11/27 15:37:00	BASE	5.01	347	5.97	351	3.7	94	2.9	196	0	996.8	NA	0.0000		9999	4590	0	0	0
2019/11/27 15:38:00	BASE	5.49	351	6.12	347	3.8	94	2.9	205	0	996.8	NA	0.0000		9999	4530	0	0	0
2019/11/27 15:39:00	BASE	4.94	350	6.12	347	3.8	94	2.9	215	0	996.9	NA	0.0000		9999	4200	0	0	0
2019/11/27 15:40:00	BASE	4.64	349	6.12	347	3.8	93	2.9	225	0	996.8	NA	0.0000		9999	0	0	0	4790
2019/11/27 15:41:00	BASE	4.89	347	6.12	347	3.8	94	2.9	230	0	996.8	NA	0.0000		9999	22540	0	0	0
2019/11/27 15:42:00	BASE	5.01	347	6.12	347	3.9	94	2.9	231	0	996.8	NA	0.0000		9999	0	0	0	4170
2019/11/27 15:43:00	BASE	5.17	350	6.12	347	3.8	94	2.9	230	0	996.8	NA	0.0000		9999	0	0	0	4130
2019/11/27 15:44:00	BASE	4.96	350	6.12	347	3.8	94	2.9	229	0	996.8	NA	0.0000	UP	9999	0	0	0	4000
2019/11/27 15:45:00	BASE	4.76	352	6.12	347	3.8	94	2.9	230	0	996.8	NA	0.0000	UP	9999	0	0	0	4000
2019/11/27 15:46:00	BASE	4.80	350	6.12	347	3.8	94	2.9	232	0	996.8	NA	0.0000	UP	9999	15550	19360	0	0
2019/11/27 15:47:00	BASE	4.36	349	6.12	347	3.8	94	3.0	233	0	996.9	NA	0.0000	UP	9999	1840	0	0	0
2019/11/27 15:48:00	BASE	3.81	349	5.56	347	3.8	95	3.0	233	0	996.7	NA	0.0000	UP	9999	1840	0	0	0
2019/11/27 15:49:00	BASE	3.34	337	5.56	347	3.8	95	3.1	231	0	997.0	NA	0.0000	-RA	9999	1840	0	0	0
2019/11/27 15:50:00	BASE	3.03	326	5.45	352	3.7	96	3.1	230	0	997.0	NA	0.0000	-RA	9999	430	0	0	0
2019/11/27 15:51:00	BASE	2.92	316	5.45	352	3.7	96	3.1	230	0	997.1	NA	0.0000	-RA	9999	460	0	0	0
2019/11/27 15:52:00	BASE	2.47	307	5.45	352	3.5	97	3.0	232	0	997.1	NA	0.0000	-RA	9999	1740	0	0	0
2019/11/27 15:53:00	BASE	2.20	307	5.45	352	3.4	97	3.0	234	0	997.1	NA	0.0000	-RA	9999	0	0	0	4070
2019/11/27 15:54:00	BASE	2.42	312	5.45	352	3.3	98	3.0	232	0	997.1	NA	0.0000	-RA	9999	0	0	0	3970
2019/11/27 15:55:00	BASE	2.68	318	5.45	352	3.2	99	3.0	224	0	997.1	NA	0.0000	-RA	9999	430	0	0	0
2019/11/27 15:56:00	BASE	2.77	323	4.53	2	3.2	99	3.1	212	0	997.1	NA	0.0000	-RA	9999	0	0	0	3870
2019/11/27 15:57:00	BASE	2.68	321	4.01	354	3.2	100	3.2	199	0	997.2	NA	0.0000	-RA	9000	0	0	0	4720
2019/11/27 15:58:00	BASE	2.54	315	3.34	331	3.2	100	3.2	189	0	997.0	NA	0.0000	-RA BR	9000	0	0	0	4530
2019/11/27 15:59:00	BASE	2.40	301	3.19	321	3.3	100	3.3	183	0	997.2	NA	0.0000	-RA BR	9000	0	0	0	4430
2019/11/27 16:00:00	BASE	2.25	281	3.04	329	3.2	100	3.2	180	0	997.2	NA	0.0000	-RA BR	9000	0	0	0	4300
2019/11/27 16:01:00	BASE	2.27	275	3.04	329	3.1	100	3.1	179	0	997.2	NA	0.0000	-RA BR	9000	0	0	0	4200
2019/11/27 16:02:00	BASE	2.27	278	3.04	329	2.9	100	2.9	178	0	997.2	NA	0.0000	-RA BR	9000	0	0	0	3940
2019/11/27 16:03:00	BASE	2.28	275	3.04	329	2.8	100	2.8	173	0	997.2	NA	0.0000	-RA BR	9999	0	0	0	3870
2019/11/27 16:04:00	BASE	2.45	281	3.04	303	2.6	100	2.6	167	0	997.2	NA	0.0000	-RA BR	9999	0	0	0	3870
2019/11/27 16:05:00	BASE	2.76	290	3.24	293	2.6	100	2.6	162	0	997.2	NA	0.0000	-RA BR	9999	0	0	0	3770
2019/11/27 16:06:00	BASE	2.99	292	3.24	293	2.6	100	2.6	158	0	997.3	NA	0.0000	BR	9999	0	0	0	3670
2019/11/27 16:07:00	BASE	2.84	284	3.24	293	2.7	100	2.7	159	0	997.2	NA	0.0000	BR	9999	0	0	0	3580
2019/11/27 16:08:00	BASE	2.86	275	3.45	270	2.8	100	2.8	163	0	997.2	NA	0.0000	BR	9999	1670	0	0	0
2019/11/27 16:09:00	BASE	3.29	270	4.01	264	2.9	100	2.9	170	0	997.2	NA	0.0000	BR	9999	1610	22540	0	0
2019/11/27 16:10:00	BASE	3.77	271	4.42	276	2.9	100	2.9	175	0	997.1	NA	0.0000		9999	1640	0	0	0
2019/11/27 16:11:00	BASE	3.90	276	4.53	274	2.9	100	2.9	178	0	997.2	NA	0.0000		9999	1710	0	0	0
2019/11/27 16:12:00	BASE	3.84	278	4.53	274	2.8	100	2.8	181	0	997.2	NA	0.0000		9999	1710	0	0	0
2019/11/27 16:13:00	BASE	3.91	279	4.53	274	2.8	100	2.8	184	0	997.2	NA	0.0000		9999	0	0	0	3250
2019/11/27 16:14:00	BASE	3.72	282	4.53	274	2.8	100	2.8	188	0	997.2	NA	0.0000		9999	1710	0	0	0
2019/11/27 16:15:00	BASE	3.49	283	4.53	274	2.8	100	2.8	189	0	997.2	NA	0.0000	BR	9999	6560	0	0	0
2019/11/27 16:16:00	BASE	3.83	279	4.94	273	2.9	100	2.9	186	0	997.2	NA	0.0000	BR	9999	0	0	0	3310
2019/11/27 16:17:00	BASE	4.20	273	4.94	273	2.8	100	2.8	181	0	997.3	NA	0.0000	BR	9999	0	0	0	1250
2019/11/27 16:18:00	BASE	4.38	271	5.14	276	2.8	100	2.8	179	0	997.3	NA	0.0000	BR	9999	0	0	0	1020
2019/11/27 16:19:00	BASE	4.21	273	5.14	276	2.7	100	2.7	183	0	997.3	NA	0.0000		9999	4860	0	0	0
2019/11/27 16:20:00	BASE	4.09	274	5.14	276	2.6	100	2.6	193	0	997.3	NA	0.0000		9999	4660	0	0	0
2019/11/27 16:21:00	BASE	4.24	273	5.14	276	2.5	100	2.5	205	0	997.3	NA	0.0000		9999	1900	0	0	0
2019/11/27 16:22:00	BASE	4.16	273	5.14	276	2.3	100	2.3	217	0	997.3	NA	0.0000		9999	4070	0	0	0
2019/11/27 16:23:00	BASE	4.01	272	5.14	276	2.2	100	2.2	226	0	997.3	NA	0.0000		9999	3970	0	0	0
2019/11/27 16:24:00	BASE	3.74	272	5.14	276	2.1	100	2.1	233	0	997.4	NA	0.0000		9999	3670	0	0	0
2019/11/27 16:25:00	BASE	3.85	271	5.14	276	2.0	100	2.0	240	0	997.4	NA	0.0000		9999	0	0	0	660
2019/11/27 16:26:00	BASE	3.97	272	5.14	276	1.8	100	1.8	245	0	997.3	NA	0.0000		9999	0	0	0	5380
2019/11/27 16:27:00	BASE	3.78	276	5.14	276	1.7	100	1.7	249	0	997.4	NA	0.0000		9999	21980	0	0	0
2019/11/27 16:28:00	BASE	3.53	277	4.78	277	1.6	100	1.6	251	0	997.5	NA	0.0000		9999	0	0	0	1020
2019/11/27 16:29:00	BASE	3.24	279	4.78	277	1.6	100	1.6	250	0	997.5	NA	0.0000		9999	6990	0	0	0
2019/11/27 16:30:00	BASE	3.17	282	4.78	277	1.5	100	1.5	247	0	997.5	NA	0.0000		9999	6960	0	0	0
2019/11/27 16:31:00	BASE	2.91	288	4.78	277	1.5	100	1.5	244	0	997.6	NA	0.0000		9999	3120	0	0	0
2019/11/27 16:32:00	BASE	2.78	292	4.42	275	1.5	100	1.5	240	0	997.6	NA	0.0000		9999	3120	0	0	0
2019/11/27 16:33:00	BASE	2.81	294	4.42	275	1.5	100	1.5	238	0	997.6	NA	0.0000		9999	3280	0	0	0
2019/11/27 16:34:00	BASE	2.64	297	4.37	269	1.5	100	1.5	236	0	997.5	NA	0.0000		9999	6270	0	0	0
2019/11/27 16:35:00	BASE	2.59	298	4.32	276	1.5	100	1.5	233	0	997.6	NA	0.0000		9999	5640	0	0	0
2019/11/27 16:36:00	BASE	2.61	300	4.32	276	1.5	100	1.5	230	0	997.5	NA	0.0000		9999	5180	0	0	0
2019/11/27 16:37:00	BASE	2.55	298	4.22	277	1.5	100	1.5	231	0	997.5	NA	0.0000		9999	0	0	0	5380
2019/11/27 16:38:00	BASE	2.40	299	3.91	281	1.5	100	1.5	240	0	997.5	NA	0.0000		9999	0	0	0	1020
2019/11/27 16:39:00	BASE	2.25	304	3.91	281	1.4	100	1.4	257	0	997.5	NA	0.0000		9999	0	0	0	1120
2019/11/27 16:40:00	BASE	1.97	309	3.19	293	1.3	100	1.3	282	0	997.5	NA	0.0000		9000	0	0	0	1080
2019/11/27 16:41:00	BASE	1.23	320	3.19	293	1.3	100	1.3	314	0	997.5	NA	0.0000		9000	0	0	0	950
2019/11/27 16:42:00	BASE	0.67	324	3.09	300	1.2	100	1.2	350	0	997.5	NA	0.0000		9999	4890	0	0	0
2019/11/27 16:43:00	BASE	0.51	321	2.78	299	1.2	100	1.2	385	0	997.5	NA	0.0000		9999	4760	0	0	0
2019/11/27 16:44:00	BASE	0.18	318	2.78	299	1.2	100	1.2	413	0	997.5	NA	0.0000		9999	4590	0	0	0
2019/11/27 16:45:00	BASE	0.00	333	2.78	299	1.2	100	1.2	425	0	997.6	NA	0.0000		9999	0	0	0	820
2019/11/27 16:46:00	BASE	0.33	13	2.73	294	1.3	100	1.3	427	0	997.6	NA	0.0000		9999	0	0	0	4630
2019/11/27 16:47:00	BASE	1.14	24	2.57	303	1.4	100	1.4	421	0	997.5	NA	0.0000		9999	0	0	0	4690
2019/11/27 16:48:00	BASE	1.79	2	2.31	360	1.5	100	1.5	414	0	997.5	NA	0.0000		9999	0	0	0	4690
2019/11/27 16:49:00	BASE	1.86	348	2.31	360	1.5	100	1.5	401	0	997.5	NA	0.0000		9999	0	0	0	4330
2019/11/27 16:50:00	BASE	1.68	348	2.31	360	1.6	100	1.6	391	0	997.5	NA	0.0000		9999	20900	0	0	0
2019/11/27 16:51:00	BASE	1.53	346	2.31	360	1.6	100	1.6	386	0	997.6	NA	0.0000		9999	0	0	0	4990
2019/11/27 16:52:00	BASE	1.35	344	2.31	360	1.7	100	1.7	382	0	997.6	NA	0.0000		9999	0	0	0	5320
2019/11/27 16:53:00	BASE	0.94	349	2.31	360	1.7	100	1.7	379	0	997.6	NA	0.0000		9999	0	0	0	1310
2019/11/27 16:54:00	BASE	0.73	348	2.31	360	1.8	100	1.8	377	0	997.6	NA	0.0000		9999	0	0	0	1280
2019/11/27 16:55:00	BASE	0.90	338	2.31	360	1.8	100	1.8	375	0	997.6	NA	0.0000		9999	0	0	0	1350
2019/11/27 16:56:00	BASE	1.22	330	2.31	360	1.9	100	1.9	371	0	997.6	NA	0.0000		9999	0	0	0	1280
2019/11/27 16:57:00	BASE	1.37	332	2.26	348	1.9	100	1.9	365	0	997.6	NA	0.0000		9999	6230	0	0	0
2019/11/27 16:58:00	BASE	1.28	338	2.06	346	1.8	100	1.8	352	0	997.6	NA	0.0000		9999	6140	0	0	0
2019/11/27 16:59:00	BASE	1.37	348	1.85	352	1.9	100	1.9	331	0	997.7	NA	0.0000		9999	0	0	0	0
2019/11/27 17:00:00	BASE	1.38	354	1.75	355	1.9	100	1.9	305	0	997.7	NA	0.0000		9999	20010	0	0	0
2019/11/27 17:01:00	BASE	1.22	341	1.75	355	1.9	100	1.9	276	0	997.8	NA	0.0000		9999	5450	0	0	0
2019/11/27 17:02:00	BASE	1.32	326	1.75	320	1.9	100	1.9	250	0	997.8	NA	0.0000		9999	6200	0	0	0
2019/11/27 17:03:00	BASE	1.66	322	2.11	325	1.9	100	1.9	232	0	997.8	NA	0.0000		9999	4560	0	0	0
2019/11/27 17:04:00	BASE	1.93	324	2.26	324	1.8	100	1.8	224	0	997.8	NA	0.0000		9999	3050	0	0	0
2019/11/27 17:05:00	BASE	2.03	329	2.26	324	1.8	100	1.8	226	0	997.8	NA	0.0000		9999	4200	0	0	0
2019/11/27 17:06:00	BASE	2.21	329	2.62	320	1.7	100	1.7	233	0	997.8	NA	0.0000		9999	4230	0	0	0
2019/11/27 17:07:00	BASE	2.44	320	2.68	312	1.7	100	1.7	235	0	997.7	NA	0.0000		9999	4270	0	0	0
2019/11/27 17:08:00	BASE	2.64	313	2.93	313	1.6	100	1.6	230	0	997.8	NA	0.0000		9999	0	0	0	4400
2019/11/27 17:09:00	BASE	2.89	313	3.14	315	1.6	100	1.6	227	0	997.8	NA	0.0000		9999	0	0	0	4460
2019/11/27 17:10:00	BASE	2.91	316	3.14	315	1.5	100	1.5	235	0	997.6	NA	0.0000		9999	1870	0	0	0
2019/11/27 17:11:00	BASE	2.77	319	3.14	315	1.5	100	1.5	258	0	997.8	NA	0.0000		9999	1900	0	0	0
2019/11/27 17:12:00	BASE	2.66	323	3.14	315	1.5	100	1.5	283	0	997.8	NA	0.0000		9999	3150	0	0	0
2019/11/27 17:13:00	BASE	2.38	326	3.14	315	1.5	100	1.5	305	0	997.8	NA	0.0000		9999	0	0	0	1380
2019/11/27 17:14:00	BASE	2.25	323	3.14	315	1.6	100	1.6	321	0	997.8	NA	0.0000		9999	3180	0	0	0
2019/11/27 17:15:00	BASE	2.51	318	3.14	315	1.6	100	1.6	326	0	997.8	NA	0.0000		9999	0	0	0	4630
2019/11/27 17:16:00	BASE	2.81	316	3.14	315	1.6	100	1.6	322	0	997.8	NA	0.0000		9999	0	0	0	1250
2019/11/27 17:17:00	BASE	2.80	316	3.14	315	1.5	100	1.5	322	0	997.8	NA	0.0000		9999	0	0	0	1210
2019/11/27 17:18:00	BASE	2.64	311	3.14	315	1.4	100	1.4	320	0	997.8	NA	0.0000		9999	0	0	0	390
2019/11/27 17:19:00	BASE	2.38	302	3.09	317	1.4	100	1.4	314	0	997.8	NA	0.0000		9999	5320	0	0	0
2019/11/27 17:20:00	BASE	2.16	292	3.09	317	1.4	100	1.4	314	0	997.9	NA	0.0000		9999	5940	0	0	0
2019/11/27 17:21:00	BASE	1.97	285	3.09	317	1.3	100	1.3	307	0	997.9	NA	0.0000		9999	5810	0	0	0
2019/11/27 17:22:00	BASE	1.65	271	3.09	317	1.3	100	1.3	299	0	998.0	NA	0.0000		9999	460	5740	0	0
2019/11/27 17:23:00	BASE	1.92	264	3.65	276	1.3	100	1.3	290	0	998.0	NA	0.0000		9999	5610	0	0	0
2019/11/27 17:24:00	BASE	2.80	272	3.76	269	1.2	100	1.2	277	0	998.0	NA	0.0000		9999	390	0	0	0
2019/11/27 17:25:00	BASE	2.90	277	3.76	269	1.1	100	1.1	267	0	997.8	NA	0.0000		9999	390	5810	0	0
2019/11/27 17:26:00	BASE	2.28	288	3.76	269	1.0	100	1.0	262	0	998.0	NA	0.0000		9999	360	5740	0	0
2019/11/27 17:27:00	BASE	2.05	293	3.76	269	0.9	100	0.9	262	0	998.0	NA	0.0000		9999	5540	0	0	0
2019/11/27 17:28:00	BASE	2.08	291	3.76	269	0.9	100	0.9	264	0	997.9	NA	0.0000		9999	430	5610	0	0
2019/11/27 17:29:00	BASE	1.41	282	3.76	269	0.9	100	0.9	258	0	998.1	NA	0.0000		9999	330	5640	0	0
2019/11/27 17:30:00	BASE	1.05	257	3.76	269	0.9	100	0.9	241	0	998.1	NA	0.0000		9999	230	5640	0	0
2019/11/27 17:31:00	BASE	1.54	237	3.76	269	0.8	100	0.8	230	0	998.2	NA	0.0000		9999	260	0	0	0
2019/11/27 17:32:00	BASE	1.67	216	3.76	269	0.7	100	0.7	232	0	998.2	NA	0.0000		9999	230	0	0	0
2019/11/27 17:33:00	BASE	1.62	212	3.76	269	0.6	100	0.6	234	0	998.2	NA	0.0000		9999	230	0	0	0
2019/11/27 17:34:00	BASE	1.00	217	3.04	285	0.5	100	0.5	243	0	998.2	NA	0.0000		9999	230	5710	0	0
2019/11/27 17:35:00	BASE	0.52	213	2.62	287	0.4	100	0.4	243	0	998.2	NA	0.0000		9999	260	5710	0	0
2019/11/27 17:36:00	BASE	0.66	211	2.62	287	0.3	100	0.3	235	0	998.3	NA	0.0000		9999	5680	0	0	0
2019/11/27 17:37:00	BASE	1.04	201	2.62	287	0.2	100	0.2	221	0	998.1	NA	0.0000		9999	5840	0	0	0
2019/11/27 17:38:00	BASE	1.56	193	2.21	217	0.2	100	0.2	213	0	998.2	NA	0.0000		9999	230	690	0	0
2019/11/27 17:39:00	BASE	1.17	198	2.21	217	0.2	100	0.2	212	0	998.3	NA	0.0000		9999	230	5740	0	0
2019/11/27 17:40:00	BASE	0.33	198	2.21	217	0.2	100	0.2	213	0	998.3	NA	0.0000		9999	260	6000	0	0
2019/11/27 17:41:00	BASE	0.00	43	1.95	199	0.2	100	0.2	211	0	998.3	NA	0.0000		9999	230	5840	0	0
2019/11/27 17:42:00	BASE	0.00	66	1.90	193	0.3	100	0.3	203	0	998.4	NA	0.0000		9999	5640	0	0	0
2019/11/27 17:43:00	BASE	0.00	110	1.90	193	0.3	100	0.3	199	0	998.4	NA	0.0000		9999	230	850	0	0
2019/11/27 17:44:00	BASE	0.00	138	1.90	193	0.3	100	0.3	200	0	998.4	NA	0.0000		9999	230	0	0	0
2019/11/27 17:45:00	BASE	0.00	156	1.90	193	0.4	100	0.4	206	0	998.5	NA	0.0000		9999	260	0	0	0
2019/11/27 17:46:00	BASE	0.00	138	1.90	193	0.4	100	0.4	216	0	998.5	NA	0.0000		9999	260	0	0	0
2019/11/27 17:47:00	BASE	0.00	116	1.90	193	0.5	100	0.5	223	0	998.5	NA	0.0000		9999	260	0	0	0
2019/11/27 17:48:00	BASE	0.00	102	1.65	209	0.5	100	0.5	228	0	998.4	NA	0.0000		9999	230	0	0	0
2019/11/27 17:49:00	BASE	0.00	124	M	M	0.5	100	0.5	233	0	998.4	NA	0.0000		9999	230	0	0	0
2019/11/27 17:50:00	BASE	0.00	337	M	M	0.5	100	0.5	239	0	998.4	NA	0.0000		9999	230	0	0	0
2019/11/27 17:51:00	BASE	0.00	338	M	M	0.5	100	0.5	241	0	998.4	NA	0.0000		9999	260	0	0	0
2019/11/27 17:52:00	BASE	0.00	16	M	M	0.5	100	0.5	238	0	998.4	NA	0.0000		9999	300	0	0	0
2019/11/27 17:53:00	BASE	0.00	63	M	M	0.5	100	0.5	242	0	998.5	NA	0.0000		9999	300	0	0	0
2019/11/27 17:54:00	BASE	0.00	80	M	M	0.5	100	0.5	248	0	998.4	NA	0.0000		9999	260	0	0	0
2019/11/27 17:55:00	BASE	0.00	105	M	M	0.5	100	0.5	240	0	998.5	NA	0.0000		9999	300	0	0	0
2019/11/27 17:56:00	BASE	0.00	138	M	M	0.5	100	0.5	234	0	998.5	NA	0.0000		9999	300	0	0	0
2019/11/27 17:57:00	BASE	0.00	139	M	M	0.6	100	0.6	233	0	998.5	NA	0.0000		9999	300	0	0	0
2019/11/27 17:58:00	BASE	0.00	119	M	M	0.7	100	0.7	231	0	998.5	NA	0.0000		9999	300	0	0	0
2019/11/27 17:59:00	BASE	0.00	108	M	M	0.7	100	0.7	227	0	998.5	NA	0.0000		9999	330	750	0	0
2019/11/27 18:00:00	BASE	0.00	72	M	M	0.8	100	0.8	224	0	998.5	NA	0.0000		9999	330	0	0	0
2019/11/27 18:01:00	BASE	0.00	42	M	M	0.8	100	0.8	222	0	998.5	NA	0.0000		9999	330	0	0	0
2019/11/27 18:02:00	BASE	0.00	36	M	M	0.8	100	0.8	223	0	998.5	NA	0.0000		9999	330	0	0	0
2019/11/27 18:03:00	BASE	0.00	21	M	M	0.8	100	0.8	226	0	998.5	NA	0.0000		9999	330	0	0	0
2019/11/27 18:04:00	BASE	0.00	39	M	M	0.8	100	0.8	231	0	998.5	NA	0.0000		9999	330	21650	0	0
2019/11/27 18:05:00	BASE	0.00	59	M	M	0.8	100	0.8	235	0	998.4	NA	0.0000		9999	330	0	0	0
2019/11/27 18:06:00	BASE	0.00	106	M	M	0.8	100	0.8	230	0	998.5	NA	0.0000		9999	360	0	0	0
2019/11/27 18:07:00	BASE	0.00	151	M	M	0.9	100	0.9	221	0	998.5	NA	0.0000		9999	390	0	0	0
2019/11/27 18:08:00	BASE	0.00	148	M	M	0.9	100	0.9	220	0	998.5	NA	0.0000		9999	390	0	0	0
2019/11/27 18:09:00	BASE	0.00	140	M	M	1.0	100	1.0	221	0	998.5	NA	0.0000		9999	390	5640	0	0
2019/11/27 18:10:00	BASE	0.00	138	M	M	1.0	100	1.0	216	0	998.5	NA	0.0000		9999	660	5580	0	0
2019/11/27 18:11:00	BASE	0.22	138	1.13	133	1.0	100	1.0	211	0	998.5	NA	0.0000		9999	560	6140	0	0
2019/11/27 18:12:00	BASE	0.35	133	1.13	133	1.0	100	1.0	212	0	998.5	NA	0.0000		9999	460	0	0	0
2019/11/27 18:13:00	BASE	0.13	121	1.13	133	1.0	100	1.0	212	0	998.5	NA	0.0000		9999	620	0	0	0
2019/11/27 18:14:00	BASE	0.00	104	1.13	133	0.9	100	0.9	210	0	998.5	NA	0.0000		9999	590	0	0	0
2019/11/27 18:15:00	BASE	0.00	104	1.13	133	0.9	100	0.9	203	0	998.5	NA	0.0000		9999	460	0	0	0
2019/11/27 18:16:00	BASE	0.00	119	1.13	133	0.9	100	0.9	190	0	998.5	NA	0.0000		9999	430	0	0	0
2019/11/27 18:17:00	BASE	0.00	131	1.13	133	0.9	100	0.9	177	0	998.5	NA	0.0000		9999	430	0	0	0
2019/11/27 18:18:00	BASE	0.00	141	1.13	133	0.9	100	0.9	177	0	998.5	NA	0.0000		9999	390	0	0	0
2019/11/27 18:19:00	BASE	0.00	146	1.13	133	0.9	100	0.9	187	0	998.5	NA	0.0000		9999	390	0	0	0
2019/11/27 18:20:00	BASE	0.00	156	1.13	133	0.9	100	0.9	195	0	998.5	NA	0.0000		9999	390	0	0	0
2019/11/27 18:21:00	BASE	0.00	180	1.08	136	0.9	100	0.9	198	0	998.4	NA	0.0000		9999	390	5680	0	0
2019/11/27 18:22:00	BASE	0.00	195	M	M	0.9	100	0.9	195	0	998.4	NA	0.0000		9999	390	5640	0	0
2019/11/27 18:23:00	BASE	0.00	184	M	M	0.9	100	0.9	193	0	998.5	NA	0.0000		9999	430	5610	0	0
2019/11/27 18:24:00	BASE	0.00	162	M	M	0.9	100	0.9	200	0	998.3	NA	0.0000		9999	390	5680	0	0
2019/11/27 18:25:00	BASE	0.00	149	M	M	0.9	100	0.9	212	0	998.4	NA	0.0000		9999	390	5580	0	0
2019/11/27 18:26:00	BASE	0.00	145	M	M	0.9	100	0.9	217	0	998.4	NA	0.0000		9999	430	5680	0	0
2019/11/27 18:27:00	BASE	0.00	136	M	M	0.9	100	0.9	217	0	998.4	NA	0.0000		9999	430	5580	0	0
2019/11/27 18:28:00	BASE	0.00	113	M	M	1.0	100	1.0	216	0	998.4	NA	0.0000		9999	430	5610	0	0
2019/11/27 18:29:00	BASE	0.00	53	M	M	1.0	100	1.0	218	0	998.1	NA	0.0000		9999	430	0	0	0
2019/11/27 18:30:00	BASE	0.00	355	M	M	1.1	100	1.1	217	0	998.4	NA	0.0000		9999	430	0	0	0
2019/11/27 18:31:00	BASE	0.00	349	M	M	1.2	100	1.2	216	0	998.4	NA	0.0000		9999	430	0	0	0
2019/11/27 18:32:00	BASE	0.00	12	M	M	1.3	100	1.3	218	0	998.4	NA	0.0000		9999	460	23230	0	0
2019/11/27 18:33:00	BASE	0.00	37	M	M	1.3	100	1.3	220	0	998.4	NA	0.0000		9999	590	5510	0	0
2019/11/27 18:34:00	BASE	0.00	70	M	M	1.4	100	1.4	220	0	998.1	NA	0.0000		9999	590	5510	0	0
2019/11/27 18:35:00	BASE	0.00	131	M	M	1.4	100	1.4	223	0	998.3	NA	0.0000		9999	520	0	0	0
2019/11/27 18:36:00	BASE	0.00	159	M	M	1.4	100	1.4	227	0	998.4	NA	0.0000		9999	460	0	0	0
2019/11/27 18:37:00	BASE	0.00	162	M	M	1.4	100	1.4	220	0	998.4	NA	0.0000		9999	590	0	0	0
2019/11/27 18:38:00	BASE	0.00	163	M	M	1.3	100	1.3	207	0	998.4	NA	0.0000		9999	660	5610	0	0
2019/11/27 18:39:00	BASE	0.00	157	M	M	1.3	100	1.3	200	0	998.4	NA	0.0000		9999	660	0	0	0
2019/11/27 18:40:00	BASE	0.00	152	M	M	1.3	100	1.3	196	0	998.4	NA	0.0000		9999	620	0	0	0
2019/11/27 18:41:00	BASE	0.00	147	M	M	1.3	100	1.3	191	0	998.4	NA	0.0000		9999	620	5610	0	0
2019/11/27 18:42:00	BASE	0.00	143	M	M	1.3	100	1.3	186	0	998.4	NA	0.0000		9999	620	5540	0	0
2019/11/27 18:43:00	BASE	0.26	146	1.08	146	1.2	100	1.2	183	0	998.4	NA	0.0000		9999	690	5580	0	0
2019/11/27 18:44:00	BASE	0.67	145	1.18	142	1.2	100	1.2	184	0	998.4	NA	0.0000		9999	690	6140	0	0
2019/11/27 18:45:00	BASE	0.41	137	1.18	142	1.2	100	1.2	186	0	998.5	NA	0.0000		9999	620	0	0	0
2019/11/27 18:46:00	BASE	0.00	126	1.18	142	1.1	100	1.1	191	0	998.5	NA	0.0000		9999	620	0	0	0
2019/11/27 18:47:00	BASE	0.00	111	1.18	142	1.1	100	1.1	198	0	998.5	NA	0.0000		9999	620	6040	0	0
2019/11/27 18:48:00	BASE	0.00	99	1.18	142	1.2	100	1.2	204	0	998.5	NA	0.0000		9999	660	6040	0	0
2019/11/27 18:49:00	BASE	0.00	103	1.18	142	1.2	100	1.2	209	0	998.5	NA	0.0000		9999	690	6040	0	0
2019/11/27 18:50:00	BASE	0.00	125	1.18	142	1.2	100	1.2	212	0	998.5	NA	0.0000		9999	690	6070	0	0
2019/11/27 18:51:00	BASE	0.00	149	1.18	142	1.3	100	1.3	217	0	998.5	NA	0.0000		9999	660	0	0	0
2019/11/27 18:52:00	BASE	0.00	161	1.18	142	1.3	100	1.3	224	0	998.5	NA	0.0000		9999	620	0	0	0
2019/11/27 18:53:00	BASE	0.00	165	1.18	142	1.4	100	1.4	232	0	998.5	NA	0.0000		9999	620	0	0	0
2019/11/27 18:54:00	BASE	0.00	164	M	M	1.4	100	1.4	235	0	998.5	NA	0.0000		9999	690	6200	0	0
2019/11/27 18:55:00	BASE	0.00	156	M	M	1.5	100	1.5	235	0	998.5	NA	0.0000		9999	750	6200	0	0
2019/11/27 18:56:00	BASE	0.00	141	M	M	1.5	100	1.5	231	0	998.6	NA	0.0000		9999	750	6270	0	0
2019/11/27 18:57:00	BASE	0.00	116	M	M	1.5	100	1.5	223	0	998.6	NA	0.0000		9999	750	6200	0	0
2019/11/27 18:58:00	BASE	0.00	111	M	M	1.5	100	1.5	218	0	998.6	NA	0.0000		9999	750	6270	0	0
2019/11/27 18:59:00	BASE	0.00	169	M	M	1.6	100	1.6	213	0	998.6	NA	0.0000		9999	720	6200	0	0
2019/11/27 19:00:00	BASE	0.00	237	M	M	1.6	100	1.6	208	0	998.6	NA	0.0000		9999	690	6140	0	0
2019/11/27 19:01:00	BASE	0.00	281	M	M	1.7	100	1.7	201	0	998.6	NA	0.0000		9999	690	6170	0	0
2019/11/27 19:02:00	BASE	0.00	284	M	M	1.6	100	1.6	193	0	998.6	NA	0.0000		9999	690	0	0	0
2019/11/27 19:03:00	BASE	0.00	253	M	M	1.6	100	1.6	186	0	998.8	NA	0.0000		9999	690	0	0	0
2019/11/27 19:04:00	BASE	0.00	251	M	M	1.6	100	1.6	181	0	998.5	NA	0.0000		9999	660	0	0	0
2019/11/27 19:05:00	BASE	0.00	251	M	M	1.5	100	1.5	181	0	998.8	NA	0.0000		9999	660	0	0	0
2019/11/27 19:06:00	BASE	0.00	250	M	M	1.5	100	1.5	181	0	998.8	NA	0.0000		9999	660	0	0	0
2019/11/27 19:07:00	BASE	0.00	250	M	M	1.5	100	1.5	180	0	998.7	NA	0.0000		9999	660	0	0	0
2019/11/27 19:08:00	BASE	0.00	256	M	M	1.5	100	1.5	177	0	998.8	NA	0.0000		9999	690	0	0	0
2019/11/27 19:09:00	BASE	0.00	254	M	M	1.5	100	1.5	174	0	998.8	NA	0.0000		9999	660	0	0	0
2019/11/27 19:10:00	BASE	0.00	242	M	M	1.4	100	1.4	173	0	998.8	NA	0.0000		9999	560	0	0	0
2019/11/27 19:11:00	BASE	0.00	227	M	M	1.4	100	1.4	174	0	998.8	NA	0.0000		9999	660	0	0	0
2019/11/27 19:12:00	BASE	0.00	215	M	M	1.4	100	1.4	179	0	998.8	NA	0.0000		9999	520	0	0	0
2019/11/27 19:13:00	BASE	0.00	214	M	M	1.4	100	1.4	183	0	998.8	NA	0.0000		9999	560	0	0	0
2019/11/27 19:14:00	BASE	0.00	214	M	M	1.4	100	1.4	184	0	998.8	NA	0.0000		9999	660	0	0	0
2019/11/27 19:15:00	BASE	0.00	212	M	M	1.5	100	1.5	185	0	998.8	NA	0.0000		9999	660	0	0	0
2019/11/27 19:16:00	BASE	0.00	251	M	M	1.6	100	1.6	185	0	998.8	NA	0.0000		9999	560	0	0	0
2019/11/27 19:17:00	BASE	0.00	301	M	M	1.6	100	1.6	184	0	998.8	NA	0.0000		9999	520	0	0	0
2019/11/27 19:18:00	BASE	0.00	310	M	M	1.6	100	1.6	182	0	998.8	NA	0.0000		9999	520	0	0	0
2019/11/27 19:19:00	BASE	0.00	313	M	M	1.6	100	1.6	180	0	998.9	NA	0.0000		9999	520	0	0	0
2019/11/27 19:20:00	BASE	0.00	308	M	M	1.6	100	1.6	179	0	998.9	NA	0.0000		9999	490	0	0	0
2019/11/27 19:21:00	BASE	0.00	290	M	M	1.6	100	1.6	178	0	998.9	NA	0.0000		9999	520	0	0	0
2019/11/27 19:22:00	BASE	0.00	269	M	M	1.6	100	1.6	179	0	998.9	NA	0.0000		9999	560	0	0	0
2019/11/27 19:23:00	BASE	0.00	257	M	M	1.5	100	1.5	182	0	998.9	NA	0.0000		9999	690	0	0	0
2019/11/27 19:24:00	BASE	0.00	255	M	M	1.5	100	1.5	185	0	998.9	NA	0.0000		9999	660	0	0	0
2019/11/27 19:25:00	BASE	0.00	260	M	M	1.4	100	1.4	183	0	998.9	NA	0.0000		9999	690	21820	0	0
2019/11/27 19:26:00	BASE	0.00	270	M	M	1.4	100	1.4	180	0	998.5	NA	0.0000		9999	690	0	0	0
2019/11/27 19:27:00	BASE	0.00	290	M	M	1.4	100	1.4	179	0	998.7	NA	0.0000		9999	590	0	0	0
2019/11/27 19:28:00	BASE	0.00	309	M	M	1.5	100	1.5	178	0	998.9	NA	0.0000		9999	560	0	0	0
2019/11/27 19:29:00	BASE	0.09	320	1.08	322	1.6	100	1.6	177	0	999.0	NA	0.0000		9999	590	0	0	0
2019/11/27 19:30:00	BASE	0.09	318	1.08	322	1.6	100	1.6	175	0	999.0	NA	0.0000		9999	690	0	0	0
2019/11/27 19:31:00	BASE	0.09	311	1.08	322	1.7	100	1.7	174	0	999.0	NA	0.0000		9999	560	0	0	0
2019/11/27 19:32:00	BASE	0.17	310	1.08	311	1.7	100	1.7	172	0	999.0	NA	0.0000		9999	590	0	0	0
2019/11/27 19:33:00	BASE	0.47	312	1.34	308	1.6	100	1.6	168	0	999.1	NA	0.0000		9999	690	0	0	0
2019/11/27 19:34:00	BASE	0.94	313	1.34	308	1.6	100	1.6	163	0	999.1	NA	0.0000		9999	660	0	0	0
2019/11/27 19:35:00	BASE	0.98	311	1.34	308	1.5	100	1.5	158	0	999.1	NA	0.0000		9999	560	0	0	0
2019/11/27 19:36:00	BASE	0.47	312	1.34	308	1.5	100	1.5	155	0	999.1	NA	0.0000		9999	560	0	0	0
2019/11/27 19:37:00	BASE	0.22	316	1.34	308	1.5	100	1.5	156	0	999.1	NA	0.0000		9999	560	0	0	0
2019/11/27 19:38:00	BASE	0.52	317	1.34	308	1.5	100	1.5	158	0	999.1	NA	0.0000		9999	560	0	0	0
2019/11/27 19:39:00	BASE	0.81	320	1.34	308	1.5	100	1.5	160	0	999.1	NA	0.0000		9999	590	0	0	0
2019/11/27 19:40:00	BASE	0.92	324	1.39	319	1.5	100	1.5	162	0	999.1	NA	0.0000		9999	560	0	0	0
2019/11/27 19:41:00	BASE	1.18	326	1.65	331	1.4	100	1.4	166	0	998.9	NA	0.0000		9999	590	0	0	0
2019/11/27 19:42:00	BASE	1.44	327	1.65	331	1.4	100	1.4	172	0	999.0	NA	0.0000		9999	620	0	0	0
2019/11/27 19:43:00	BASE	1.38	331	1.65	329	1.4	100	1.4	179	0	999.0	NA	0.0000		9999	590	0	0	0
2019/11/27 19:44:00	BASE	1.15	342	1.65	329	1.3	100	1.3	186	0	999.0	NA	0.0000		9999	560	0	0	0
2019/11/27 19:45:00	BASE	1.11	344	1.65	329	1.3	100	1.3	192	0	999.0	NA	0.0000		9999	560	0	0	0
2019/11/27 19:46:00	BASE	1.38	340	1.70	339	1.2	100	1.2	196	0	999.0	NA	0.0000		9999	560	0	0	0
2019/11/27 19:47:00	BASE	1.46	341	1.70	339	1.2	100	1.2	196	0	999.0	NA	0.0000		9999	520	0	0	0
2019/11/27 19:48:00	BASE	1.35	340	1.70	339	1.2	100	1.2	193	0	999.0	NA	0.0000		9999	560	0	0	0
2019/11/27 19:49:00	BASE	1.07	339	1.70	339	1.1	100	1.1	189	0	999.0	NA	0.0000		9999	590	0	0	0
2019/11/27 19:50:00	BASE	0.66	337	1.70	339	1.1	100	1.1	187	0	999.0	NA	0.0000		9999	660	0	0	0
2019/11/27 19:51:00	BASE	0.45	330	1.70	339	1.2	100	1.2	188	0	999.0	NA	0.0000		9999	620	0	0	0
2019/11/27 19:52:00	BASE	0.45	323	1.70	339	1.2	100	1.2	189	0	999.0	NA	0.0000		9999	620	23100	0	0
2019/11/27 19:53:00	BASE	0.22	320	1.70	339	1.2	100	1.2	189	0	999.0	NA	0.0000		9999	620	0	0	0
2019/11/27 19:54:00	BASE	0.00	331	1.70	339	1.3	100	1.3	189	0	999.0	NA	0.0000		9999	620	0	0	0
2019/11/27 19:55:00	BASE	0.00	346	1.70	339	1.3	100	1.3	188	0	999.0	NA	0.0000		9999	660	0	0	0
2019/11/27 19:56:00	BASE	0.00	359	1.59	345	1.2	100	1.2	190	0	998.7	NA	0.0000		9999	620	0	0	0
2019/11/27 19:57:00	BASE	0.00	7	1.39	340	1.3	100	1.3	194	0	999.0	NA	0.0000		9999	660	0	0	0
2019/11/27 19:58:00	BASE	0.00	3	1.18	341	1.3	100	1.3	196	0	999.0	NA	0.0000		9999	620	0	0	0
2019/11/27 19:59:00	BASE	0.00	16	1.13	326	1.4	100	1.4	196	0	999.0	NA	0.0000		9999	660	0	0	0
2019/11/27 20:00:00	BASE	0.00	34	1.13	326	1.5	100	1.5	195	0	999.0	NA	0.0000		9999	660	0	0	0
2019/11/27 20:01:00	BASE	0.00	36	1.08	319	1.5	100	1.5	195	0	999.0	NA	0.0000		9999	620	0	0	0
2019/11/27 20:02:00	BASE	0.04	40	1.03	60	1.5	100	1.5	196	0	999.0	NA	0.0000		9999	660	6860	0	0
2019/11/27 20:03:00	BASE	0.04	54	1.03	60	1.5	100	1.5	197	0	999.0	NA	0.0000		9999	620	6820	0	0
2019/11/27 20:04:00	BASE	0.00	74	1.03	60	1.5	100	1.5	199	0	998.9	NA	0.0000		9999	660	6820	0	0
2019/11/27 20:05:00	BASE	0.09	100	1.08	125	1.5	100	1.5	201	0	998.9	NA	0.0000		9999	660	6890	0	0
2019/11/27 20:06:00	BASE	0.31	116	1.08	108	1.5	100	1.5	201	0	998.9	NA	0.0000		9999	690	6820	0	0
2019/11/27 20:07:00	BASE	0.22	116	1.08	108	1.5	100	1.5	199	0	998.9	NA	0.0000		9999	660	6860	0	0
2019/11/27 20:08:00	BASE	0.00	116	1.08	108	1.5	100	1.5	196	0	999.0	NA	0.0000		9999	660	6820	0	0
2019/11/27 20:09:00	BASE	0.00	114	1.08	108	1.5	100	1.5	192	0	999.0	NA	0.0000		9999	720	6920	0	0
2019/11/27 20:10:00	BASE	0.00	103	1.08	108	1.5	100	1.5	192	0	999.0	NA	0.0000		9999	690	7870	0	0
2019/11/27 20:11:00	BASE	0.09	88	1.08	108	1.5	100	1.5	193	0	998.8	NA	0.0000		9999	7840	0	0	0
2019/11/27 20:12:00	BASE	0.27	85	1.13	81	1.4	100	1.4	195	0	998.9	NA	0.0000		9999	6890	0	0	0
2019/11/27 20:13:00	BASE	0.36	86	1.13	81	1.4	100	1.4	196	0	999.0	NA	0.0000		9999	6860	0	0	0
2019/11/27 20:14:00	BASE	0.17	91	1.13	81	1.5	100	1.5	198	0	999.0	NA	0.0000		9999	6820	0	0	0
2019/11/27 20:15:00	BASE	0.00	97	1.13	81	1.5	100	1.5	202	0	998.9	NA	0.0000		9999	6890	0	0	0
2019/11/27 20:16:00	BASE	0.00	96	1.13	81	1.6	100	1.6	206	0	999.0	NA	0.0000		9999	6890	0	0	0
2019/11/27 20:17:00	BASE	0.00	94	1.13	81	1.7	100	1.7	208	0	999.0	NA	0.0000		9999	6820	8010	22670	0
2019/11/27 20:18:00	BASE	0.00	92	1.13	81	1.8	100	1.8	208	0	999.0	NA	0.0000		9999	6890	7910	0	0
2019/11/27 20:19:00	BASE	0.00	95	1.13	81	1.9	100	1.9	207	0	999.1	NA	0.0000		9999	6890	7870	0	0
2019/11/27 20:20:00	BASE	0.04	99	1.13	81	1.9	100	1.9	202	0	999.1	NA	0.0000		9999	790	7870	0	0
2019/11/27 20:21:00	BASE	0.45	97	1.13	102	2.0	100	2.0	199	0	999.1	NA	0.0000		9999	750	7810	0	0
2019/11/27 20:22:00	BASE	0.49	97	1.13	102	2.0	100	2.0	197	0	999.1	NA	0.0000		9999	7840	0	0	0
2019/11/27 20:23:00	BASE	0.09	91	1.13	102	2.0	100	2.0	195	0	999.1	NA	0.0000		9999	6920	7940	0	0
2019/11/27 20:24:00	BASE	0.00	75	1.13	102	2.0	100	2.0	192	0	999.1	NA	0.0000		9999	6430	6860	0	0
2019/11/27 20:25:00	BASE	0.10	61	1.23	51	2.0	100	2.0	190	0	999.1	NA	0.0000		9999	6430	0	0	0
2019/11/27 20:26:00	BASE	0.84	52	1.80	39	2.1	100	2.1	189	0	999.1	NA	0.0000		9999	850	6430	0	0
2019/11/27 20:27:00	BASE	1.62	45	1.90	39	2.1	100	2.1	186	0	999.1	NA	0.0000		9999	820	6530	0	0
2019/11/27 20:28:00	BASE	1.72	47	1.90	47	2.2	100	2.2	185	0	999.1	NA	0.0000		9999	790	0	0	0
2019/11/27 20:29:00	BASE	1.71	53	2.06	48	2.2	100	2.2	185	0	999.1	NA	0.0000		9999	790	0	0	0
2019/11/27 20:30:00	BASE	1.68	53	2.06	48	2.2	100	2.2	187	0	999.1	NA	0.0000		9999	820	6920	0	0
2019/11/27 20:31:00	BASE	1.49	51	2.06	48	2.2	100	2.2	189	0	999.1	NA	0.0000		9999	790	6820	0	0
2019/11/27 20:32:00	BASE	1.14	49	2.06	48	2.1	100	2.1	192	0	999.1	NA	0.0000		9999	820	6860	0	0
2019/11/27 20:33:00	BASE	0.56	51	2.06	48	2.0	100	2.0	193	0	999.1	NA	0.0000		9999	820	6890	0	0
2019/11/27 20:34:00	BASE	0.13	46	2.06	48	1.8	100	1.8	193	0	999.1	NA	0.0000		9999	6890	8330	0	0
2019/11/27 20:35:00	BASE	0.05	28	2.06	48	1.7	100	1.7	195	0	999.1	NA	0.0000		9999	6860	8600	21820	0
2019/11/27 20:36:00	BASE	0.09	21	2.06	48	1.6	100	1.6	194	0	999.1	NA	0.0000		9999	820	6960	0	0
2019/11/27 20:37:00	BASE	0.14	29	2.06	48	1.5	100	1.5	193	0	999.1	NA	0.0000		9999	820	0	0	0
2019/11/27 20:38:00	BASE	0.04	30	2.06	48	1.5	100	1.5	192	0	999.1	NA	0.0000		9999	790	8830	0	0
2019/11/27 20:39:00	BASE	0.00	27	1.75	51	1.5	100	1.5	196	0	999.1	NA	0.0000		9999	790	8860	0	0
2019/11/27 20:40:00	BASE	0.00	21	1.75	51	1.5	100	1.5	197	0	999.1	NA	0.0000		9999	790	8860	0	0
2019/11/27 20:41:00	BASE	0.00	19	1.18	17	1.6	100	1.6	193	0	999.1	NA	0.0000		9999	8830	0	0	0
2019/11/27 20:42:00	BASE	0.00	28	1.18	17	1.7	100	1.7	188	0	999.1	NA	0.0000		9999	8790	0	0	0
2019/11/27 20:43:00	BASE	0.00	38	1.18	17	1.8	100	1.8	185	0	999.1	NA	0.0000		9999	8630	0	0	0
2019/11/27 20:44:00	BASE	0.00	47	1.18	17	1.9	100	1.9	186	0	999.2	NA	0.0000		9999	8630	0	0	0
2019/11/27 20:45:00	BASE	0.00	54	1.18	17	2.0	100	2.0	188	0	999.2	NA	0.0000		9999	8690	0	0	0
2019/11/27 20:46:00	BASE	0.00	55	1.03	35	2.1	100	2.1	192	0	999.1	NA	0.0000		9999	720	8660	0	0
2019/11/27 20:47:00	BASE	0.00	47	M	M	2.1	100	2.1	195	0	999.1	NA	0.0000		9999	690	7640	0	0
2019/11/27 20:48:00	BASE	0.00	50	M	M	2.1	100	2.1	195	0	999.1	NA	0.0000		9999	720	7610	0	0
2019/11/27 20:49:00	BASE	0.00	55	M	M	2.1	100	2.1	195	0	999.1	NA	0.0000		9999	8600	0	0	0
2019/11/27 20:50:00	BASE	0.00	62	M	M	2.1	100	2.1	196	0	999.1	NA	0.0000		9999	8630	0	0	0
2019/11/27 20:51:00	BASE	0.00	30	M	M	2.1	100	2.1	197	0	999.1	NA	0.0000		9999	8920	0	0	0
2019/11/27 20:52:00	BASE	0.00	64	M	M	2.1	100	2.1	197	0	999.1	NA	0.0000		9999	7050	9350	0	0
2019/11/27 20:53:00	BASE	0.00	106	M	M	2.1	100	2.1	198	0	999.1	NA	0.0000		9999	9420	0	0	0
2019/11/27 20:54:00	BASE	0.00	106	M	M	2.1	100	2.1	198	0	999.1	NA	0.0000		9999	9320	0	0	0
2019/11/27 20:55:00	BASE	0.00	105	M	M	2.0	100	2.0	198	0	999.1	NA	0.0000		9999	9290	0	0	0
2019/11/27 20:56:00	BASE	0.00	109	M	M	2.1	100	2.1	195	0	999.1	NA	0.0000		9999	6990	9350	0	0
2019/11/27 20:57:00	BASE	0.00	126	M	M	2.1	100	2.1	192	0	999.1	NA	0.0000		9999	7020	9250	0	0
2019/11/27 20:58:00	BASE	0.04	141	1.03	152	2.1	100	2.1	190	0	999.1	NA	0.0000		9999	8860	0	0	0
2019/11/27 20:59:00	BASE	0.18	147	1.08	148	2.1	100	2.1	188	0	999.1	NA	0.0000		9999	7090	9020	0	0
2019/11/27 21:00:00	BASE	0.55	149	1.29	152	2.0	100	2.0	185	0	999.2	NA	0.0000		9999	8760	0	0	0
2019/11/27 21:01:00	BASE	0.87	154	1.29	152	2.0	100	2.0	181	0	999.2	NA	0.0000		9999	8790	0	0	0
2019/11/27 21:02:00	BASE	0.67	158	1.29	152	2.0	100	2.0	177	0	999.2	NA	0.0000		9999	8760	0	0	0
2019/11/27 21:03:00	BASE	0.22	161	1.29	152	2.0	100	2.0	174	0	999.2	NA	0.0000		9999	8890	9580	0	0
2019/11/27 21:04:00	BASE	0.09	170	1.29	152	2.0	100	2.0	173	0	999.2	NA	0.0000		9999	9550	0	0	0
2019/11/27 21:05:00	BASE	0.09	176	1.29	152	2.0	100	2.0	172	0	999.2	NA	0.0000		9999	9450	0	0	0
2019/11/27 21:06:00	BASE	0.42	172	1.29	152	2.0	100	2.0	170	0	999.2	NA	0.0000		9999	9510	0	0	0
2019/11/27 21:07:00	BASE	1.05	164	1.39	155	2.0	100	2.0	169	0	999.4	NA	0.0000		9999	9450	0	0	0
2019/11/27 21:08:00	BASE	1.27	159	1.39	159	2.0	100	2.0	170	0	999.3	NA	0.0000		9999	9510	0	0	0
2019/11/27 21:09:00	BASE	1.30	161	1.44	161	2.0	100	2.0	174	0	999.2	NA	0.0000		9999	8730	0	0	0
2019/11/27 21:10:00	BASE	1.30	159	1.44	155	2.0	100	2.0	178	0	999.2	NA	0.0000		9999	8690	0	0	0
2019/11/27 21:11:00	BASE	1.18	161	1.44	155	1.9	100	1.9	178	0	999.2	NA	0.0000		9999	8730	0	0	0
2019/11/27 21:12:00	BASE	0.95	165	1.44	155	1.9	100	1.9	173	0	999.3	NA	0.0000		9999	7640	0	0	0
2019/11/27 21:13:00	BASE	0.76	169	1.44	155	1.9	100	1.9	170	0	999.4	NA	0.0000		9999	7550	0	0	0
2019/11/27 21:14:00	BASE	0.73	175	1.44	155	1.9	100	1.9	168	0	999.4	NA	0.0000		9999	7120	0	0	0
2019/11/27 21:15:00	BASE	0.84	177	1.44	155	1.9	100	1.9	165	0	999.4	NA	0.0000		9999	6630	0	0	0
2019/11/27 21:16:00	BASE	1.07	178	1.44	155	1.9	100	1.9	163	0	999.4	NA	0.0000		9999	6790	0	0	0
2019/11/27 21:17:00	BASE	1.22	180	1.44	155	1.9	100	1.9	163	0	999.5	NA	0.0000		9999	6790	7320	0	0
2019/11/27 21:18:00	BASE	1.26	180	1.44	183	1.9	100	1.9	164	0	999.5	NA	0.0000		9999	7250	0	0	0
2019/11/27 21:19:00	BASE	0.87	179	1.44	183	1.9	100	1.9	165	0	999.5	NA	0.0000		9999	7280	0	0	0
2019/11/27 21:20:00	BASE	0.31	179	1.44	183	1.9	100	1.9	165	0	999.5	NA	0.0000		9999	7250	0	0	0
2019/11/27 21:21:00	BASE	0.13	182	1.44	183	1.9	100	1.9	165	0	999.5	NA	0.0000		9999	7320	9420	0	0
2019/11/27 21:22:00	BASE	0.31	185	1.44	183	1.9	100	1.9	166	0	999.5	NA	0.0000		9999	9380	0	0	0
2019/11/27 21:23:00	BASE	0.74	184	1.44	183	1.9	100	1.9	168	0	999.5	NA	0.0000		9999	7220	9220	0	0
2019/11/27 21:24:00	BASE	0.70	187	1.44	183	1.9	100	1.9	169	0	999.6	NA	0.0000		9999	7220	0	0	0
2019/11/27 21:25:00	BASE	0.68	188	1.44	183	1.8	100	1.8	168	0	999.5	NA	0.0000		9999	7190	0	0	0
2019/11/27 21:26:00	BASE	0.44	190	1.44	183	1.8	100	1.8	167	0	999.4	NA	0.0000		9999	7150	0	0	0
2019/11/27 21:27:00	BASE	0.00	194	1.44	183	1.8	100	1.8	165	0	999.6	NA	0.0000		9999	7150	0	0	0
2019/11/27 21:28:00	BASE	0.00	195	1.29	188	1.8	100	1.8	163	0	999.6	NA	0.0000		9999	7190	0	0	0
2019/11/27 21:29:00	BASE	0.00	189	1.29	188	1.8	100	1.8	161	0	999.6	NA	0.0000		9999	7220	0	0	0
2019/11/27 21:30:00	BASE	0.00	180	1.29	188	1.8	100	1.8	161	0	999.6	NA	0.0000		9999	6590	7150	0	0
2019/11/27 21:31:00	BASE	0.00	174	1.29	188	1.8	100	1.8	161	0	999.7	NA	0.0000		9999	6590	0	0	0
2019/11/27 21:32:00	BASE	0.00	170	1.29	188	1.8	100	1.8	161	0	999.7	NA	0.0000		9999	7120	0	0	0
2019/11/27 21:33:00	BASE	0.00	172	1.18	188	1.8	100	1.8	162	0	999.4	NA	0.0000		9999	6560	7150	20280	0
2019/11/27 21:34:00	BASE	0.00	169	1.08	183	1.9	100	1.9	163	0	999.7	NA	0.0000		9999	6530	0	0	0
2019/11/27 21:35:00	BASE	0.00	168	M	M	1.9	100	1.9	165	0	999.7	NA	0.0000		9999	6590	0	0	0
2019/11/27 21:36:00	BASE	0.00	167	M	M	2.0	100	2.0	167	0	999.7	NA	0.0000		9999	6530	0	0	0
2019/11/27 21:37:00	BASE	0.00	163	M	M	2.0	100	2.0	168	0	999.7	NA	0.0000		9999	6560	8600	20930	0
2019/11/27 21:38:00	BASE	0.04	152	1.03	162	2.0	100	2.0	168	0	999.7	NA	0.0000		9999	6500	8600	0	0
2019/11/27 21:39:00	BASE	0.04	140	1.03	162	2.0	100	2.0	168	0	999.7	NA	0.0000		9999	6530	8730	0	0
2019/11/27 21:40:00	BASE	0.00	124	1.03	162	2.0	100	2.0	165	0	999.7	NA	0.0000		9999	6590	8790	0	0
2019/11/27 21:41:00	BASE	0.00	110	1.03	162	2.0	100	2.0	162	0	999.7	NA	0.0000		9999	6530	0	0	0
2019/11/27 21:42:00	BASE	0.00	101	1.03	162	2.1	100	2.1	159	0	999.7	NA	0.0000		9999	6560	0	0	0
2019/11/27 21:43:00	BASE	0.00	85	1.03	162	2.1	100	2.1	156	0	999.7	NA	0.0000		9999	6560	7220	0	0
2019/11/27 21:44:00	BASE	0.19	84	1.18	96	2.0	100	2.0	155	0	999.7	NA	0.0000		9999	6760	0	0	0
2019/11/27 21:45:00	BASE	0.52	87	1.29	84	2.0	100	2.0	154	0	999.7	NA	0.0000		9999	6590	0	0	0
2019/11/27 21:46:00	BASE	0.34	90	1.29	84	2.0	100	2.0	151	0	999.7	NA	0.0000		9999	6630	8920	0	0
2019/11/27 21:47:00	BASE	0.04	94	1.29	84	2.0	100	2.0	148	0	999.7	NA	0.0000		9999	6530	0	0	0
2019/11/27 21:48:00	BASE	0.51	90	1.29	84	1.9	100	1.9	144	0	999.7	NA	0.0000		9999	6300	0	0	0
2019/11/27 21:49:00	BASE	0.75	84	1.29	83	1.9	100	1.9	141	0	999.7	NA	0.0000		9999	6270	0	0	0
2019/11/27 21:50:00	BASE	0.72	72	1.29	76	1.9	100	1.9	138	0	999.8	NA	0.0000		9999	6500	0	0	0
2019/11/27 21:51:00	BASE	1.29	61	1.90	62	2.0	100	2.0	136	0	999.8	NA	0.0000		9999	6560	18080	0	0
2019/11/27 21:52:00	BASE	1.66	61	1.90	62	2.0	100	2.0	133	0	999.8	NA	0.0000		9999	6560	0	0	0
2019/11/27 21:53:00	BASE	1.56	64	1.90	62	2.0	100	2.0	131	0	999.8	NA	0.0000		9999	6530	0	0	0
2019/11/27 21:54:00	BASE	1.30	68	1.90	62	2.0	100	2.0	130	0	999.8	NA	0.0000		9999	6500	0	0	0
2019/11/27 21:55:00	BASE	0.63	74	1.90	62	2.0	100	2.0	129	0	999.8	NA	0.0000		9999	6500	0	0	0
2019/11/27 21:56:00	BASE	0.57	85	1.90	62	1.9	100	1.9	129	0	999.8	NA	0.0000		9999	6370	0	0	0
2019/11/27 21:57:00	BASE	0.71	93	1.90	62	1.9	100	1.9	129	0	999.8	NA	0.0000		9999	6370	0	0	0
2019/11/27 21:58:00	BASE	0.51	101	1.90	62	1.9	100	1.9	130	0	999.8	NA	0.0000		9999	6400	0	0	0
2019/11/27 21:59:00	BASE	0.84	113	1.90	62	1.9	100	1.9	130	0	999.8	NA	0.0000		9999	6430	0	0	0
2019/11/27 22:00:00	BASE	1.24	125	1.90	62	1.9	100	1.9	131	0	999.8	NA	0.0000		9999	6430	0	0	0
2019/11/27 22:01:00	BASE	1.57	136	1.95	141	1.9	100	1.9	130	0	999.8	NA	0.0000		9999	6500	0	0	0
2019/11/27 22:02:00	BASE	1.76	140	1.95	141	1.9	100	1.9	129	0	999.8	NA	0.0000		9999	6690	8790	0	0
2019/11/27 22:03:00	BASE	1.80	141	2.01	145	1.9	100	1.9	128	0	999.8	NA	0.0000		9999	6630	0	0	0
2019/11/27 22:04:00	BASE	1.80	147	2.01	148	2.0	100	2.0	127	0	999.8	NA	0.0000		9999	6660	0	0	0
2019/11/27 22:05:00	BASE	1.66	157	2.01	148	2.0	100	2.0	127	0	999.8	NA	0.0000		9999	6590	0	0	0
2019/11/27 22:06:00	BASE	1.55	166	2.01	148	2.0	100	2.0	128	0	999.8	NA	0.0000		9999	6530	0	0	0
2019/11/27 22:07:00	BASE	1.66	163	2.42	151	2.0	100	2.0	129	0	999.7	NA	0.0000		9999	6460	0	0	0
2019/11/27 22:08:00	BASE	1.89	152	2.42	151	2.0	100	2.0	130	0	999.7	NA	0.0000		9999	6430	0	0	0
2019/11/27 22:09:00	BASE	1.91	147	2.42	151	2.0	100	2.0	130	0	999.7	NA	0.0000		9999	6370	0	0	0
2019/11/27 22:10:00	BASE	1.86	151	2.42	151	2.0	100	2.0	129	0	999.8	NA	0.0000		9999	6400	0	0	0
2019/11/27 22:11:00	BASE	1.92	154	2.42	151	2.1	100	2.1	127	0	999.8	NA	0.0000		9999	6400	0	0	0
2019/11/27 22:12:00	BASE	1.89	151	2.42	151	2.2	100	2.2	125	0	999.8	NA	0.0000		9999	6330	0	0	0
2019/11/27 22:13:00	BASE	1.94	149	2.42	151	2.2	100	2.2	123	0	999.8	NA	0.0000		9999	6300	0	0	0
2019/11/27 22:14:00	BASE	2.01	149	2.42	151	2.2	100	2.2	122	0	999.8	NA	0.0000		9999	6400	0	0	0
2019/11/27 22:15:00	BASE	2.04	144	2.42	151	2.2	100	2.2	122	0	999.8	NA	0.0000		9999	6370	0	0	0
2019/11/27 22:16:00	BASE	2.16	140	2.42	139	2.2	100	2.2	121	0	999.8	NA	0.0000		9999	6400	0	0	0
2019/11/27 22:17:00	BASE	2.11	137	2.42	139	2.1	100	2.1	120	0	999.8	NA	0.0000		9999	6460	0	0	0
2019/11/27 22:18:00	BASE	2.16	136	2.42	139	2.1	100	2.1	119	0	999.8	NA	0.0000		9999	6460	0	0	0
2019/11/27 22:19:00	BASE	2.30	138	2.52	143	2.1	100	2.1	118	0	999.8	NA	0.0000		9999	6560	0	0	0
2019/11/27 22:20:00	BASE	2.42	138	2.68	132	2.1	100	2.1	117	0	999.8	NA	0.0000		9999	6560	0	0	0
2019/11/27 22:21:00	BASE	2.44	141	2.68	132	2.1	100	2.1	117	0	999.8	NA	0.0000		9999	6500	0	0	0
2019/11/27 22:22:00	BASE	2.25	142	2.68	132	2.1	100	2.1	117	0	999.8	NA	0.0000		9999	6430	8430	0	0
2019/11/27 22:23:00	BASE	2.21	142	2.68	132	2.1	100	2.1	116	0	999.8	NA	0.0000		9999	6590	8430	0	0
2019/11/27 22:24:00	BASE	2.37	147	2.73	152	2.1	100	2.1	114	0	999.8	NA	0.0000		9999	6560	8430	0	0
2019/11/27 22:25:00	BASE	2.54	154	2.83	157	2.1	100	2.1	113	0	999.8	NA	0.0000		9999	6560	22080	0	0
2019/11/27 22:26:00	BASE	2.70	156	3.04	143	2.1	100	2.1	111	0	999.9	NA	0.0000		9999	6630	0	0	0
2019/11/27 22:27:00	BASE	2.53	150	3.04	143	2.2	100	2.2	111	0	999.9	NA	0.0000		9999	6690	8430	0	0
2019/11/27 22:28:00	BASE	2.13	133	3.04	143	2.2	100	2.2	111	0	999.9	NA	0.0000		9999	6660	8460	0	0
2019/11/27 22:29:00	BASE	1.80	122	3.04	143	2.2	100	2.2	112	0	999.9	NA	0.0000		9999	6630	0	0	0
2019/11/27 22:30:00	BASE	2.06	135	3.04	143	2.2	100	2.2	113	0	999.9	NA	0.0000		9999	6730	8330	0	0
2019/11/27 22:31:00	BASE	2.61	148	3.04	143	2.2	100	2.2	112	0	999.9	NA	0.0000		9999	6630	8430	0	0
2019/11/27 22:32:00	BASE	2.57	143	3.04	143	2.2	100	2.2	112	0	999.9	NA	0.0000		9999	6660	8400	0	0
2019/11/27 22:33:00	BASE	2.35	131	3.04	143	2.2	100	2.2	112	0	999.9	NA	0.0000		9999	6730	8500	0	0
2019/11/27 22:34:00	BASE	2.36	126	3.04	143	2.1	100	2.1	112	0	999.9	NA	0.0000		9999	8530	0	0	0
2019/11/27 22:35:00	BASE	2.65	132	3.19	140	2.1	100	2.1	112	0	999.9	NA	0.0000		9999	8500	0	0	0
2019/11/27 22:36:00	BASE	2.83	140	3.19	140	2.1	100	2.1	112	0	999.9	NA	0.0000		9999	8500	0	0	0
2019/11/27 22:37:00	BASE	2.83	151	3.24	154	2.1	100	2.1	112	0	999.9	NA	0.0000		9999	8460	0	0	0
2019/11/27 22:38:00	BASE	2.84	152	3.24	154	2.0	100	2.0	111	0	999.7	NA	0.0000		9999	8500	0	0	0
2019/11/27 22:39:00	BASE	2.81	141	3.24	154	2.0	100	2.0	110	0	999.8	NA	0.0000		9999	8460	0	0	0
2019/11/27 22:40:00	BASE	2.76	132	3.24	154	2.0	100	2.0	110	0	999.9	NA	0.0000		9999	8430	0	0	0
2019/11/27 22:41:00	BASE	2.89	135	3.24	154	2.0	100	2.0	111	0	999.9	NA	0.0000		9999	1120	8370	0	0
2019/11/27 22:42:00	BASE	2.92	148	3.24	154	2.0	100	2.0	111	0	999.9	NA	0.0000		9999	8370	0	0	0
2019/11/27 22:43:00	BASE	2.94	157	3.24	154	2.0	100	2.0	110	0	999.9	NA	0.0000		9999	8300	0	0	0
2019/11/27 22:44:00	BASE	3.12	157	3.34	155	1.9	100	1.9	109	0	999.9	NA	0.0000		9999	8330	0	0	0
2019/11/27 22:45:00	BASE	3.16	157	3.34	155	1.9	100	1.9	108	0	999.9	NA	0.0000		9999	8370	0	0	0
2019/11/27 22:46:00	BASE	3.08	156	3.34	155	1.9	100	1.9	106	0	999.9	NA	0.0000		9999	8270	0	0	0
2019/11/27 22:47:00	BASE	3.07	154	3.34	155	1.9	100	1.9	104	0	999.9	NA	0.0000		9999	8270	0	0	0
2019/11/27 22:48:00	BASE	3.03	151	3.34	155	1.8	100	1.8	101	0	999.9	NA	0.0000		9999	8270	0	0	0
2019/11/27 22:49:00	BASE	3.06	151	3.45	149	1.8	100	1.8	100	0	999.9	NA	0.0000		9999	1080	8370	0	0
2019/11/27 22:50:00	BASE	3.13	150	3.45	149	1.7	100	1.7	97	0	999.9	NA	0.0000		9999	1080	8330	0	0
2019/11/27 22:51:00	BASE	3.08	145	3.45	149	1.7	100	1.7	95	0	999.9	NA	0.0000		9999	8300	0	0	0
2019/11/27 22:52:00	BASE	3.06	143	3.45	149	1.7	100	1.7	94	0	999.9	NA	0.0000		9999	1150	8200	0	0
2019/11/27 22:53:00	BASE	3.02	144	3.45	149	1.6	100	1.6	92	0	999.8	NA	0.0000		9999	8300	0	0	0
2019/11/27 22:54:00	BASE	3.10	146	3.45	147	1.6	100	1.6	89	0	999.9	NA	0.0000		9999	8300	0	0	0
2019/11/27 22:55:00	BASE	3.03	147	3.45	147	1.6	100	1.6	85	0	999.9	NA	0.0000		9999	8330	0	0	0
2019/11/27 22:56:00	BASE	2.71	145	3.45	147	1.6	100	1.6	82	0	999.9	NA	0.0000		9999	8330	0	0	0
2019/11/27 22:57:00	BASE	2.61	147	3.45	147	1.6	100	1.6	80	0	999.9	NA	0.0000		9999	1020	8600	0	0
2019/11/27 22:58:00	BASE	2.70	153	3.45	147	1.6	100	1.6	77	0	999.9	NA	0.0000		9999	1020	8730	0	0
2019/11/27 22:59:00	BASE	2.73	158	3.45	147	1.6	100	1.6	74	0	999.9	NA	0.0000		9999	1050	8730	0	0
2019/11/27 23:00:00	BASE	2.70	161	3.45	147	1.6	100	1.6	72	0	999.9	NA	0.0000		9999	1050	0	0	0
2019/11/27 23:01:00	BASE	2.83	161	3.45	147	1.6	100	1.6	74	0	999.9	NA	0.0000		9999	980	8660	0	0
2019/11/27 23:02:00	BASE	2.78	159	3.45	147	1.5	100	1.5	73	0	999.9	NA	0.0000		9999	980	0	0	0
2019/11/27 23:03:00	BASE	2.48	158	3.45	147	1.5	100	1.5	72	0	999.9	NA	0.0000		9999	980	0	0	0
2019/11/27 23:04:00	BASE	2.60	156	3.19	147	1.5	100	1.5	72	0	999.9	NA	0.0000		9999	1020	0	0	0
2019/11/27 23:05:00	BASE	2.81	155	3.09	162	1.5	100	1.5	70	0	999.9	NA	0.0000		9999	980	0	0	0
2019/11/27 23:06:00	BASE	2.89	154	3.09	154	1.5	100	1.5	73	0	999.9	NA	0.0000		9999	1020	0	0	0
2019/11/27 23:07:00	BASE	2.93	154	3.09	154	1.5	100	1.5	76	0	999.9	NA	0.0000		9999	980	0	0	0
2019/11/27 23:08:00	BASE	2.88	150	3.09	154	1.5	100	1.5	74	0	999.8	NA	0.0000		9999	950	0	0	0
2019/11/27 23:09:00	BASE	2.83	148	3.09	154	1.5	100	1.5	73	0	999.9	NA	0.0000		9999	950	0	0	0
2019/11/27 23:10:00	BASE	2.77	147	3.09	154	1.5	100	1.5	72	0	999.9	NA	0.0000		9999	950	0	0	0
2019/11/27 23:11:00	BASE	2.73	143	3.09	154	1.5	100	1.5	73	0	999.9	NA	0.0000		9999	980	0	0	0
2019/11/27 23:12:00	BASE	2.81	140	3.09	139	1.5	100	1.5	71	0	999.9	NA	0.0000		9999	980	0	0	0
2019/11/27 23:13:00	BASE	2.71	139	3.09	139	1.5	100	1.5	68	0	999.9	NA	0.0000		9999	950	0	0	0
2019/11/27 23:14:00	BASE	2.54	142	3.09	139	1.5	100	1.5	68	0	999.9	NA	0.0000		9999	950	0	0	0
2019/11/27 23:15:00	BASE	2.53	149	3.09	139	1.5	100	1.5	69	0	999.9	NA	0.0000		9999	950	0	0	0
2019/11/27 23:16:00	BASE	2.45	154	3.09	139	1.5	100	1.5	72	0	999.9	NA	0.0000		9999	950	0	0	0
2019/11/27 23:17:00	BASE	2.46	157	3.09	139	1.5	100	1.5	84	0	999.9	NA	0.0000		9999	950	0	0	0
2019/11/27 23:18:00	BASE	2.55	162	3.09	139	1.5	100	1.5	135	0	999.9	NA	0.0000		9999	920	0	0	0
2019/11/27 23:19:00	BASE	2.57	161	3.09	139	1.5	100	1.5	108	0	999.9	NA	0.0000		9999	920	0	0	0
2019/11/27 23:20:00	BASE	2.54	160	3.09	139	1.5	100	1.5	103	0	999.9	NA	0.0000		9999	920	0	0	0
2019/11/27 23:21:00	BASE	2.49	158	3.09	139	1.5	100	1.5	108	0	999.9	NA	0.0000		9999	950	0	0	0
2019/11/27 23:22:00	BASE	2.33	156	2.88	167	1.5	100	1.5	128	0	999.9	NA	0.0000		9999	920	0	0	0
2019/11/27 23:23:00	BASE	2.09	158	2.88	167	1.6	100	1.6	143	0	999.9	NA	0.0000		9999	920	0	0	0
2019/11/27 23:24:00	BASE	1.93	155	2.88	167	1.6	100	1.6	173	0	999.8	NA	0.0000		9999	980	0	0	0
2019/11/27 23:25:00	BASE	1.77	149	2.88	167	1.6	100	1.6	148	0	999.8	NA	0.0000		9999	920	0	0	0
2019/11/27 23:26:00	BASE	1.84	147	2.88	167	1.6	100	1.6	123	0	999.8	NA	0.0000		9999	920	0	0	0
2019/11/27 23:27:00	BASE	1.81	149	2.88	167	1.6	100	1.6	112	0	999.8	NA	0.0000		9999	920	0	0	0
2019/11/27 23:28:00	BASE	1.56	146	2.88	167	1.6	100	1.6	104	0	999.8	NA	0.0000		9999	950	0	0	0
2019/11/27 23:29:00	BASE	1.65	144	2.88	167	1.6	100	1.6	112	0	999.8	NA	0.0000		9999	920	0	0	0
2019/11/27 23:30:00	BASE	1.89	156	2.52	157	1.6	100	1.6	126	0	999.9	NA	0.0000		9999	920	0	0	0
2019/11/27 23:31:00	BASE	2.19	166	2.52	169	1.6	100	1.6	124	0	999.9	NA	0.0000		9999	920	0	0	0
2019/11/27 23:32:00	BASE	2.35	171	2.52	172	1.6	100	1.6	136	0	999.9	NA	0.0000		9999	920	0	0	0
2019/11/27 23:33:00	BASE	2.34	172	2.52	169	1.6	100	1.6	151	0	999.9	NA	0.0000		9999	920	0	0	0
2019/11/27 23:34:00	BASE	2.39	173	2.68	172	1.6	100	1.6	158	0	999.9	NA	0.0000		9999	920	0	0	0
2019/11/27 23:35:00	BASE	2.43	175	2.68	172	1.6	100	1.6	170	0	999.9	NA	0.0000		9999	890	0	0	0
2019/11/27 23:36:00	BASE	2.37	171	2.68	172	1.6	100	1.6	170	0	999.9	NA	0.0000		9999	890	0	0	0
2019/11/27 23:37:00	BASE	2.20	162	2.68	172	1.7	100	1.7	167	0	999.9	NA	0.0000		9999	920	8240	0	0
2019/11/27 23:38:00	BASE	2.00	156	2.68	172	1.7	100	1.7	154	0	999.9	NA	0.0000		9999	920	0	0	0
2019/11/27 23:39:00	BASE	1.82	164	2.68	172	1.7	100	1.7	156	0	999.9	NA	0.0000		9999	920	0	0	0
2019/11/27 23:40:00	BASE	1.80	173	2.68	172	1.7	100	1.7	164	0	999.9	NA	0.0000		9999	890	0	0	0
2019/11/27 23:41:00	BASE	1.37	176	2.68	172	1.7	100	1.7	168	0	999.9	NA	0.0000		9999	890	0	0	0
2019/11/27 23:42:00	BASE	1.04	175	2.68	172	1.7	100	1.7	178	0	999.9	NA	0.0000		9999	850	0	0	0
2019/11/27 23:43:00	BASE	1.24	170	2.68	172	1.7	100	1.7	182	0	999.8	NA	0.0000		9999	850	0	0	0
2019/11/27 23:44:00	BASE	1.00	169	2.52	168	1.7	100	1.7	175	0	999.8	NA	0.0000		9999	890	0	0	0
2019/11/27 23:45:00	BASE	0.83	172	2.52	168	1.7	100	1.7	168	0	999.8	NA	0.0000		9999	890	0	0	0
2019/11/27 23:46:00	BASE	0.87	180	2.21	164	1.7	100	1.7	153	0	999.8	NA	0.0000		9999	890	0	0	0
2019/11/27 23:47:00	BASE	0.84	179	2.16	156	1.7	100	1.7	151	0	999.8	NA	0.0000		9999	890	0	0	0
2019/11/27 23:48:00	BASE	0.96	179	2.11	164	1.7	100	1.7	132	0	999.8	NA	0.0000		9999	920	0	0	0
2019/11/27 23:49:00	BASE	0.92	187	2.11	164	1.7	100	1.7	103	0	999.7	NA	0.0000		9999	950	0	0	0
2019/11/27 23:50:00	BASE	0.48	177	1.95	168	1.6	100	1.6	112	0	999.7	NA	0.0000		9999	920	0	0	0
2019/11/27 23:51:00	BASE	0.14	137	1.54	183	1.6	100	1.6	117	0	999.7	NA	0.0000		9999	920	7970	0	0
2019/11/27 23:52:00	BASE	0.05	105	1.54	183	1.7	100	1.7	132	0	999.7	NA	0.0000		9999	890	7940	0	0
2019/11/27 23:53:00	BASE	0.50	102	1.54	183	1.7	100	1.7	156	0	999.7	NA	0.0000		9999	890	0	0	0
2019/11/27 23:54:00	BASE	1.11	93	1.54	183	1.8	100	1.8	153	0	999.8	NA	0.0000		9999	850	0	0	0
2019/11/27 23:55:00	BASE	0.94	110	1.49	92	1.9	100	1.9	161	0	999.8	NA	0.0000		9999	890	0	0	0
2019/11/27 23:56:00	BASE	0.85	138	1.49	92	2.0	100	2.0	174	0	999.8	NA	0.0000		9999	920	0	0	0
2019/11/27 23:57:00	BASE	0.94	136	1.49	92	2.1	100	2.1	200	0	999.8	NA	0.0000		9999	950	7810	0	0
2019/11/27 23:58:00	BASE	0.42	126	1.49	92	2.2	100	2.2	197	0	999.8	NA	0.0000		9999	790	0	0	0
2019/11/27 23:59:00	BASE	0.00	134	1.49	92	2.2	100	2.2	176	0	999.8	NA	0.0000		9999	850	0	0	0